<?xml version="1.0" encoding="UTF-8" standalone="no" ?>
<gpx xmlns="http://www.topografix.com/GPX/1/1" xmlns:xsi="http://www.w3.org/2001/XMLSchema-instance" xsi:schemaLocation="http://www.topografix.com/GPX/1/1 http://www.topografix.com/GPX/1/1/gpx.xsd" version="1.1" creator="VisuGPX - https://www.visugpx.com">
  <metadata>
    <name>13-BUZAN - JUZET</name>
    <desc><![CDATA[Treiziéme étape d'un parcours de la de la Méditerranée à l'Atlantique.(Buzan à Juzet - en partie). Relevé "Terrain" à l'aide d'un "iPad mini" et du logiciel "IphiGéNie". Pour en savoir plus (photos, commentaires, liens divers) voir mon site : [url]www.la-marche-au-long-cours.fr/crbst_94.html[/url] ]]></desc>
  </metadata>
  <trk>
    <name><![CDATA[Buzan-Juzet (partiel)]]></name>
    <cmt><![CDATA[28 juil. 2014 09:01:00]]></cmt>
    <trkseg>
      <trkpt lat="42.93559" lon="0.93224">
        <ele>706</ele>
        <time>2014-07-28T07:01:00Z</time>
      </trkpt>
      <trkpt lat="42.93553" lon="0.93221">
        <ele>709</ele>
        <time>2014-07-28T07:06:03Z</time>
      </trkpt>
      <trkpt lat="42.93548" lon="0.93221">
        <ele>709</ele>
        <time>2014-07-28T07:06:07Z</time>
      </trkpt>
      <trkpt lat="42.93546" lon="0.93215">
        <ele>708</ele>
        <time>2014-07-28T07:06:12Z</time>
      </trkpt>
      <trkpt lat="42.93548" lon="0.93208">
        <ele>708</ele>
        <time>2014-07-28T07:06:16Z</time>
      </trkpt>
      <trkpt lat="42.93547" lon="0.932">
        <ele>707</ele>
        <time>2014-07-28T07:06:20Z</time>
      </trkpt>
      <trkpt lat="42.93547" lon="0.93181">
        <ele>705</ele>
        <time>2014-07-28T07:06:32Z</time>
      </trkpt>
      <trkpt lat="42.93549" lon="0.93177">
        <ele>703</ele>
        <time>2014-07-28T07:06:51Z</time>
      </trkpt>
      <trkpt lat="42.93551" lon="0.93171">
        <ele>704</ele>
        <time>2014-07-28T07:09:29Z</time>
      </trkpt>
      <trkpt lat="42.93551" lon="0.9313">
        <ele>711</ele>
        <time>2014-07-28T07:09:54Z</time>
      </trkpt>
      <trkpt lat="42.93551" lon="0.93117">
        <ele>710</ele>
        <time>2014-07-28T07:10:03Z</time>
      </trkpt>
      <trkpt lat="42.93552" lon="0.93111">
        <ele>710</ele>
        <time>2014-07-28T07:10:05Z</time>
      </trkpt>
      <trkpt lat="42.93552" lon="0.93103">
        <ele>709</ele>
        <time>2014-07-28T07:10:09Z</time>
      </trkpt>
      <trkpt lat="42.93546" lon="0.93092">
        <ele>707</ele>
        <time>2014-07-28T07:10:16Z</time>
      </trkpt>
      <trkpt lat="42.93542" lon="0.93079">
        <ele>707</ele>
        <time>2014-07-28T07:10:24Z</time>
      </trkpt>
      <trkpt lat="42.93535" lon="0.93052">
        <ele>711</ele>
        <time>2014-07-28T07:10:40Z</time>
      </trkpt>
      <trkpt lat="42.93534" lon="0.93046">
        <ele>711</ele>
        <time>2014-07-28T07:10:44Z</time>
      </trkpt>
      <trkpt lat="42.93529" lon="0.93035">
        <ele>708</ele>
        <time>2014-07-28T07:10:52Z</time>
      </trkpt>
      <trkpt lat="42.93526" lon="0.93029">
        <ele>708</ele>
        <time>2014-07-28T07:10:56Z</time>
      </trkpt>
      <trkpt lat="42.93524" lon="0.93023">
        <ele>708</ele>
        <time>2014-07-28T07:11:00Z</time>
      </trkpt>
      <trkpt lat="42.93495" lon="0.92987">
        <ele>718</ele>
        <time>2014-07-28T07:11:34Z</time>
      </trkpt>
      <trkpt lat="42.93489" lon="0.92976">
        <ele>721</ele>
        <time>2014-07-28T07:11:44Z</time>
      </trkpt>
      <trkpt lat="42.93489" lon="0.92968">
        <ele>724</ele>
        <time>2014-07-28T07:11:50Z</time>
      </trkpt>
      <trkpt lat="42.93489" lon="0.92961">
        <ele>724</ele>
        <time>2014-07-28T07:11:55Z</time>
      </trkpt>
      <trkpt lat="42.93494" lon="0.92925">
        <ele>722</ele>
        <time>2014-07-28T07:12:15Z</time>
      </trkpt>
      <trkpt lat="42.93497" lon="0.92919">
        <ele>723</ele>
        <time>2014-07-28T07:12:19Z</time>
      </trkpt>
      <trkpt lat="42.93498" lon="0.92912">
        <ele>724</ele>
        <time>2014-07-28T07:12:24Z</time>
      </trkpt>
      <trkpt lat="42.93502" lon="0.92907">
        <ele>724</ele>
        <time>2014-07-28T07:12:29Z</time>
      </trkpt>
      <trkpt lat="42.93506" lon="0.92902">
        <ele>724</ele>
        <time>2014-07-28T07:12:34Z</time>
      </trkpt>
      <trkpt lat="42.93512" lon="0.92891">
        <ele>723</ele>
        <time>2014-07-28T07:12:43Z</time>
      </trkpt>
      <trkpt lat="42.93515" lon="0.92887">
        <ele>723</ele>
        <time>2014-07-28T07:12:47Z</time>
      </trkpt>
      <trkpt lat="42.93534" lon="0.92858">
        <ele>726</ele>
        <time>2014-07-28T07:13:17Z</time>
      </trkpt>
      <trkpt lat="42.93539" lon="0.92854">
        <ele>727</ele>
        <time>2014-07-28T07:13:36Z</time>
      </trkpt>
      <trkpt lat="42.93546" lon="0.92827">
        <ele>727</ele>
        <time>2014-07-28T07:13:54Z</time>
      </trkpt>
      <trkpt lat="42.93549" lon="0.92807">
        <ele>723</ele>
        <time>2014-07-28T07:14:07Z</time>
      </trkpt>
      <trkpt lat="42.93548" lon="0.928">
        <ele>723</ele>
        <time>2014-07-28T07:14:11Z</time>
      </trkpt>
      <trkpt lat="42.93549" lon="0.92793">
        <ele>723</ele>
        <time>2014-07-28T07:14:15Z</time>
      </trkpt>
      <trkpt lat="42.93551" lon="0.92778">
        <ele>723</ele>
        <time>2014-07-28T07:14:23Z</time>
      </trkpt>
      <trkpt lat="42.93553" lon="0.92772">
        <ele>723</ele>
        <time>2014-07-28T07:14:27Z</time>
      </trkpt>
      <trkpt lat="42.93554" lon="0.92765">
        <ele>722</ele>
        <time>2014-07-28T07:14:31Z</time>
      </trkpt>
      <trkpt lat="42.93556" lon="0.92752">
        <ele>722</ele>
        <time>2014-07-28T07:14:39Z</time>
      </trkpt>
      <trkpt lat="42.93558" lon="0.92738">
        <ele>724</ele>
        <time>2014-07-28T07:14:47Z</time>
      </trkpt>
      <trkpt lat="42.9356" lon="0.92725">
        <ele>724</ele>
        <time>2014-07-28T07:14:55Z</time>
      </trkpt>
      <trkpt lat="42.93567" lon="0.92715">
        <ele>722</ele>
        <time>2014-07-28T07:15:03Z</time>
      </trkpt>
      <trkpt lat="42.93573" lon="0.92695">
        <ele>719</ele>
        <time>2014-07-28T07:15:15Z</time>
      </trkpt>
      <trkpt lat="42.93572" lon="0.92689">
        <ele>718</ele>
        <time>2014-07-28T07:15:19Z</time>
      </trkpt>
      <trkpt lat="42.93568" lon="0.92686">
        <ele>717</ele>
        <time>2014-07-28T07:15:23Z</time>
      </trkpt>
      <trkpt lat="42.93564" lon="0.92687">
        <ele>714</ele>
        <time>2014-07-28T07:15:28Z</time>
      </trkpt>
      <trkpt lat="42.93546" lon="0.92711">
        <ele>710</ele>
        <time>2014-07-28T07:15:49Z</time>
      </trkpt>
      <trkpt lat="42.93545" lon="0.92705">
        <ele>708</ele>
        <time>2014-07-28T07:15:57Z</time>
      </trkpt>
      <trkpt lat="42.93546" lon="0.92698">
        <ele>708</ele>
        <time>2014-07-28T07:16:03Z</time>
      </trkpt>
      <trkpt lat="42.93547" lon="0.92691">
        <ele>708</ele>
        <time>2014-07-28T07:16:08Z</time>
      </trkpt>
      <trkpt lat="42.93549" lon="0.92671">
        <ele>710</ele>
        <time>2014-07-28T07:16:25Z</time>
      </trkpt>
      <trkpt lat="42.93548" lon="0.92663">
        <ele>710</ele>
        <time>2014-07-28T07:16:30Z</time>
      </trkpt>
      <trkpt lat="42.93546" lon="0.9265">
        <ele>707</ele>
        <time>2014-07-28T07:16:40Z</time>
      </trkpt>
      <trkpt lat="42.93552" lon="0.92637">
        <ele>704</ele>
        <time>2014-07-28T07:16:48Z</time>
      </trkpt>
      <trkpt lat="42.93572" lon="0.92582">
        <ele>694</ele>
        <time>2014-07-28T07:17:21Z</time>
      </trkpt>
      <trkpt lat="42.93573" lon="0.92576">
        <ele>694</ele>
        <time>2014-07-28T07:17:25Z</time>
      </trkpt>
      <trkpt lat="42.93576" lon="0.92569">
        <ele>693</ele>
        <time>2014-07-28T07:17:29Z</time>
      </trkpt>
      <trkpt lat="42.93575" lon="0.92524">
        <ele>686</ele>
        <time>2014-07-28T07:17:57Z</time>
      </trkpt>
      <trkpt lat="42.93571" lon="0.9252">
        <ele>686</ele>
        <time>2014-07-28T07:18:03Z</time>
      </trkpt>
      <trkpt lat="42.93566" lon="0.92522">
        <ele>686</ele>
        <time>2014-07-28T07:18:09Z</time>
      </trkpt>
      <trkpt lat="42.93557" lon="0.92528">
        <ele>686</ele>
        <time>2014-07-28T07:18:17Z</time>
      </trkpt>
      <trkpt lat="42.93542" lon="0.92531">
        <ele>688</ele>
        <time>2014-07-28T07:18:29Z</time>
      </trkpt>
      <trkpt lat="42.93522" lon="0.92529">
        <ele>694</ele>
        <time>2014-07-28T07:18:47Z</time>
      </trkpt>
      <trkpt lat="42.93512" lon="0.92534">
        <ele>698</ele>
        <time>2014-07-28T07:18:55Z</time>
      </trkpt>
      <trkpt lat="42.93507" lon="0.92532">
        <ele>702</ele>
        <time>2014-07-28T07:19:00Z</time>
      </trkpt>
      <trkpt lat="42.93503" lon="0.92527">
        <ele>704</ele>
        <time>2014-07-28T07:19:05Z</time>
      </trkpt>
      <trkpt lat="42.935" lon="0.92521">
        <ele>704</ele>
        <time>2014-07-28T07:19:09Z</time>
      </trkpt>
      <trkpt lat="42.93484" lon="0.92476">
        <ele>691</ele>
        <time>2014-07-28T07:19:34Z</time>
      </trkpt>
      <trkpt lat="42.93479" lon="0.92473">
        <ele>691</ele>
        <time>2014-07-28T07:19:40Z</time>
      </trkpt>
      <trkpt lat="42.93471" lon="0.92464">
        <ele>691</ele>
        <time>2014-07-28T07:19:49Z</time>
      </trkpt>
      <trkpt lat="42.93467" lon="0.92461">
        <ele>690</ele>
        <time>2014-07-28T07:19:54Z</time>
      </trkpt>
      <trkpt lat="42.93463" lon="0.92458">
        <ele>690</ele>
        <time>2014-07-28T07:19:58Z</time>
      </trkpt>
      <trkpt lat="42.93459" lon="0.92453">
        <ele>691</ele>
        <time>2014-07-28T07:20:02Z</time>
      </trkpt>
      <trkpt lat="42.93454" lon="0.92433">
        <ele>695</ele>
        <time>2014-07-28T07:20:20Z</time>
      </trkpt>
      <trkpt lat="42.93453" lon="0.9242">
        <ele>697</ele>
        <time>2014-07-28T07:20:28Z</time>
      </trkpt>
      <trkpt lat="42.93445" lon="0.92396">
        <ele>700</ele>
        <time>2014-07-28T07:20:48Z</time>
      </trkpt>
      <trkpt lat="42.93448" lon="0.92395">
        <ele>700</ele>
        <time>2014-07-28T07:21:01Z</time>
      </trkpt>
      <trkpt lat="42.93449" lon="0.92391">
        <ele>700</ele>
        <time>2014-07-28T07:21:12Z</time>
      </trkpt>
      <trkpt lat="42.93447" lon="0.92384">
        <ele>701</ele>
        <time>2014-07-28T07:21:19Z</time>
      </trkpt>
      <trkpt lat="42.93444" lon="0.9238">
        <ele>702</ele>
        <time>2014-07-28T07:21:26Z</time>
      </trkpt>
      <trkpt lat="42.93439" lon="0.92378">
        <ele>702</ele>
        <time>2014-07-28T07:21:32Z</time>
      </trkpt>
      <trkpt lat="42.93416" lon="0.92391">
        <ele>698</ele>
        <time>2014-07-28T07:21:53Z</time>
      </trkpt>
      <trkpt lat="42.93412" lon="0.92392">
        <ele>699</ele>
        <time>2014-07-28T07:22:52Z</time>
      </trkpt>
      <trkpt lat="42.93412" lon="0.92387">
        <ele>700</ele>
        <time>2014-07-28T07:25:01Z</time>
      </trkpt>
      <trkpt lat="42.93412" lon="0.92381">
        <ele>699</ele>
        <time>2014-07-28T07:25:51Z</time>
      </trkpt>
      <trkpt lat="42.93408" lon="0.92378">
        <ele>699</ele>
        <time>2014-07-28T07:25:59Z</time>
      </trkpt>
      <trkpt lat="42.93405" lon="0.92372">
        <ele>697</ele>
        <time>2014-07-28T07:26:12Z</time>
      </trkpt>
      <trkpt lat="42.93405" lon="0.92365">
        <ele>696</ele>
        <time>2014-07-28T07:26:21Z</time>
      </trkpt>
      <trkpt lat="42.93407" lon="0.92359">
        <ele>698</ele>
        <time>2014-07-28T07:26:30Z</time>
      </trkpt>
      <trkpt lat="42.93408" lon="0.92352">
        <ele>698</ele>
        <time>2014-07-28T07:26:39Z</time>
      </trkpt>
      <trkpt lat="42.93407" lon="0.92346">
        <ele>695</ele>
        <time>2014-07-28T07:26:45Z</time>
      </trkpt>
      <trkpt lat="42.9341" lon="0.92319">
        <ele>690</ele>
        <time>2014-07-28T07:27:09Z</time>
      </trkpt>
      <trkpt lat="42.93408" lon="0.92313">
        <ele>690</ele>
        <time>2014-07-28T07:27:14Z</time>
      </trkpt>
      <trkpt lat="42.93408" lon="0.92307">
        <ele>691</ele>
        <time>2014-07-28T07:27:22Z</time>
      </trkpt>
      <trkpt lat="42.93405" lon="0.92301">
        <ele>691</ele>
        <time>2014-07-28T07:27:27Z</time>
      </trkpt>
      <trkpt lat="42.93403" lon="0.92295">
        <ele>690</ele>
        <time>2014-07-28T07:27:32Z</time>
      </trkpt>
      <trkpt lat="42.93403" lon="0.92288">
        <ele>689</ele>
        <time>2014-07-28T07:27:38Z</time>
      </trkpt>
      <trkpt lat="42.93399" lon="0.92285">
        <ele>690</ele>
        <time>2014-07-28T07:27:45Z</time>
      </trkpt>
      <trkpt lat="42.93391" lon="0.92267">
        <ele>683</ele>
        <time>2014-07-28T07:28:01Z</time>
      </trkpt>
      <trkpt lat="42.93386" lon="0.92264">
        <ele>682</ele>
        <time>2014-07-28T07:28:08Z</time>
      </trkpt>
      <trkpt lat="42.93384" lon="0.92258">
        <ele>681</ele>
        <time>2014-07-28T07:28:16Z</time>
      </trkpt>
      <trkpt lat="42.93383" lon="0.92252">
        <ele>679</ele>
        <time>2014-07-28T07:28:20Z</time>
      </trkpt>
      <trkpt lat="42.93367" lon="0.92227">
        <ele>670</ele>
        <time>2014-07-28T07:28:46Z</time>
      </trkpt>
      <trkpt lat="42.93369" lon="0.92222">
        <ele>668</ele>
        <time>2014-07-28T07:28:53Z</time>
      </trkpt>
      <trkpt lat="42.93367" lon="0.92216">
        <ele>667</ele>
        <time>2014-07-28T07:28:58Z</time>
      </trkpt>
      <trkpt lat="42.93365" lon="0.92208">
        <ele>666</ele>
        <time>2014-07-28T07:29:02Z</time>
      </trkpt>
      <trkpt lat="42.93354" lon="0.9219">
        <ele>666</ele>
        <time>2014-07-28T07:29:13Z</time>
      </trkpt>
      <trkpt lat="42.93337" lon="0.92154">
        <ele>653</ele>
        <time>2014-07-28T07:29:46Z</time>
      </trkpt>
      <trkpt lat="42.93311" lon="0.92131">
        <ele>648</ele>
        <time>2014-07-28T07:30:16Z</time>
      </trkpt>
      <trkpt lat="42.93306" lon="0.92119">
        <ele>646</ele>
        <time>2014-07-28T07:30:30Z</time>
      </trkpt>
      <trkpt lat="42.93302" lon="0.92107">
        <ele>645</ele>
        <time>2014-07-28T07:30:42Z</time>
      </trkpt>
      <trkpt lat="42.93297" lon="0.92102">
        <ele>645</ele>
        <time>2014-07-28T07:30:47Z</time>
      </trkpt>
      <trkpt lat="42.9329" lon="0.92092">
        <ele>648</ele>
        <time>2014-07-28T07:30:58Z</time>
      </trkpt>
      <trkpt lat="42.93288" lon="0.92086">
        <ele>648</ele>
        <time>2014-07-28T07:31:02Z</time>
      </trkpt>
      <trkpt lat="42.93282" lon="0.92067">
        <ele>648</ele>
        <time>2014-07-28T07:31:15Z</time>
      </trkpt>
      <trkpt lat="42.93279" lon="0.92063">
        <ele>648</ele>
        <time>2014-07-28T07:31:21Z</time>
      </trkpt>
      <trkpt lat="42.93272" lon="0.92038">
        <ele>644</ele>
        <time>2014-07-28T07:31:41Z</time>
      </trkpt>
      <trkpt lat="42.93273" lon="0.92035">
        <ele>643</ele>
        <time>2014-07-28T07:31:48Z</time>
      </trkpt>
      <trkpt lat="42.9327" lon="0.92033">
        <ele>641</ele>
        <time>2014-07-28T07:32:03Z</time>
      </trkpt>
      <trkpt lat="42.93267" lon="0.92031">
        <ele>640</ele>
        <time>2014-07-28T07:32:17Z</time>
      </trkpt>
      <trkpt lat="42.93267" lon="0.92024">
        <ele>640</ele>
        <time>2014-07-28T07:32:21Z</time>
      </trkpt>
      <trkpt lat="42.93265" lon="0.92011">
        <ele>640</ele>
        <time>2014-07-28T07:32:29Z</time>
      </trkpt>
      <trkpt lat="42.93262" lon="0.92004">
        <ele>640</ele>
        <time>2014-07-28T07:32:33Z</time>
      </trkpt>
      <trkpt lat="42.93256" lon="0.91985">
        <ele>641</ele>
        <time>2014-07-28T07:32:45Z</time>
      </trkpt>
      <trkpt lat="42.93255" lon="0.91978">
        <ele>641</ele>
        <time>2014-07-28T07:32:49Z</time>
      </trkpt>
      <trkpt lat="42.93249" lon="0.91967">
        <ele>642</ele>
        <time>2014-07-28T07:32:57Z</time>
      </trkpt>
      <trkpt lat="42.93245" lon="0.91952">
        <ele>639</ele>
        <time>2014-07-28T07:33:05Z</time>
      </trkpt>
      <trkpt lat="42.93243" lon="0.91945">
        <ele>639</ele>
        <time>2014-07-28T07:33:09Z</time>
      </trkpt>
      <trkpt lat="42.93238" lon="0.91933">
        <ele>639</ele>
        <time>2014-07-28T07:33:17Z</time>
      </trkpt>
      <trkpt lat="42.9323" lon="0.91892">
        <ele>636</ele>
        <time>2014-07-28T07:33:39Z</time>
      </trkpt>
      <trkpt lat="42.93228" lon="0.91884">
        <ele>637</ele>
        <time>2014-07-28T07:33:43Z</time>
      </trkpt>
      <trkpt lat="42.93227" lon="0.91878">
        <ele>638</ele>
        <time>2014-07-28T07:33:47Z</time>
      </trkpt>
      <trkpt lat="42.93224" lon="0.91866">
        <ele>639</ele>
        <time>2014-07-28T07:33:55Z</time>
      </trkpt>
      <trkpt lat="42.93222" lon="0.91849">
        <ele>637</ele>
        <time>2014-07-28T07:34:04Z</time>
      </trkpt>
      <trkpt lat="42.93223" lon="0.91842">
        <ele>637</ele>
        <time>2014-07-28T07:34:08Z</time>
      </trkpt>
      <trkpt lat="42.93221" lon="0.91829">
        <ele>636</ele>
        <time>2014-07-28T07:34:15Z</time>
      </trkpt>
      <trkpt lat="42.9322" lon="0.91821">
        <ele>636</ele>
        <time>2014-07-28T07:34:19Z</time>
      </trkpt>
      <trkpt lat="42.93219" lon="0.91799">
        <ele>640</ele>
        <time>2014-07-28T07:34:31Z</time>
      </trkpt>
      <trkpt lat="42.93218" lon="0.91771">
        <ele>640</ele>
        <time>2014-07-28T07:34:46Z</time>
      </trkpt>
      <trkpt lat="42.93216" lon="0.91764">
        <ele>640</ele>
        <time>2014-07-28T07:34:50Z</time>
      </trkpt>
      <trkpt lat="42.93214" lon="0.91757">
        <ele>640</ele>
        <time>2014-07-28T07:34:55Z</time>
      </trkpt>
      <trkpt lat="42.93214" lon="0.91749">
        <ele>640</ele>
        <time>2014-07-28T07:35:01Z</time>
      </trkpt>
      <trkpt lat="42.93212" lon="0.9174">
        <ele>641</ele>
        <time>2014-07-28T07:35:07Z</time>
      </trkpt>
      <trkpt lat="42.93212" lon="0.91733">
        <ele>640</ele>
        <time>2014-07-28T07:35:11Z</time>
      </trkpt>
      <trkpt lat="42.93215" lon="0.91698">
        <ele>639</ele>
        <time>2014-07-28T07:35:27Z</time>
      </trkpt>
      <trkpt lat="42.93215" lon="0.91677">
        <ele>640</ele>
        <time>2014-07-28T07:35:38Z</time>
      </trkpt>
      <trkpt lat="42.93211" lon="0.91664">
        <ele>641</ele>
        <time>2014-07-28T07:35:46Z</time>
      </trkpt>
      <trkpt lat="42.93179" lon="0.91619">
        <ele>636</ele>
        <time>2014-07-28T07:36:19Z</time>
      </trkpt>
      <trkpt lat="42.93175" lon="0.91616">
        <ele>636</ele>
        <time>2014-07-28T07:36:23Z</time>
      </trkpt>
      <trkpt lat="42.93166" lon="0.91609">
        <ele>637</ele>
        <time>2014-07-28T07:36:31Z</time>
      </trkpt>
      <trkpt lat="42.93128" lon="0.91594">
        <ele>638</ele>
        <time>2014-07-28T07:37:02Z</time>
      </trkpt>
      <trkpt lat="42.93111" lon="0.91589">
        <ele>639</ele>
        <time>2014-07-28T07:37:14Z</time>
      </trkpt>
      <trkpt lat="42.93106" lon="0.91587">
        <ele>639</ele>
        <time>2014-07-28T07:37:18Z</time>
      </trkpt>
      <trkpt lat="42.93101" lon="0.91585">
        <ele>640</ele>
        <time>2014-07-28T07:37:22Z</time>
      </trkpt>
      <trkpt lat="42.93096" lon="0.91583">
        <ele>640</ele>
        <time>2014-07-28T07:37:26Z</time>
      </trkpt>
      <trkpt lat="42.93091" lon="0.91584">
        <ele>640</ele>
        <time>2014-07-28T07:37:30Z</time>
      </trkpt>
      <trkpt lat="42.9308" lon="0.91581">
        <ele>640</ele>
        <time>2014-07-28T07:37:38Z</time>
      </trkpt>
      <trkpt lat="42.93059" lon="0.91576">
        <ele>642</ele>
        <time>2014-07-28T07:37:55Z</time>
      </trkpt>
      <trkpt lat="42.93048" lon="0.91575">
        <ele>642</ele>
        <time>2014-07-28T07:38:03Z</time>
      </trkpt>
      <trkpt lat="42.93031" lon="0.91572">
        <ele>642</ele>
        <time>2014-07-28T07:38:15Z</time>
      </trkpt>
      <trkpt lat="42.93027" lon="0.9157">
        <ele>641</ele>
        <time>2014-07-28T07:38:19Z</time>
      </trkpt>
      <trkpt lat="42.93016" lon="0.91568">
        <ele>642</ele>
        <time>2014-07-28T07:38:27Z</time>
      </trkpt>
      <trkpt lat="42.92994" lon="0.91554">
        <ele>640</ele>
        <time>2014-07-28T07:38:46Z</time>
      </trkpt>
      <trkpt lat="42.92976" lon="0.91528">
        <ele>649</ele>
        <time>2014-07-28T07:39:13Z</time>
      </trkpt>
      <trkpt lat="42.92973" lon="0.91522">
        <ele>649</ele>
        <time>2014-07-28T07:39:19Z</time>
      </trkpt>
      <trkpt lat="42.9297" lon="0.91517">
        <ele>650</ele>
        <time>2014-07-28T07:39:23Z</time>
      </trkpt>
      <trkpt lat="42.92949" lon="0.91489">
        <ele>651</ele>
        <time>2014-07-28T07:39:49Z</time>
      </trkpt>
      <trkpt lat="42.92946" lon="0.91484">
        <ele>652</ele>
        <time>2014-07-28T07:39:57Z</time>
      </trkpt>
      <trkpt lat="42.92942" lon="0.91479">
        <ele>652</ele>
        <time>2014-07-28T07:40:02Z</time>
      </trkpt>
      <trkpt lat="42.92939" lon="0.91472">
        <ele>651</ele>
        <time>2014-07-28T07:40:06Z</time>
      </trkpt>
      <trkpt lat="42.92934" lon="0.91462">
        <ele>652</ele>
        <time>2014-07-28T07:40:14Z</time>
      </trkpt>
      <trkpt lat="42.92935" lon="0.91456">
        <ele>653</ele>
        <time>2014-07-28T07:40:19Z</time>
      </trkpt>
      <trkpt lat="42.92933" lon="0.91449">
        <ele>652</ele>
        <time>2014-07-28T07:40:24Z</time>
      </trkpt>
      <trkpt lat="42.92931" lon="0.91442">
        <ele>651</ele>
        <time>2014-07-28T07:40:29Z</time>
      </trkpt>
      <trkpt lat="42.92928" lon="0.91438">
        <ele>652</ele>
        <time>2014-07-28T07:41:11Z</time>
      </trkpt>
      <trkpt lat="42.92931" lon="0.91435">
        <ele>652</ele>
        <time>2014-07-28T07:41:34Z</time>
      </trkpt>
      <trkpt lat="42.92933" lon="0.91434">
        <ele>652</ele>
        <time>2014-07-28T07:42:17Z</time>
      </trkpt>
      <trkpt lat="42.92928" lon="0.91428">
        <ele>650</ele>
        <time>2014-07-28T07:42:34Z</time>
      </trkpt>
      <trkpt lat="42.92927" lon="0.91422">
        <ele>650</ele>
        <time>2014-07-28T07:42:38Z</time>
      </trkpt>
      <trkpt lat="42.92925" lon="0.91416">
        <ele>651</ele>
        <time>2014-07-28T07:42:42Z</time>
      </trkpt>
      <trkpt lat="42.92926" lon="0.91409">
        <ele>651</ele>
        <time>2014-07-28T07:42:48Z</time>
      </trkpt>
      <trkpt lat="42.92925" lon="0.91364">
        <ele>659</ele>
        <time>2014-07-28T07:43:18Z</time>
      </trkpt>
      <trkpt lat="42.92926" lon="0.91351">
        <ele>659</ele>
        <time>2014-07-28T07:43:25Z</time>
      </trkpt>
      <trkpt lat="42.92926" lon="0.91344">
        <ele>659</ele>
        <time>2014-07-28T07:43:29Z</time>
      </trkpt>
      <trkpt lat="42.92927" lon="0.91338">
        <ele>658</ele>
        <time>2014-07-28T07:43:32Z</time>
      </trkpt>
      <trkpt lat="42.92928" lon="0.91324">
        <ele>658</ele>
        <time>2014-07-28T07:43:39Z</time>
      </trkpt>
      <trkpt lat="42.92925" lon="0.91297">
        <ele>662</ele>
        <time>2014-07-28T07:43:55Z</time>
      </trkpt>
      <trkpt lat="42.92924" lon="0.9129">
        <ele>662</ele>
        <time>2014-07-28T07:43:59Z</time>
      </trkpt>
      <trkpt lat="42.92919" lon="0.91277">
        <ele>662</ele>
        <time>2014-07-28T07:44:08Z</time>
      </trkpt>
      <trkpt lat="42.92905" lon="0.91257">
        <ele>665</ele>
        <time>2014-07-28T07:44:27Z</time>
      </trkpt>
      <trkpt lat="42.92902" lon="0.91244">
        <ele>666</ele>
        <time>2014-07-28T07:44:35Z</time>
      </trkpt>
      <trkpt lat="42.92903" lon="0.91237">
        <ele>666</ele>
        <time>2014-07-28T07:44:39Z</time>
      </trkpt>
      <trkpt lat="42.92903" lon="0.9123">
        <ele>666</ele>
        <time>2014-07-28T07:44:43Z</time>
      </trkpt>
      <trkpt lat="42.92901" lon="0.91224">
        <ele>666</ele>
        <time>2014-07-28T07:44:47Z</time>
      </trkpt>
      <trkpt lat="42.92899" lon="0.91195">
        <ele>668</ele>
        <time>2014-07-28T07:45:04Z</time>
      </trkpt>
      <trkpt lat="42.92899" lon="0.91187">
        <ele>668</ele>
        <time>2014-07-28T07:45:08Z</time>
      </trkpt>
      <trkpt lat="42.929" lon="0.91171">
        <ele>670</ele>
        <time>2014-07-28T07:45:17Z</time>
      </trkpt>
      <trkpt lat="42.92898" lon="0.91135">
        <ele>672</ele>
        <time>2014-07-28T07:45:38Z</time>
      </trkpt>
      <trkpt lat="42.92897" lon="0.91128">
        <ele>671</ele>
        <time>2014-07-28T07:45:43Z</time>
      </trkpt>
      <trkpt lat="42.92895" lon="0.91122">
        <ele>671</ele>
        <time>2014-07-28T07:45:47Z</time>
      </trkpt>
      <trkpt lat="42.92892" lon="0.91107">
        <ele>673</ele>
        <time>2014-07-28T07:45:56Z</time>
      </trkpt>
      <trkpt lat="42.9289" lon="0.911">
        <ele>673</ele>
        <time>2014-07-28T07:46:00Z</time>
      </trkpt>
      <trkpt lat="42.92888" lon="0.91088">
        <ele>674</ele>
        <time>2014-07-28T07:46:08Z</time>
      </trkpt>
      <trkpt lat="42.92885" lon="0.91082">
        <ele>675</ele>
        <time>2014-07-28T07:46:14Z</time>
      </trkpt>
      <trkpt lat="42.92885" lon="0.91039">
        <ele>677</ele>
        <time>2014-07-28T07:46:37Z</time>
      </trkpt>
      <trkpt lat="42.929" lon="0.91001">
        <ele>682</ele>
        <time>2014-07-28T07:47:05Z</time>
      </trkpt>
      <trkpt lat="42.92903" lon="0.90996">
        <ele>682</ele>
        <time>2014-07-28T07:47:09Z</time>
      </trkpt>
      <trkpt lat="42.92914" lon="0.9098">
        <ele>683</ele>
        <time>2014-07-28T07:47:21Z</time>
      </trkpt>
      <trkpt lat="42.92921" lon="0.90969">
        <ele>683</ele>
        <time>2014-07-28T07:47:29Z</time>
      </trkpt>
      <trkpt lat="42.9293" lon="0.90949">
        <ele>678</ele>
        <time>2014-07-28T07:47:40Z</time>
      </trkpt>
      <trkpt lat="42.92942" lon="0.90917">
        <ele>680</ele>
        <time>2014-07-28T07:48:00Z</time>
      </trkpt>
      <trkpt lat="42.92946" lon="0.90904">
        <ele>680</ele>
        <time>2014-07-28T07:48:09Z</time>
      </trkpt>
      <trkpt lat="42.92962" lon="0.90875">
        <ele>673</ele>
        <time>2014-07-28T07:48:29Z</time>
      </trkpt>
      <trkpt lat="42.92965" lon="0.90862">
        <ele>673</ele>
        <time>2014-07-28T07:48:36Z</time>
      </trkpt>
      <trkpt lat="42.92968" lon="0.90836">
        <ele>674</ele>
        <time>2014-07-28T07:48:50Z</time>
      </trkpt>
      <trkpt lat="42.9297" lon="0.90823">
        <ele>676</ele>
        <time>2014-07-28T07:48:57Z</time>
      </trkpt>
      <trkpt lat="42.92967" lon="0.90818">
        <ele>678</ele>
        <time>2014-07-28T07:49:02Z</time>
      </trkpt>
      <trkpt lat="42.92968" lon="0.90811">
        <ele>678</ele>
        <time>2014-07-28T07:49:06Z</time>
      </trkpt>
      <trkpt lat="42.92965" lon="0.9079">
        <ele>676</ele>
        <time>2014-07-28T07:49:17Z</time>
      </trkpt>
      <trkpt lat="42.92961" lon="0.90784">
        <ele>676</ele>
        <time>2014-07-28T07:49:21Z</time>
      </trkpt>
      <trkpt lat="42.9295" lon="0.90778">
        <ele>674</ele>
        <time>2014-07-28T07:49:31Z</time>
      </trkpt>
      <trkpt lat="42.92939" lon="0.90762">
        <ele>678</ele>
        <time>2014-07-28T07:49:43Z</time>
      </trkpt>
      <trkpt lat="42.92937" lon="0.90755">
        <ele>680</ele>
        <time>2014-07-28T07:49:47Z</time>
      </trkpt>
      <trkpt lat="42.92932" lon="0.90736">
        <ele>681</ele>
        <time>2014-07-28T07:49:57Z</time>
      </trkpt>
      <trkpt lat="42.92929" lon="0.90699">
        <ele>676</ele>
        <time>2014-07-28T07:50:16Z</time>
      </trkpt>
      <trkpt lat="42.9293" lon="0.9069">
        <ele>675</ele>
        <time>2014-07-28T07:50:21Z</time>
      </trkpt>
      <trkpt lat="42.92932" lon="0.90681">
        <ele>675</ele>
        <time>2014-07-28T07:50:26Z</time>
      </trkpt>
      <trkpt lat="42.92933" lon="0.90675">
        <ele>675</ele>
        <time>2014-07-28T07:50:29Z</time>
      </trkpt>
      <trkpt lat="42.92934" lon="0.90669">
        <ele>675</ele>
        <time>2014-07-28T07:50:32Z</time>
      </trkpt>
      <trkpt lat="42.92941" lon="0.90656">
        <ele>674</ele>
        <time>2014-07-28T07:50:41Z</time>
      </trkpt>
      <trkpt lat="42.92955" lon="0.90626">
        <ele>680</ele>
        <time>2014-07-28T07:51:01Z</time>
      </trkpt>
      <trkpt lat="42.92973" lon="0.90601">
        <ele>676</ele>
        <time>2014-07-28T07:51:18Z</time>
      </trkpt>
      <trkpt lat="42.92976" lon="0.90594">
        <ele>676</ele>
        <time>2014-07-28T07:51:22Z</time>
      </trkpt>
      <trkpt lat="42.92982" lon="0.90582">
        <ele>675</ele>
        <time>2014-07-28T07:51:30Z</time>
      </trkpt>
      <trkpt lat="42.92987" lon="0.9057">
        <ele>674</ele>
        <time>2014-07-28T07:51:38Z</time>
      </trkpt>
      <trkpt lat="42.92989" lon="0.90563">
        <ele>674</ele>
        <time>2014-07-28T07:51:42Z</time>
      </trkpt>
      <trkpt lat="42.92992" lon="0.90556">
        <ele>674</ele>
        <time>2014-07-28T07:51:46Z</time>
      </trkpt>
      <trkpt lat="42.93001" lon="0.90551">
        <ele>670</ele>
        <time>2014-07-28T07:51:52Z</time>
      </trkpt>
      <trkpt lat="42.93005" lon="0.90546">
        <ele>670</ele>
        <time>2014-07-28T07:51:56Z</time>
      </trkpt>
      <trkpt lat="42.93011" lon="0.90535">
        <ele>668</ele>
        <time>2014-07-28T07:52:03Z</time>
      </trkpt>
      <trkpt lat="42.93013" lon="0.90529">
        <ele>669</ele>
        <time>2014-07-28T07:52:07Z</time>
      </trkpt>
      <trkpt lat="42.93011" lon="0.90514">
        <ele>668</ele>
        <time>2014-07-28T07:52:15Z</time>
      </trkpt>
      <trkpt lat="42.93008" lon="0.90509">
        <ele>669</ele>
        <time>2014-07-28T07:52:23Z</time>
      </trkpt>
      <trkpt lat="42.93006" lon="0.90503">
        <ele>670</ele>
        <time>2014-07-28T07:52:27Z</time>
      </trkpt>
      <trkpt lat="42.93003" lon="0.90497">
        <ele>669</ele>
        <time>2014-07-28T07:52:31Z</time>
      </trkpt>
      <trkpt lat="42.92998" lon="0.90486">
        <ele>667</ele>
        <time>2014-07-28T07:52:39Z</time>
      </trkpt>
      <trkpt lat="42.92993" lon="0.90481">
        <ele>668</ele>
        <time>2014-07-28T07:52:43Z</time>
      </trkpt>
      <trkpt lat="42.92989" lon="0.90477">
        <ele>669</ele>
        <time>2014-07-28T07:52:47Z</time>
      </trkpt>
      <trkpt lat="42.92981" lon="0.90466">
        <ele>669</ele>
        <time>2014-07-28T07:52:55Z</time>
      </trkpt>
      <trkpt lat="42.92979" lon="0.9046">
        <ele>669</ele>
        <time>2014-07-28T07:52:59Z</time>
      </trkpt>
      <trkpt lat="42.92948" lon="0.90433">
        <ele>670</ele>
        <time>2014-07-28T07:53:24Z</time>
      </trkpt>
      <trkpt lat="42.92912" lon="0.90401">
        <ele>675</ele>
        <time>2014-07-28T07:53:56Z</time>
      </trkpt>
      <trkpt lat="42.92903" lon="0.90391">
        <ele>677</ele>
        <time>2014-07-28T07:54:04Z</time>
      </trkpt>
      <trkpt lat="42.92899" lon="0.90386">
        <ele>677</ele>
        <time>2014-07-28T07:54:08Z</time>
      </trkpt>
      <trkpt lat="42.92891" lon="0.90377">
        <ele>677</ele>
        <time>2014-07-28T07:54:16Z</time>
      </trkpt>
      <trkpt lat="42.92888" lon="0.90372">
        <ele>676</ele>
        <time>2014-07-28T07:54:20Z</time>
      </trkpt>
      <trkpt lat="42.92887" lon="0.90366">
        <ele>677</ele>
        <time>2014-07-28T07:54:24Z</time>
      </trkpt>
      <trkpt lat="42.92883" lon="0.90338">
        <ele>678</ele>
        <time>2014-07-28T07:54:40Z</time>
      </trkpt>
      <trkpt lat="42.92883" lon="0.9033">
        <ele>678</ele>
        <time>2014-07-28T07:54:45Z</time>
      </trkpt>
      <trkpt lat="42.92882" lon="0.90324">
        <ele>677</ele>
        <time>2014-07-28T07:54:50Z</time>
      </trkpt>
      <trkpt lat="42.9289" lon="0.90268">
        <ele>686</ele>
        <time>2014-07-28T07:55:23Z</time>
      </trkpt>
      <trkpt lat="42.92891" lon="0.9026">
        <ele>685</ele>
        <time>2014-07-28T07:55:27Z</time>
      </trkpt>
      <trkpt lat="42.92892" lon="0.90253">
        <ele>685</ele>
        <time>2014-07-28T07:55:31Z</time>
      </trkpt>
      <trkpt lat="42.92897" lon="0.90241">
        <ele>685</ele>
        <time>2014-07-28T07:55:39Z</time>
      </trkpt>
      <trkpt lat="42.92899" lon="0.90235">
        <ele>685</ele>
        <time>2014-07-28T07:55:43Z</time>
      </trkpt>
      <trkpt lat="42.92905" lon="0.90223">
        <ele>686</ele>
        <time>2014-07-28T07:55:51Z</time>
      </trkpt>
      <trkpt lat="42.92908" lon="0.90218">
        <ele>687</ele>
        <time>2014-07-28T07:55:55Z</time>
      </trkpt>
      <trkpt lat="42.92911" lon="0.90212">
        <ele>688</ele>
        <time>2014-07-28T07:55:59Z</time>
      </trkpt>
      <trkpt lat="42.92914" lon="0.90207">
        <ele>688</ele>
        <time>2014-07-28T07:56:03Z</time>
      </trkpt>
      <trkpt lat="42.92928" lon="0.90187">
        <ele>688</ele>
        <time>2014-07-28T07:56:17Z</time>
      </trkpt>
      <trkpt lat="42.92934" lon="0.90175">
        <ele>691</ele>
        <time>2014-07-28T07:56:26Z</time>
      </trkpt>
      <trkpt lat="42.92939" lon="0.90164">
        <ele>690</ele>
        <time>2014-07-28T07:56:32Z</time>
      </trkpt>
      <trkpt lat="42.92942" lon="0.90152">
        <ele>693</ele>
        <time>2014-07-28T07:56:42Z</time>
      </trkpt>
      <trkpt lat="42.92944" lon="0.90143">
        <ele>690</ele>
        <time>2014-07-28T07:56:58Z</time>
      </trkpt>
      <trkpt lat="42.92947" lon="0.90129">
        <ele>693</ele>
        <time>2014-07-28T07:57:07Z</time>
      </trkpt>
      <trkpt lat="42.92947" lon="0.90105">
        <ele>692</ele>
        <time>2014-07-28T07:57:20Z</time>
      </trkpt>
      <trkpt lat="42.92949" lon="0.90088">
        <ele>690</ele>
        <time>2014-07-28T07:57:34Z</time>
      </trkpt>
      <trkpt lat="42.92948" lon="0.90082">
        <ele>690</ele>
        <time>2014-07-28T07:57:38Z</time>
      </trkpt>
      <trkpt lat="42.92949" lon="0.90048">
        <ele>685</ele>
        <time>2014-07-28T07:57:55Z</time>
      </trkpt>
      <trkpt lat="42.92948" lon="0.90026">
        <ele>686</ele>
        <time>2014-07-28T07:58:09Z</time>
      </trkpt>
      <trkpt lat="42.9295" lon="0.90019">
        <ele>686</ele>
        <time>2014-07-28T07:58:13Z</time>
      </trkpt>
      <trkpt lat="42.92951" lon="0.90012">
        <ele>686</ele>
        <time>2014-07-28T07:58:17Z</time>
      </trkpt>
      <trkpt lat="42.92951" lon="0.89997">
        <ele>687</ele>
        <time>2014-07-28T07:58:25Z</time>
      </trkpt>
      <trkpt lat="42.92952" lon="0.8999">
        <ele>687</ele>
        <time>2014-07-28T07:58:29Z</time>
      </trkpt>
      <trkpt lat="42.92955" lon="0.89976">
        <ele>686</ele>
        <time>2014-07-28T07:58:35Z</time>
      </trkpt>
      <trkpt lat="42.92956" lon="0.89963">
        <ele>685</ele>
        <time>2014-07-28T07:58:43Z</time>
      </trkpt>
      <trkpt lat="42.92955" lon="0.89956">
        <ele>685</ele>
        <time>2014-07-28T07:58:48Z</time>
      </trkpt>
      <trkpt lat="42.92953" lon="0.89934">
        <ele>686</ele>
        <time>2014-07-28T07:59:00Z</time>
      </trkpt>
      <trkpt lat="42.92953" lon="0.89927">
        <ele>686</ele>
        <time>2014-07-28T07:59:04Z</time>
      </trkpt>
      <trkpt lat="42.92953" lon="0.89908">
        <ele>684</ele>
        <time>2014-07-28T07:59:13Z</time>
      </trkpt>
      <trkpt lat="42.92941" lon="0.89855">
        <ele>688</ele>
        <time>2014-07-28T07:59:44Z</time>
      </trkpt>
      <trkpt lat="42.92933" lon="0.8982">
        <ele>692</ele>
        <time>2014-07-28T08:00:04Z</time>
      </trkpt>
      <trkpt lat="42.92927" lon="0.89807">
        <ele>691</ele>
        <time>2014-07-28T08:00:12Z</time>
      </trkpt>
      <trkpt lat="42.92924" lon="0.89801">
        <ele>692</ele>
        <time>2014-07-28T08:00:16Z</time>
      </trkpt>
      <trkpt lat="42.92916" lon="0.89791">
        <ele>691</ele>
        <time>2014-07-28T08:00:24Z</time>
      </trkpt>
      <trkpt lat="42.92895" lon="0.89761">
        <ele>681</ele>
        <time>2014-07-28T08:01:04Z</time>
      </trkpt>
      <trkpt lat="42.92893" lon="0.89755">
        <ele>680</ele>
        <time>2014-07-28T08:01:09Z</time>
      </trkpt>
      <trkpt lat="42.92886" lon="0.89744">
        <ele>680</ele>
        <time>2014-07-28T08:01:17Z</time>
      </trkpt>
      <trkpt lat="42.92881" lon="0.8973">
        <ele>679</ele>
        <time>2014-07-28T08:01:25Z</time>
      </trkpt>
      <trkpt lat="42.92874" lon="0.89711">
        <ele>679</ele>
        <time>2014-07-28T08:01:37Z</time>
      </trkpt>
      <trkpt lat="42.9287" lon="0.89698">
        <ele>680</ele>
        <time>2014-07-28T08:01:45Z</time>
      </trkpt>
      <trkpt lat="42.92864" lon="0.89678">
        <ele>680</ele>
        <time>2014-07-28T08:01:57Z</time>
      </trkpt>
      <trkpt lat="42.92862" lon="0.89671">
        <ele>679</ele>
        <time>2014-07-28T08:02:01Z</time>
      </trkpt>
      <trkpt lat="42.92861" lon="0.89663">
        <ele>679</ele>
        <time>2014-07-28T08:02:05Z</time>
      </trkpt>
      <trkpt lat="42.92859" lon="0.89656">
        <ele>679</ele>
        <time>2014-07-28T08:02:09Z</time>
      </trkpt>
      <trkpt lat="42.92861" lon="0.89643">
        <ele>680</ele>
        <time>2014-07-28T08:02:16Z</time>
      </trkpt>
      <trkpt lat="42.92858" lon="0.89637">
        <ele>682</ele>
        <time>2014-07-28T08:02:21Z</time>
      </trkpt>
      <trkpt lat="42.92859" lon="0.89623">
        <ele>688</ele>
        <time>2014-07-28T08:02:35Z</time>
      </trkpt>
      <trkpt lat="42.92861" lon="0.89616">
        <ele>690</ele>
        <time>2014-07-28T08:02:40Z</time>
      </trkpt>
      <trkpt lat="42.92865" lon="0.89603">
        <ele>689</ele>
        <time>2014-07-28T08:02:48Z</time>
      </trkpt>
      <trkpt lat="42.92871" lon="0.89586">
        <ele>688</ele>
        <time>2014-07-28T08:02:59Z</time>
      </trkpt>
      <trkpt lat="42.92874" lon="0.89578">
        <ele>688</ele>
        <time>2014-07-28T08:03:03Z</time>
      </trkpt>
      <trkpt lat="42.92877" lon="0.89566">
        <ele>686</ele>
        <time>2014-07-28T08:03:10Z</time>
      </trkpt>
      <trkpt lat="42.92884" lon="0.89547">
        <ele>688</ele>
        <time>2014-07-28T08:03:22Z</time>
      </trkpt>
      <trkpt lat="42.92889" lon="0.89535">
        <ele>686</ele>
        <time>2014-07-28T08:03:30Z</time>
      </trkpt>
      <trkpt lat="42.92891" lon="0.89529">
        <ele>686</ele>
        <time>2014-07-28T08:03:34Z</time>
      </trkpt>
      <trkpt lat="42.92891" lon="0.8953">
        <ele>684</ele>
        <time>2014-07-28T08:03:42Z</time>
      </trkpt>
      <trkpt lat="42.92888" lon="0.89532">
        <ele>682</ele>
        <time>2014-07-28T08:03:53Z</time>
      </trkpt>
      <trkpt lat="42.92889" lon="0.89525">
        <ele>681</ele>
        <time>2014-07-28T08:04:00Z</time>
      </trkpt>
      <trkpt lat="42.92889" lon="0.89518">
        <ele>682</ele>
        <time>2014-07-28T08:04:07Z</time>
      </trkpt>
      <trkpt lat="42.92884" lon="0.89514">
        <ele>685</ele>
        <time>2014-07-28T08:04:12Z</time>
      </trkpt>
      <trkpt lat="42.92874" lon="0.89481">
        <ele>690</ele>
        <time>2014-07-28T08:04:30Z</time>
      </trkpt>
      <trkpt lat="42.92873" lon="0.89473">
        <ele>690</ele>
        <time>2014-07-28T08:04:34Z</time>
      </trkpt>
      <trkpt lat="42.92871" lon="0.89461">
        <ele>689</ele>
        <time>2014-07-28T08:04:40Z</time>
      </trkpt>
      <trkpt lat="42.92867" lon="0.89448">
        <ele>689</ele>
        <time>2014-07-28T08:04:48Z</time>
      </trkpt>
      <trkpt lat="42.92867" lon="0.8944">
        <ele>688</ele>
        <time>2014-07-28T08:04:52Z</time>
      </trkpt>
      <trkpt lat="42.92865" lon="0.89435">
        <ele>688</ele>
        <time>2014-07-28T08:04:57Z</time>
      </trkpt>
      <trkpt lat="42.92887" lon="0.89431">
        <ele>705</ele>
        <time>2014-07-28T08:30:55Z</time>
      </trkpt>
      <trkpt lat="42.92858" lon="0.89451">
        <ele>702</ele>
        <time>2014-07-28T08:31:49Z</time>
      </trkpt>
      <trkpt lat="42.92863" lon="0.89453">
        <ele>686</ele>
        <time>2014-07-28T08:31:58Z</time>
      </trkpt>
      <trkpt lat="42.92871" lon="0.89472">
        <ele>678</ele>
        <time>2014-07-28T08:32:13Z</time>
      </trkpt>
      <trkpt lat="42.92872" lon="0.89479">
        <ele>679</ele>
        <time>2014-07-28T08:32:17Z</time>
      </trkpt>
      <trkpt lat="42.92876" lon="0.89492">
        <ele>679</ele>
        <time>2014-07-28T08:32:25Z</time>
      </trkpt>
      <trkpt lat="42.92887" lon="0.89517">
        <ele>679</ele>
        <time>2014-07-28T08:32:41Z</time>
      </trkpt>
      <trkpt lat="42.9289" lon="0.89521">
        <ele>678</ele>
        <time>2014-07-28T08:32:45Z</time>
      </trkpt>
      <trkpt lat="42.92892" lon="0.89515">
        <ele>679</ele>
        <time>2014-07-28T08:32:53Z</time>
      </trkpt>
      <trkpt lat="42.92896" lon="0.8951">
        <ele>679</ele>
        <time>2014-07-28T08:32:58Z</time>
      </trkpt>
      <trkpt lat="42.929" lon="0.89507">
        <ele>679</ele>
        <time>2014-07-28T08:33:02Z</time>
      </trkpt>
      <trkpt lat="42.92905" lon="0.89504">
        <ele>679</ele>
        <time>2014-07-28T08:33:06Z</time>
      </trkpt>
      <trkpt lat="42.92907" lon="0.89498">
        <ele>680</ele>
        <time>2014-07-28T08:33:10Z</time>
      </trkpt>
      <trkpt lat="42.92908" lon="0.89492">
        <ele>679</ele>
        <time>2014-07-28T08:33:14Z</time>
      </trkpt>
      <trkpt lat="42.9291" lon="0.89486">
        <ele>679</ele>
        <time>2014-07-28T08:33:22Z</time>
      </trkpt>
      <trkpt lat="42.92915" lon="0.89481">
        <ele>680</ele>
        <time>2014-07-28T08:33:27Z</time>
      </trkpt>
      <trkpt lat="42.9292" lon="0.8948">
        <ele>680</ele>
        <time>2014-07-28T08:33:30Z</time>
      </trkpt>
      <trkpt lat="42.92925" lon="0.89478">
        <ele>680</ele>
        <time>2014-07-28T08:33:33Z</time>
      </trkpt>
      <trkpt lat="42.92946" lon="0.89468">
        <ele>681</ele>
        <time>2014-07-28T08:33:49Z</time>
      </trkpt>
      <trkpt lat="42.92951" lon="0.89466">
        <ele>681</ele>
        <time>2014-07-28T08:33:53Z</time>
      </trkpt>
      <trkpt lat="42.92956" lon="0.89461">
        <ele>681</ele>
        <time>2014-07-28T08:33:57Z</time>
      </trkpt>
      <trkpt lat="42.9296" lon="0.89456">
        <ele>681</ele>
        <time>2014-07-28T08:34:01Z</time>
      </trkpt>
      <trkpt lat="42.92986" lon="0.8944">
        <ele>681</ele>
        <time>2014-07-28T08:34:24Z</time>
      </trkpt>
      <trkpt lat="42.93005" lon="0.89429">
        <ele>682</ele>
        <time>2014-07-28T08:34:40Z</time>
      </trkpt>
      <trkpt lat="42.93034" lon="0.89396">
        <ele>689</ele>
        <time>2014-07-28T08:35:11Z</time>
      </trkpt>
      <trkpt lat="42.93054" lon="0.89351">
        <ele>695</ele>
        <time>2014-07-28T08:35:41Z</time>
      </trkpt>
      <trkpt lat="42.93082" lon="0.89297">
        <ele>703</ele>
        <time>2014-07-28T08:36:18Z</time>
      </trkpt>
      <trkpt lat="42.93086" lon="0.89285">
        <ele>704</ele>
        <time>2014-07-28T08:36:26Z</time>
      </trkpt>
      <trkpt lat="42.93089" lon="0.89273">
        <ele>705</ele>
        <time>2014-07-28T08:36:34Z</time>
      </trkpt>
      <trkpt lat="42.93087" lon="0.89261">
        <ele>705</ele>
        <time>2014-07-28T08:36:42Z</time>
      </trkpt>
      <trkpt lat="42.93087" lon="0.89248">
        <ele>704</ele>
        <time>2014-07-28T08:36:50Z</time>
      </trkpt>
      <trkpt lat="42.93082" lon="0.89236">
        <ele>704</ele>
        <time>2014-07-28T08:36:57Z</time>
      </trkpt>
      <trkpt lat="42.93078" lon="0.89224">
        <ele>703</ele>
        <time>2014-07-28T08:37:04Z</time>
      </trkpt>
      <trkpt lat="42.93077" lon="0.89211">
        <ele>704</ele>
        <time>2014-07-28T08:37:12Z</time>
      </trkpt>
      <trkpt lat="42.93082" lon="0.89158">
        <ele>715</ele>
        <time>2014-07-28T08:37:45Z</time>
      </trkpt>
      <trkpt lat="42.93092" lon="0.89135">
        <ele>720</ele>
        <time>2014-07-28T08:37:59Z</time>
      </trkpt>
      <trkpt lat="42.93098" lon="0.89125">
        <ele>720</ele>
        <time>2014-07-28T08:38:07Z</time>
      </trkpt>
      <trkpt lat="42.93106" lon="0.89119">
        <ele>722</ele>
        <time>2014-07-28T08:38:13Z</time>
      </trkpt>
      <trkpt lat="42.93123" lon="0.89109">
        <ele>719</ele>
        <time>2014-07-28T08:38:34Z</time>
      </trkpt>
      <trkpt lat="42.93132" lon="0.89104">
        <ele>719</ele>
        <time>2014-07-28T08:38:41Z</time>
      </trkpt>
      <trkpt lat="42.93141" lon="0.89099">
        <ele>712</ele>
        <time>2014-07-28T08:38:53Z</time>
      </trkpt>
      <trkpt lat="42.93152" lon="0.89078">
        <ele>706</ele>
        <time>2014-07-28T08:39:10Z</time>
      </trkpt>
      <trkpt lat="42.93159" lon="0.89069">
        <ele>706</ele>
        <time>2014-07-28T08:39:17Z</time>
      </trkpt>
      <trkpt lat="42.93185" lon="0.8903">
        <ele>711</ele>
        <time>2014-07-28T08:39:48Z</time>
      </trkpt>
      <trkpt lat="42.93197" lon="0.8901">
        <ele>711</ele>
        <time>2014-07-28T08:40:02Z</time>
      </trkpt>
      <trkpt lat="42.93204" lon="0.89001">
        <ele>710</ele>
        <time>2014-07-28T08:40:09Z</time>
      </trkpt>
      <trkpt lat="42.93211" lon="0.88992">
        <ele>709</ele>
        <time>2014-07-28T08:40:16Z</time>
      </trkpt>
      <trkpt lat="42.93225" lon="0.88974">
        <ele>711</ele>
        <time>2014-07-28T08:40:31Z</time>
      </trkpt>
      <trkpt lat="42.93253" lon="0.88939">
        <ele>722</ele>
        <time>2014-07-28T08:41:03Z</time>
      </trkpt>
      <trkpt lat="42.9327" lon="0.88925">
        <ele>726</ele>
        <time>2014-07-28T08:41:17Z</time>
      </trkpt>
      <trkpt lat="42.93279" lon="0.88922">
        <ele>726</ele>
        <time>2014-07-28T08:41:23Z</time>
      </trkpt>
      <trkpt lat="42.93288" lon="0.88921">
        <ele>726</ele>
        <time>2014-07-28T08:41:31Z</time>
      </trkpt>
      <trkpt lat="42.93297" lon="0.88921">
        <ele>722</ele>
        <time>2014-07-28T08:41:40Z</time>
      </trkpt>
      <trkpt lat="42.93337" lon="0.88922">
        <ele>719</ele>
        <time>2014-07-28T08:42:12Z</time>
      </trkpt>
      <trkpt lat="42.93357" lon="0.88918">
        <ele>719</ele>
        <time>2014-07-28T08:42:28Z</time>
      </trkpt>
      <trkpt lat="42.93365" lon="0.88912">
        <ele>720</ele>
        <time>2014-07-28T08:42:36Z</time>
      </trkpt>
      <trkpt lat="42.93374" lon="0.88906">
        <ele>724</ele>
        <time>2014-07-28T08:42:45Z</time>
      </trkpt>
      <trkpt lat="42.93383" lon="0.88901">
        <ele>724</ele>
        <time>2014-07-28T08:42:53Z</time>
      </trkpt>
      <trkpt lat="42.93391" lon="0.88895">
        <ele>725</ele>
        <time>2014-07-28T08:43:00Z</time>
      </trkpt>
      <trkpt lat="42.93395" lon="0.88883">
        <ele>726</ele>
        <time>2014-07-28T08:43:08Z</time>
      </trkpt>
      <trkpt lat="42.93396" lon="0.88871">
        <ele>729</ele>
        <time>2014-07-28T08:43:15Z</time>
      </trkpt>
      <trkpt lat="42.93397" lon="0.88844">
        <ele>730</ele>
        <time>2014-07-28T08:43:31Z</time>
      </trkpt>
      <trkpt lat="42.93398" lon="0.88831">
        <ele>729</ele>
        <time>2014-07-28T08:43:39Z</time>
      </trkpt>
      <trkpt lat="42.93409" lon="0.88811">
        <ele>729</ele>
        <time>2014-07-28T08:43:53Z</time>
      </trkpt>
      <trkpt lat="42.93417" lon="0.88804">
        <ele>728</ele>
        <time>2014-07-28T08:44:01Z</time>
      </trkpt>
      <trkpt lat="42.93426" lon="0.88797">
        <ele>729</ele>
        <time>2014-07-28T08:44:08Z</time>
      </trkpt>
      <trkpt lat="42.93448" lon="0.88776">
        <ele>730</ele>
        <time>2014-07-28T08:44:30Z</time>
      </trkpt>
      <trkpt lat="42.93482" lon="0.88757">
        <ele>736</ele>
        <time>2014-07-28T08:45:01Z</time>
      </trkpt>
      <trkpt lat="42.93491" lon="0.88755">
        <ele>736</ele>
        <time>2014-07-28T08:45:09Z</time>
      </trkpt>
      <trkpt lat="42.93508" lon="0.88743">
        <ele>732</ele>
        <time>2014-07-28T08:45:25Z</time>
      </trkpt>
      <trkpt lat="42.93515" lon="0.88735">
        <ele>733</ele>
        <time>2014-07-28T08:45:33Z</time>
      </trkpt>
      <trkpt lat="42.93526" lon="0.88713">
        <ele>736</ele>
        <time>2014-07-28T08:45:50Z</time>
      </trkpt>
      <trkpt lat="42.93529" lon="0.88701">
        <ele>737</ele>
        <time>2014-07-28T08:45:59Z</time>
      </trkpt>
      <trkpt lat="42.93531" lon="0.88674">
        <ele>740</ele>
        <time>2014-07-28T08:46:15Z</time>
      </trkpt>
      <trkpt lat="42.93531" lon="0.8866">
        <ele>740</ele>
        <time>2014-07-28T08:46:23Z</time>
      </trkpt>
      <trkpt lat="42.9353" lon="0.88607">
        <ele>735</ele>
        <time>2014-07-28T08:46:55Z</time>
      </trkpt>
      <trkpt lat="42.9353" lon="0.88593">
        <ele>735</ele>
        <time>2014-07-28T08:47:03Z</time>
      </trkpt>
      <trkpt lat="42.93528" lon="0.88581">
        <ele>736</ele>
        <time>2014-07-28T08:47:12Z</time>
      </trkpt>
      <trkpt lat="42.93534" lon="0.88578">
        <ele>734</ele>
        <time>2014-07-28T08:48:14Z</time>
      </trkpt>
      <trkpt lat="42.93539" lon="0.88567">
        <ele>734</ele>
        <time>2014-07-28T08:48:22Z</time>
      </trkpt>
      <trkpt lat="42.93571" lon="0.88542">
        <ele>739</ele>
        <time>2014-07-28T08:48:54Z</time>
      </trkpt>
      <trkpt lat="42.9358" lon="0.88538">
        <ele>741</ele>
        <time>2014-07-28T08:49:01Z</time>
      </trkpt>
      <trkpt lat="42.93617" lon="0.88522">
        <ele>745</ele>
        <time>2014-07-28T08:49:35Z</time>
      </trkpt>
      <trkpt lat="42.93635" lon="0.88513">
        <ele>745</ele>
        <time>2014-07-28T08:49:50Z</time>
      </trkpt>
      <trkpt lat="42.93652" lon="0.88502">
        <ele>743</ele>
        <time>2014-07-28T08:50:11Z</time>
      </trkpt>
      <trkpt lat="42.93677" lon="0.88485">
        <ele>746</ele>
        <time>2014-07-28T08:50:35Z</time>
      </trkpt>
      <trkpt lat="42.93703" lon="0.88468">
        <ele>760</ele>
        <time>2014-07-28T08:51:06Z</time>
      </trkpt>
      <trkpt lat="42.9374" lon="0.88457">
        <ele>780</ele>
        <time>2014-07-28T08:51:37Z</time>
      </trkpt>
      <trkpt lat="42.93757" lon="0.8845">
        <ele>781</ele>
        <time>2014-07-28T08:51:55Z</time>
      </trkpt>
      <trkpt lat="42.93765" lon="0.88441">
        <ele>780</ele>
        <time>2014-07-28T08:52:05Z</time>
      </trkpt>
      <trkpt lat="42.93776" lon="0.88418">
        <ele>776</ele>
        <time>2014-07-28T08:52:21Z</time>
      </trkpt>
      <trkpt lat="42.93781" lon="0.88406">
        <ele>776</ele>
        <time>2014-07-28T08:52:30Z</time>
      </trkpt>
      <trkpt lat="42.93805" lon="0.88367">
        <ele>768</ele>
        <time>2014-07-28T08:53:03Z</time>
      </trkpt>
      <trkpt lat="42.93812" lon="0.88357">
        <ele>767</ele>
        <time>2014-07-28T08:53:12Z</time>
      </trkpt>
      <trkpt lat="42.9382" lon="0.88351">
        <ele>767</ele>
        <time>2014-07-28T08:53:21Z</time>
      </trkpt>
      <trkpt lat="42.93842" lon="0.88326">
        <ele>772</ele>
        <time>2014-07-28T08:53:51Z</time>
      </trkpt>
      <trkpt lat="42.93851" lon="0.88324">
        <ele>773</ele>
        <time>2014-07-28T08:53:58Z</time>
      </trkpt>
      <trkpt lat="42.93888" lon="0.88314">
        <ele>791</ele>
        <time>2014-07-28T08:54:35Z</time>
      </trkpt>
      <trkpt lat="42.93896" lon="0.88307">
        <ele>792</ele>
        <time>2014-07-28T08:54:47Z</time>
      </trkpt>
      <trkpt lat="42.93913" lon="0.88297">
        <ele>788</ele>
        <time>2014-07-28T08:55:06Z</time>
      </trkpt>
      <trkpt lat="42.93921" lon="0.8829">
        <ele>789</ele>
        <time>2014-07-28T08:55:15Z</time>
      </trkpt>
      <trkpt lat="42.93936" lon="0.88272">
        <ele>787</ele>
        <time>2014-07-28T08:55:33Z</time>
      </trkpt>
      <trkpt lat="42.9395" lon="0.88253">
        <ele>782</ele>
        <time>2014-07-28T08:55:51Z</time>
      </trkpt>
      <trkpt lat="42.93955" lon="0.88242">
        <ele>783</ele>
        <time>2014-07-28T08:56:02Z</time>
      </trkpt>
      <trkpt lat="42.93958" lon="0.88229">
        <ele>784</ele>
        <time>2014-07-28T08:56:12Z</time>
      </trkpt>
      <trkpt lat="42.93976" lon="0.88185">
        <ele>790</ele>
        <time>2014-07-28T08:56:48Z</time>
      </trkpt>
      <trkpt lat="42.93981" lon="0.88174">
        <ele>791</ele>
        <time>2014-07-28T08:56:59Z</time>
      </trkpt>
      <trkpt lat="42.93995" lon="0.8814">
        <ele>791</ele>
        <time>2014-07-28T08:57:26Z</time>
      </trkpt>
      <trkpt lat="42.93998" lon="0.88128">
        <ele>790</ele>
        <time>2014-07-28T08:57:36Z</time>
      </trkpt>
      <trkpt lat="42.94014" lon="0.88082">
        <ele>796</ele>
        <time>2014-07-28T08:58:12Z</time>
      </trkpt>
      <trkpt lat="42.94022" lon="0.88074">
        <ele>796</ele>
        <time>2014-07-28T08:58:20Z</time>
      </trkpt>
      <trkpt lat="42.94027" lon="0.88064">
        <ele>795</ele>
        <time>2014-07-28T08:58:30Z</time>
      </trkpt>
      <trkpt lat="42.94033" lon="0.88053">
        <ele>794</ele>
        <time>2014-07-28T08:58:40Z</time>
      </trkpt>
      <trkpt lat="42.94036" lon="0.88041">
        <ele>795</ele>
        <time>2014-07-28T08:58:49Z</time>
      </trkpt>
      <trkpt lat="42.94038" lon="0.88028">
        <ele>797</ele>
        <time>2014-07-28T08:58:58Z</time>
      </trkpt>
      <trkpt lat="42.94038" lon="0.88015">
        <ele>797</ele>
        <time>2014-07-28T08:59:07Z</time>
      </trkpt>
      <trkpt lat="42.94039" lon="0.87963">
        <ele>800</ele>
        <time>2014-07-28T08:59:43Z</time>
      </trkpt>
      <trkpt lat="42.94039" lon="0.8795">
        <ele>803</ele>
        <time>2014-07-28T08:59:52Z</time>
      </trkpt>
      <trkpt lat="42.94036" lon="0.87925">
        <ele>802</ele>
        <time>2014-07-28T09:00:08Z</time>
      </trkpt>
      <trkpt lat="42.94037" lon="0.87912">
        <ele>803</ele>
        <time>2014-07-28T09:00:17Z</time>
      </trkpt>
      <trkpt lat="42.94036" lon="0.87899">
        <ele>805</ele>
        <time>2014-07-28T09:00:26Z</time>
      </trkpt>
      <trkpt lat="42.94035" lon="0.87887">
        <ele>806</ele>
        <time>2014-07-28T09:00:36Z</time>
      </trkpt>
      <trkpt lat="42.94041" lon="0.87877">
        <ele>810</ele>
        <time>2014-07-28T09:00:46Z</time>
      </trkpt>
      <trkpt lat="42.94038" lon="0.87864">
        <ele>810</ele>
        <time>2014-07-28T09:00:55Z</time>
      </trkpt>
      <trkpt lat="42.9404" lon="0.87839">
        <ele>811</ele>
        <time>2014-07-28T09:01:08Z</time>
      </trkpt>
      <trkpt lat="42.94038" lon="0.87827">
        <ele>812</ele>
        <time>2014-07-28T09:01:16Z</time>
      </trkpt>
      <trkpt lat="42.94037" lon="0.87813">
        <ele>813</ele>
        <time>2014-07-28T09:01:25Z</time>
      </trkpt>
      <trkpt lat="42.94041" lon="0.87801">
        <ele>815</ele>
        <time>2014-07-28T09:01:34Z</time>
      </trkpt>
      <trkpt lat="42.9404" lon="0.87788">
        <ele>815</ele>
        <time>2014-07-28T09:01:42Z</time>
      </trkpt>
      <trkpt lat="42.94038" lon="0.87775">
        <ele>814</ele>
        <time>2014-07-28T09:01:49Z</time>
      </trkpt>
      <trkpt lat="42.94036" lon="0.87761">
        <ele>815</ele>
        <time>2014-07-28T09:01:56Z</time>
      </trkpt>
      <trkpt lat="42.94033" lon="0.87749">
        <ele>816</ele>
        <time>2014-07-28T09:02:03Z</time>
      </trkpt>
      <trkpt lat="42.9403" lon="0.87736">
        <ele>817</ele>
        <time>2014-07-28T09:02:11Z</time>
      </trkpt>
      <trkpt lat="42.94021" lon="0.87673">
        <ele>814</ele>
        <time>2014-07-28T09:02:47Z</time>
      </trkpt>
      <trkpt lat="42.94021" lon="0.8766">
        <ele>815</ele>
        <time>2014-07-28T09:02:55Z</time>
      </trkpt>
      <trkpt lat="42.94" lon="0.87602">
        <ele>825</ele>
        <time>2014-07-28T09:03:31Z</time>
      </trkpt>
      <trkpt lat="42.93985" lon="0.87586">
        <ele>829</ele>
        <time>2014-07-28T09:03:42Z</time>
      </trkpt>
      <trkpt lat="42.93976" lon="0.87579">
        <ele>829</ele>
        <time>2014-07-28T09:03:50Z</time>
      </trkpt>
      <trkpt lat="42.93967" lon="0.87573">
        <ele>828</ele>
        <time>2014-07-28T09:03:59Z</time>
      </trkpt>
      <trkpt lat="42.93959" lon="0.87567">
        <ele>828</ele>
        <time>2014-07-28T09:04:07Z</time>
      </trkpt>
      <trkpt lat="42.93918" lon="0.8753">
        <ele>831</ele>
        <time>2014-07-28T09:04:43Z</time>
      </trkpt>
      <trkpt lat="42.93897" lon="0.87506">
        <ele>835</ele>
        <time>2014-07-28T09:05:06Z</time>
      </trkpt>
      <trkpt lat="42.93889" lon="0.875">
        <ele>836</ele>
        <time>2014-07-28T09:05:12Z</time>
      </trkpt>
      <trkpt lat="42.9388" lon="0.87496">
        <ele>835</ele>
        <time>2014-07-28T09:05:19Z</time>
      </trkpt>
      <trkpt lat="42.93865" lon="0.87481">
        <ele>836</ele>
        <time>2014-07-28T09:05:32Z</time>
      </trkpt>
      <trkpt lat="42.93856" lon="0.87475">
        <ele>837</ele>
        <time>2014-07-28T09:05:38Z</time>
      </trkpt>
      <trkpt lat="42.93831" lon="0.87453">
        <ele>841</ele>
        <time>2014-07-28T09:05:59Z</time>
      </trkpt>
      <trkpt lat="42.93824" lon="0.87444">
        <ele>841</ele>
        <time>2014-07-28T09:06:06Z</time>
      </trkpt>
      <trkpt lat="42.93797" lon="0.87408">
        <ele>836</ele>
        <time>2014-07-28T09:06:35Z</time>
      </trkpt>
      <trkpt lat="42.9379" lon="0.87398">
        <ele>831</ele>
        <time>2014-07-28T09:06:43Z</time>
      </trkpt>
      <trkpt lat="42.93781" lon="0.87373">
        <ele>833</ele>
        <time>2014-07-28T09:06:59Z</time>
      </trkpt>
      <trkpt lat="42.93782" lon="0.87361">
        <ele>832</ele>
        <time>2014-07-28T09:07:07Z</time>
      </trkpt>
      <trkpt lat="42.93787" lon="0.8735">
        <ele>831</ele>
        <time>2014-07-28T09:07:17Z</time>
      </trkpt>
      <trkpt lat="42.93785" lon="0.87342">
        <ele>830</ele>
        <time>2014-07-28T09:07:31Z</time>
      </trkpt>
      <trkpt lat="42.93772" lon="0.87336">
        <ele>828</ele>
        <time>2014-07-28T09:09:05Z</time>
      </trkpt>
      <trkpt lat="42.93774" lon="0.87329">
        <ele>821</ele>
        <time>2014-07-28T09:11:06Z</time>
      </trkpt>
      <trkpt lat="42.93778" lon="0.87317">
        <ele>822</ele>
        <time>2014-07-28T09:11:19Z</time>
      </trkpt>
      <trkpt lat="42.93795" lon="0.87271">
        <ele>843</ele>
        <time>2014-07-28T09:11:51Z</time>
      </trkpt>
      <trkpt lat="42.93799" lon="0.8726">
        <ele>845</ele>
        <time>2014-07-28T09:12:00Z</time>
      </trkpt>
      <trkpt lat="42.93803" lon="0.87235">
        <ele>844</ele>
        <time>2014-07-28T09:12:14Z</time>
      </trkpt>
      <trkpt lat="42.93806" lon="0.87222">
        <ele>845</ele>
        <time>2014-07-28T09:12:22Z</time>
      </trkpt>
      <trkpt lat="42.93815" lon="0.87186">
        <ele>851</ele>
        <time>2014-07-28T09:12:50Z</time>
      </trkpt>
      <trkpt lat="42.93802" lon="0.87153">
        <ele>843</ele>
        <time>2014-07-28T09:13:10Z</time>
      </trkpt>
      <trkpt lat="42.93799" lon="0.87151">
        <ele>841</ele>
        <time>2014-07-28T09:13:19Z</time>
      </trkpt>
      <trkpt lat="42.93795" lon="0.8715">
        <ele>840</ele>
        <time>2014-07-28T09:13:47Z</time>
      </trkpt>
      <trkpt lat="42.93788" lon="0.87144">
        <ele>837</ele>
        <time>2014-07-28T09:15:23Z</time>
      </trkpt>
      <trkpt lat="42.93786" lon="0.87147">
        <ele>840</ele>
        <time>2014-07-28T09:18:14Z</time>
      </trkpt>
      <trkpt lat="42.9379" lon="0.87151">
        <ele>842</ele>
        <time>2014-07-28T09:18:39Z</time>
      </trkpt>
      <trkpt lat="42.93795" lon="0.87151">
        <ele>842</ele>
        <time>2014-07-28T09:18:46Z</time>
      </trkpt>
      <trkpt lat="42.938" lon="0.8715">
        <ele>842</ele>
        <time>2014-07-28T09:18:53Z</time>
      </trkpt>
      <trkpt lat="42.93805" lon="0.8715">
        <ele>840</ele>
        <time>2014-07-28T09:18:58Z</time>
      </trkpt>
      <trkpt lat="42.93806" lon="0.87144">
        <ele>839</ele>
        <time>2014-07-28T09:19:04Z</time>
      </trkpt>
      <trkpt lat="42.93807" lon="0.87117">
        <ele>839</ele>
        <time>2014-07-28T09:19:20Z</time>
      </trkpt>
      <trkpt lat="42.9381" lon="0.87103">
        <ele>840</ele>
        <time>2014-07-28T09:19:29Z</time>
      </trkpt>
      <trkpt lat="42.93809" lon="0.87096">
        <ele>839</ele>
        <time>2014-07-28T09:19:34Z</time>
      </trkpt>
      <trkpt lat="42.93811" lon="0.87041">
        <ele>833</ele>
        <time>2014-07-28T09:20:08Z</time>
      </trkpt>
      <trkpt lat="42.93816" lon="0.87028">
        <ele>832</ele>
        <time>2014-07-28T09:20:17Z</time>
      </trkpt>
      <trkpt lat="42.93821" lon="0.87001">
        <ele>832</ele>
        <time>2014-07-28T09:20:35Z</time>
      </trkpt>
      <trkpt lat="42.93824" lon="0.86994">
        <ele>832</ele>
        <time>2014-07-28T09:20:40Z</time>
      </trkpt>
      <trkpt lat="42.93827" lon="0.86989">
        <ele>832</ele>
        <time>2014-07-28T09:20:44Z</time>
      </trkpt>
      <trkpt lat="42.9384" lon="0.86946">
        <ele>834</ele>
        <time>2014-07-28T09:21:15Z</time>
      </trkpt>
      <trkpt lat="42.93841" lon="0.8694">
        <ele>834</ele>
        <time>2014-07-28T09:21:19Z</time>
      </trkpt>
      <trkpt lat="42.93844" lon="0.86934">
        <ele>834</ele>
        <time>2014-07-28T09:21:23Z</time>
      </trkpt>
      <trkpt lat="42.9385" lon="0.86924">
        <ele>835</ele>
        <time>2014-07-28T09:21:31Z</time>
      </trkpt>
      <trkpt lat="42.93856" lon="0.86915">
        <ele>839</ele>
        <time>2014-07-28T09:21:39Z</time>
      </trkpt>
      <trkpt lat="42.93859" lon="0.86899">
        <ele>842</ele>
        <time>2014-07-28T09:21:49Z</time>
      </trkpt>
      <trkpt lat="42.93863" lon="0.86894">
        <ele>843</ele>
        <time>2014-07-28T09:21:53Z</time>
      </trkpt>
      <trkpt lat="42.93867" lon="0.86892">
        <ele>844</ele>
        <time>2014-07-28T09:21:57Z</time>
      </trkpt>
      <trkpt lat="42.93876" lon="0.86878">
        <ele>845</ele>
        <time>2014-07-28T09:22:07Z</time>
      </trkpt>
      <trkpt lat="42.93891" lon="0.86828">
        <ele>852</ele>
        <time>2014-07-28T09:22:39Z</time>
      </trkpt>
      <trkpt lat="42.93915" lon="0.86792">
        <ele>854</ele>
        <time>2014-07-28T09:23:06Z</time>
      </trkpt>
      <trkpt lat="42.93921" lon="0.86783">
        <ele>855</ele>
        <time>2014-07-28T09:23:14Z</time>
      </trkpt>
      <trkpt lat="42.93925" lon="0.86779">
        <ele>855</ele>
        <time>2014-07-28T09:23:18Z</time>
      </trkpt>
      <trkpt lat="42.9393" lon="0.86774">
        <ele>855</ele>
        <time>2014-07-28T09:23:22Z</time>
      </trkpt>
      <trkpt lat="42.93933" lon="0.86769">
        <ele>856</ele>
        <time>2014-07-28T09:23:26Z</time>
      </trkpt>
      <trkpt lat="42.93939" lon="0.86759">
        <ele>857</ele>
        <time>2014-07-28T09:23:33Z</time>
      </trkpt>
      <trkpt lat="42.93941" lon="0.86753">
        <ele>857</ele>
        <time>2014-07-28T09:23:37Z</time>
      </trkpt>
      <trkpt lat="42.93943" lon="0.86748">
        <ele>857</ele>
        <time>2014-07-28T09:23:41Z</time>
      </trkpt>
      <trkpt lat="42.93947" lon="0.86741">
        <ele>857</ele>
        <time>2014-07-28T09:23:46Z</time>
      </trkpt>
      <trkpt lat="42.93978" lon="0.86702">
        <ele>853</ele>
        <time>2014-07-28T09:24:17Z</time>
      </trkpt>
      <trkpt lat="42.9399" lon="0.86689">
        <ele>854</ele>
        <time>2014-07-28T09:24:29Z</time>
      </trkpt>
      <trkpt lat="42.93996" lon="0.86676">
        <ele>855</ele>
        <time>2014-07-28T09:24:40Z</time>
      </trkpt>
      <trkpt lat="42.94" lon="0.86672">
        <ele>856</ele>
        <time>2014-07-28T09:24:44Z</time>
      </trkpt>
      <trkpt lat="42.94004" lon="0.86667">
        <ele>855</ele>
        <time>2014-07-28T09:24:48Z</time>
      </trkpt>
      <trkpt lat="42.94009" lon="0.86655">
        <ele>854</ele>
        <time>2014-07-28T09:24:56Z</time>
      </trkpt>
      <trkpt lat="42.94009" lon="0.86649">
        <ele>854</ele>
        <time>2014-07-28T09:25:00Z</time>
      </trkpt>
      <trkpt lat="42.94011" lon="0.86644">
        <ele>855</ele>
        <time>2014-07-28T09:25:04Z</time>
      </trkpt>
      <trkpt lat="42.94014" lon="0.86638">
        <ele>856</ele>
        <time>2014-07-28T09:25:08Z</time>
      </trkpt>
      <trkpt lat="42.94019" lon="0.86626">
        <ele>857</ele>
        <time>2014-07-28T09:25:16Z</time>
      </trkpt>
      <trkpt lat="42.94026" lon="0.86614">
        <ele>856</ele>
        <time>2014-07-28T09:25:24Z</time>
      </trkpt>
      <trkpt lat="42.94031" lon="0.86602">
        <ele>858</ele>
        <time>2014-07-28T09:25:32Z</time>
      </trkpt>
      <trkpt lat="42.94037" lon="0.86591">
        <ele>857</ele>
        <time>2014-07-28T09:25:40Z</time>
      </trkpt>
      <trkpt lat="42.94031" lon="0.8659">
        <ele>859</ele>
        <time>2014-07-28T09:25:51Z</time>
      </trkpt>
      <trkpt lat="42.94028" lon="0.86586">
        <ele>860</ele>
        <time>2014-07-28T09:25:56Z</time>
      </trkpt>
      <trkpt lat="42.94024" lon="0.86581">
        <ele>861</ele>
        <time>2014-07-28T09:26:01Z</time>
      </trkpt>
      <trkpt lat="42.94024" lon="0.86575">
        <ele>861</ele>
        <time>2014-07-28T09:26:07Z</time>
      </trkpt>
      <trkpt lat="42.9402" lon="0.8657">
        <ele>861</ele>
        <time>2014-07-28T09:26:14Z</time>
      </trkpt>
      <trkpt lat="42.9402" lon="0.86555">
        <ele>862</ele>
        <time>2014-07-28T09:26:27Z</time>
      </trkpt>
      <trkpt lat="42.94019" lon="0.86549">
        <ele>861</ele>
        <time>2014-07-28T09:26:33Z</time>
      </trkpt>
      <trkpt lat="42.94019" lon="0.86542">
        <ele>862</ele>
        <time>2014-07-28T09:26:39Z</time>
      </trkpt>
      <trkpt lat="42.94019" lon="0.86544">
        <ele>863</ele>
        <time>2014-07-28T09:27:01Z</time>
      </trkpt>
      <trkpt lat="42.94015" lon="0.86556">
        <ele>867</ele>
        <time>2014-07-28T09:27:13Z</time>
      </trkpt>
      <trkpt lat="42.94018" lon="0.8656">
        <ele>867</ele>
        <time>2014-07-28T09:27:17Z</time>
      </trkpt>
      <trkpt lat="42.94021" lon="0.86566">
        <ele>867</ele>
        <time>2014-07-28T09:27:22Z</time>
      </trkpt>
      <trkpt lat="42.94033" lon="0.86588">
        <ele>874</ele>
        <time>2014-07-28T09:27:37Z</time>
      </trkpt>
      <trkpt lat="42.94038" lon="0.86587">
        <ele>875</ele>
        <time>2014-07-28T09:27:46Z</time>
      </trkpt>
      <trkpt lat="42.94054" lon="0.86581">
        <ele>871</ele>
        <time>2014-07-28T09:27:58Z</time>
      </trkpt>
      <trkpt lat="42.94059" lon="0.8658">
        <ele>871</ele>
        <time>2014-07-28T09:28:02Z</time>
      </trkpt>
      <trkpt lat="42.94064" lon="0.86576">
        <ele>869</ele>
        <time>2014-07-28T09:28:06Z</time>
      </trkpt>
      <trkpt lat="42.94068" lon="0.86576">
        <ele>869</ele>
        <time>2014-07-28T09:28:13Z</time>
      </trkpt>
      <trkpt lat="42.94073" lon="0.86573">
        <ele>867</ele>
        <time>2014-07-28T09:28:20Z</time>
      </trkpt>
      <trkpt lat="42.9409" lon="0.86556">
        <ele>865</ele>
        <time>2014-07-28T09:28:37Z</time>
      </trkpt>
      <trkpt lat="42.94093" lon="0.8655">
        <ele>866</ele>
        <time>2014-07-28T09:28:42Z</time>
      </trkpt>
      <trkpt lat="42.94103" lon="0.86536">
        <ele>869</ele>
        <time>2014-07-28T09:28:57Z</time>
      </trkpt>
      <trkpt lat="42.94107" lon="0.86532">
        <ele>868</ele>
        <time>2014-07-28T09:29:01Z</time>
      </trkpt>
      <trkpt lat="42.9411" lon="0.86526">
        <ele>868</ele>
        <time>2014-07-28T09:29:05Z</time>
      </trkpt>
      <trkpt lat="42.94111" lon="0.86519">
        <ele>869</ele>
        <time>2014-07-28T09:29:10Z</time>
      </trkpt>
      <trkpt lat="42.94116" lon="0.86499">
        <ele>869</ele>
        <time>2014-07-28T09:29:24Z</time>
      </trkpt>
      <trkpt lat="42.94114" lon="0.86493">
        <ele>869</ele>
        <time>2014-07-28T09:29:28Z</time>
      </trkpt>
      <trkpt lat="42.94118" lon="0.8649">
        <ele>870</ele>
        <time>2014-07-28T09:29:36Z</time>
      </trkpt>
      <trkpt lat="42.94123" lon="0.86487">
        <ele>870</ele>
        <time>2014-07-28T09:29:40Z</time>
      </trkpt>
      <trkpt lat="42.94124" lon="0.8648">
        <ele>870</ele>
        <time>2014-07-28T09:29:44Z</time>
      </trkpt>
      <trkpt lat="42.94119" lon="0.86477">
        <ele>871</ele>
        <time>2014-07-28T09:29:51Z</time>
      </trkpt>
      <trkpt lat="42.94116" lon="0.86478">
        <ele>872</ele>
        <time>2014-07-28T09:30:03Z</time>
      </trkpt>
      <trkpt lat="42.94117" lon="0.86471">
        <ele>874</ele>
        <time>2014-07-28T09:30:14Z</time>
      </trkpt>
      <trkpt lat="42.94122" lon="0.86459">
        <ele>875</ele>
        <time>2014-07-28T09:30:23Z</time>
      </trkpt>
      <trkpt lat="42.94127" lon="0.86456">
        <ele>876</ele>
        <time>2014-07-28T09:30:27Z</time>
      </trkpt>
      <trkpt lat="42.94157" lon="0.86451">
        <ele>880</ele>
        <time>2014-07-28T09:30:58Z</time>
      </trkpt>
      <trkpt lat="42.94184" lon="0.86439">
        <ele>888</ele>
        <time>2014-07-28T09:31:30Z</time>
      </trkpt>
      <trkpt lat="42.942" lon="0.86435">
        <ele>887</ele>
        <time>2014-07-28T09:31:47Z</time>
      </trkpt>
      <trkpt lat="42.94208" lon="0.86427">
        <ele>888</ele>
        <time>2014-07-28T09:31:59Z</time>
      </trkpt>
      <trkpt lat="42.94218" lon="0.86423">
        <ele>886</ele>
        <time>2014-07-28T09:32:09Z</time>
      </trkpt>
      <trkpt lat="42.94237" lon="0.864">
        <ele>895</ele>
        <time>2014-07-28T09:32:43Z</time>
      </trkpt>
      <trkpt lat="42.94243" lon="0.86369">
        <ele>903</ele>
        <time>2014-07-28T09:33:19Z</time>
      </trkpt>
      <trkpt lat="42.94247" lon="0.86357">
        <ele>906</ele>
        <time>2014-07-28T09:33:33Z</time>
      </trkpt>
      <trkpt lat="42.94245" lon="0.86351">
        <ele>906</ele>
        <time>2014-07-28T09:33:39Z</time>
      </trkpt>
      <trkpt lat="42.94245" lon="0.86345">
        <ele>907</ele>
        <time>2014-07-28T09:33:48Z</time>
      </trkpt>
      <trkpt lat="42.94246" lon="0.86339">
        <ele>907</ele>
        <time>2014-07-28T09:33:55Z</time>
      </trkpt>
      <trkpt lat="42.94246" lon="0.86332">
        <ele>906</ele>
        <time>2014-07-28T09:34:01Z</time>
      </trkpt>
      <trkpt lat="42.94246" lon="0.86326">
        <ele>906</ele>
        <time>2014-07-28T09:34:08Z</time>
      </trkpt>
      <trkpt lat="42.94248" lon="0.8632">
        <ele>906</ele>
        <time>2014-07-28T09:34:14Z</time>
      </trkpt>
      <trkpt lat="42.9425" lon="0.86314">
        <ele>906</ele>
        <time>2014-07-28T09:34:20Z</time>
      </trkpt>
      <trkpt lat="42.94254" lon="0.86311">
        <ele>909</ele>
        <time>2014-07-28T09:34:25Z</time>
      </trkpt>
      <trkpt lat="42.94254" lon="0.86304">
        <ele>910</ele>
        <time>2014-07-28T09:34:32Z</time>
      </trkpt>
      <trkpt lat="42.94253" lon="0.86297">
        <ele>911</ele>
        <time>2014-07-28T09:34:38Z</time>
      </trkpt>
      <trkpt lat="42.94256" lon="0.86292">
        <ele>912</ele>
        <time>2014-07-28T09:34:44Z</time>
      </trkpt>
      <trkpt lat="42.94257" lon="0.86285">
        <ele>913</ele>
        <time>2014-07-28T09:34:50Z</time>
      </trkpt>
      <trkpt lat="42.94261" lon="0.86253">
        <ele>919</ele>
        <time>2014-07-28T09:35:27Z</time>
      </trkpt>
      <trkpt lat="42.9426" lon="0.86246">
        <ele>921</ele>
        <time>2014-07-28T09:35:32Z</time>
      </trkpt>
      <trkpt lat="42.94259" lon="0.8624">
        <ele>921</ele>
        <time>2014-07-28T09:35:37Z</time>
      </trkpt>
      <trkpt lat="42.94261" lon="0.86233">
        <ele>921</ele>
        <time>2014-07-28T09:35:43Z</time>
      </trkpt>
      <trkpt lat="42.94263" lon="0.86227">
        <ele>921</ele>
        <time>2014-07-28T09:35:49Z</time>
      </trkpt>
      <trkpt lat="42.94265" lon="0.86214">
        <ele>923</ele>
        <time>2014-07-28T09:36:02Z</time>
      </trkpt>
      <trkpt lat="42.94266" lon="0.86196">
        <ele>927</ele>
        <time>2014-07-28T09:36:24Z</time>
      </trkpt>
      <trkpt lat="42.94263" lon="0.86193">
        <ele>927</ele>
        <time>2014-07-28T09:36:29Z</time>
      </trkpt>
      <trkpt lat="42.9426" lon="0.86189">
        <ele>928</ele>
        <time>2014-07-28T09:36:49Z</time>
      </trkpt>
      <trkpt lat="42.94259" lon="0.86182">
        <ele>929</ele>
        <time>2014-07-28T09:36:56Z</time>
      </trkpt>
      <trkpt lat="42.9426" lon="0.86178">
        <ele>929</ele>
        <time>2014-07-28T09:37:02Z</time>
      </trkpt>
      <trkpt lat="42.94258" lon="0.86175">
        <ele>930</ele>
        <time>2014-07-28T09:37:56Z</time>
      </trkpt>
      <trkpt lat="42.94262" lon="0.8617">
        <ele>931</ele>
        <time>2014-07-28T09:38:01Z</time>
      </trkpt>
      <trkpt lat="42.9427" lon="0.86162">
        <ele>932</ele>
        <time>2014-07-28T09:38:08Z</time>
      </trkpt>
      <trkpt lat="42.94272" lon="0.86155">
        <ele>932</ele>
        <time>2014-07-28T09:38:13Z</time>
      </trkpt>
      <trkpt lat="42.94273" lon="0.86148">
        <ele>932</ele>
        <time>2014-07-28T09:38:17Z</time>
      </trkpt>
      <trkpt lat="42.94282" lon="0.86131">
        <ele>934</ele>
        <time>2014-07-28T09:38:32Z</time>
      </trkpt>
      <trkpt lat="42.94285" lon="0.86126">
        <ele>934</ele>
        <time>2014-07-28T09:38:36Z</time>
      </trkpt>
      <trkpt lat="42.94289" lon="0.86121">
        <ele>933</ele>
        <time>2014-07-28T09:38:40Z</time>
      </trkpt>
      <trkpt lat="42.94291" lon="0.86116">
        <ele>933</ele>
        <time>2014-07-28T09:38:44Z</time>
      </trkpt>
      <trkpt lat="42.94296" lon="0.86098">
        <ele>935</ele>
        <time>2014-07-28T09:38:59Z</time>
      </trkpt>
      <trkpt lat="42.94299" lon="0.86093">
        <ele>937</ele>
        <time>2014-07-28T09:39:05Z</time>
      </trkpt>
      <trkpt lat="42.943" lon="0.86085">
        <ele>940</ele>
        <time>2014-07-28T09:39:11Z</time>
      </trkpt>
      <trkpt lat="42.94306" lon="0.86073">
        <ele>942</ele>
        <time>2014-07-28T09:39:25Z</time>
      </trkpt>
      <trkpt lat="42.9431" lon="0.86058">
        <ele>940</ele>
        <time>2014-07-28T09:39:38Z</time>
      </trkpt>
      <trkpt lat="42.94308" lon="0.86029">
        <ele>945</ele>
        <time>2014-07-28T09:40:01Z</time>
      </trkpt>
      <trkpt lat="42.94317" lon="0.86009">
        <ele>947</ele>
        <time>2014-07-28T09:40:22Z</time>
      </trkpt>
      <trkpt lat="42.94321" lon="0.86004">
        <ele>949</ele>
        <time>2014-07-28T09:40:28Z</time>
      </trkpt>
      <trkpt lat="42.94324" lon="0.85999">
        <ele>949</ele>
        <time>2014-07-28T09:40:33Z</time>
      </trkpt>
      <trkpt lat="42.94326" lon="0.85993">
        <ele>949</ele>
        <time>2014-07-28T09:40:39Z</time>
      </trkpt>
      <trkpt lat="42.9433" lon="0.85963">
        <ele>956</ele>
        <time>2014-07-28T09:41:13Z</time>
      </trkpt>
      <trkpt lat="42.94329" lon="0.85952">
        <ele>955</ele>
        <time>2014-07-28T09:41:22Z</time>
      </trkpt>
      <trkpt lat="42.94329" lon="0.85945">
        <ele>956</ele>
        <time>2014-07-28T09:41:29Z</time>
      </trkpt>
      <trkpt lat="42.94331" lon="0.85942">
        <ele>958</ele>
        <time>2014-07-28T09:41:36Z</time>
      </trkpt>
      <trkpt lat="42.94335" lon="0.85938">
        <ele>961</ele>
        <time>2014-07-28T09:41:44Z</time>
      </trkpt>
      <trkpt lat="42.94342" lon="0.85908">
        <ele>962</ele>
        <time>2014-07-28T09:42:07Z</time>
      </trkpt>
      <trkpt lat="42.94349" lon="0.85898">
        <ele>963</ele>
        <time>2014-07-28T09:42:15Z</time>
      </trkpt>
      <trkpt lat="42.94349" lon="0.85891">
        <ele>965</ele>
        <time>2014-07-28T09:42:22Z</time>
      </trkpt>
      <trkpt lat="42.94351" lon="0.85885">
        <ele>965</ele>
        <time>2014-07-28T09:42:28Z</time>
      </trkpt>
      <trkpt lat="42.94355" lon="0.85881">
        <ele>966</ele>
        <time>2014-07-28T09:42:34Z</time>
      </trkpt>
      <trkpt lat="42.94358" lon="0.85876">
        <ele>966</ele>
        <time>2014-07-28T09:42:39Z</time>
      </trkpt>
      <trkpt lat="42.94361" lon="0.85871">
        <ele>966</ele>
        <time>2014-07-28T09:42:45Z</time>
      </trkpt>
      <trkpt lat="42.94361" lon="0.85862">
        <ele>966</ele>
        <time>2014-07-28T09:42:51Z</time>
      </trkpt>
      <trkpt lat="42.94366" lon="0.85858">
        <ele>968</ele>
        <time>2014-07-28T09:42:59Z</time>
      </trkpt>
      <trkpt lat="42.94369" lon="0.85852">
        <ele>969</ele>
        <time>2014-07-28T09:43:04Z</time>
      </trkpt>
      <trkpt lat="42.94373" lon="0.85848">
        <ele>968</ele>
        <time>2014-07-28T09:43:09Z</time>
      </trkpt>
      <trkpt lat="42.94377" lon="0.85847">
        <ele>968</ele>
        <time>2014-07-28T09:43:16Z</time>
      </trkpt>
      <trkpt lat="42.94383" lon="0.85848">
        <ele>970</ele>
        <time>2014-07-28T09:43:24Z</time>
      </trkpt>
      <trkpt lat="42.94389" lon="0.85844">
        <ele>971</ele>
        <time>2014-07-28T09:43:39Z</time>
      </trkpt>
      <trkpt lat="42.94393" lon="0.85844">
        <ele>972</ele>
        <time>2014-07-28T09:43:45Z</time>
      </trkpt>
      <trkpt lat="42.94398" lon="0.85843">
        <ele>971</ele>
        <time>2014-07-28T09:43:51Z</time>
      </trkpt>
      <trkpt lat="42.94407" lon="0.8585">
        <ele>977</ele>
        <time>2014-07-28T09:44:07Z</time>
      </trkpt>
      <trkpt lat="42.94411" lon="0.85849">
        <ele>978</ele>
        <time>2014-07-28T09:44:15Z</time>
      </trkpt>
      <trkpt lat="42.94416" lon="0.85851">
        <ele>978</ele>
        <time>2014-07-28T09:44:24Z</time>
      </trkpt>
      <trkpt lat="42.94418" lon="0.85852">
        <ele>978</ele>
        <time>2014-07-28T09:44:30Z</time>
      </trkpt>
      <trkpt lat="42.94422" lon="0.85853">
        <ele>978</ele>
        <time>2014-07-28T09:44:42Z</time>
      </trkpt>
      <trkpt lat="42.94427" lon="0.85852">
        <ele>977</ele>
        <time>2014-07-28T09:44:48Z</time>
      </trkpt>
      <trkpt lat="42.9443" lon="0.85854">
        <ele>977</ele>
        <time>2014-07-28T09:44:55Z</time>
      </trkpt>
      <trkpt lat="42.94446" lon="0.85852">
        <ele>984</ele>
        <time>2014-07-28T09:45:24Z</time>
      </trkpt>
      <trkpt lat="42.94449" lon="0.85845">
        <ele>984</ele>
        <time>2014-07-28T09:45:45Z</time>
      </trkpt>
      <trkpt lat="42.94453" lon="0.85843">
        <ele>984</ele>
        <time>2014-07-28T09:46:07Z</time>
      </trkpt>
      <trkpt lat="42.94453" lon="0.85836">
        <ele>984</ele>
        <time>2014-07-28T09:46:15Z</time>
      </trkpt>
      <trkpt lat="42.94451" lon="0.85803">
        <ele>992</ele>
        <time>2014-07-28T09:46:41Z</time>
      </trkpt>
      <trkpt lat="42.94451" lon="0.85788">
        <ele>992</ele>
        <time>2014-07-28T09:46:51Z</time>
      </trkpt>
      <trkpt lat="42.9445" lon="0.85781">
        <ele>991</ele>
        <time>2014-07-28T09:46:56Z</time>
      </trkpt>
      <trkpt lat="42.9445" lon="0.85766">
        <ele>992</ele>
        <time>2014-07-28T09:47:07Z</time>
      </trkpt>
      <trkpt lat="42.9445" lon="0.85745">
        <ele>992</ele>
        <time>2014-07-28T09:47:23Z</time>
      </trkpt>
      <trkpt lat="42.9445" lon="0.85739">
        <ele>993</ele>
        <time>2014-07-28T09:47:28Z</time>
      </trkpt>
      <trkpt lat="42.94451" lon="0.85732">
        <ele>993</ele>
        <time>2014-07-28T09:47:33Z</time>
      </trkpt>
      <trkpt lat="42.94451" lon="0.85726">
        <ele>993</ele>
        <time>2014-07-28T09:47:38Z</time>
      </trkpt>
      <trkpt lat="42.94455" lon="0.85706">
        <ele>998</ele>
        <time>2014-07-28T09:47:55Z</time>
      </trkpt>
      <trkpt lat="42.94459" lon="0.85702">
        <ele>999</ele>
        <time>2014-07-28T09:48:00Z</time>
      </trkpt>
      <trkpt lat="42.94464" lon="0.857">
        <ele>1000</ele>
        <time>2014-07-28T09:48:05Z</time>
      </trkpt>
      <trkpt lat="42.94469" lon="0.85702">
        <ele>1000</ele>
        <time>2014-07-28T09:48:09Z</time>
      </trkpt>
      <trkpt lat="42.94473" lon="0.85704">
        <ele>1000</ele>
        <time>2014-07-28T09:48:14Z</time>
      </trkpt>
      <trkpt lat="42.94478" lon="0.85711">
        <ele>1000</ele>
        <time>2014-07-28T09:48:27Z</time>
      </trkpt>
      <trkpt lat="42.94484" lon="0.85746">
        <ele>1007</ele>
        <time>2014-07-28T09:48:52Z</time>
      </trkpt>
      <trkpt lat="42.94504" lon="0.85774">
        <ele>1000</ele>
        <time>2014-07-28T09:49:19Z</time>
      </trkpt>
      <trkpt lat="42.94508" lon="0.85778">
        <ele>1000</ele>
        <time>2014-07-28T09:49:24Z</time>
      </trkpt>
      <trkpt lat="42.94512" lon="0.85782">
        <ele>1000</ele>
        <time>2014-07-28T09:49:29Z</time>
      </trkpt>
      <trkpt lat="42.94525" lon="0.85811">
        <ele>1008</ele>
        <time>2014-07-28T09:49:55Z</time>
      </trkpt>
      <trkpt lat="42.94533" lon="0.85821">
        <ele>1009</ele>
        <time>2014-07-28T09:50:05Z</time>
      </trkpt>
      <trkpt lat="42.94535" lon="0.85827">
        <ele>1008</ele>
        <time>2014-07-28T09:50:09Z</time>
      </trkpt>
      <trkpt lat="42.94538" lon="0.85833">
        <ele>1008</ele>
        <time>2014-07-28T09:50:14Z</time>
      </trkpt>
      <trkpt lat="42.94545" lon="0.85843">
        <ele>1007</ele>
        <time>2014-07-28T09:50:25Z</time>
      </trkpt>
      <trkpt lat="42.9456" lon="0.8587">
        <ele>1010</ele>
        <time>2014-07-28T09:50:53Z</time>
      </trkpt>
      <trkpt lat="42.94563" lon="0.85876">
        <ele>1010</ele>
        <time>2014-07-28T09:50:58Z</time>
      </trkpt>
      <trkpt lat="42.94565" lon="0.85883">
        <ele>1012</ele>
        <time>2014-07-28T09:51:03Z</time>
      </trkpt>
      <trkpt lat="42.94568" lon="0.85888">
        <ele>1013</ele>
        <time>2014-07-28T09:51:09Z</time>
      </trkpt>
      <trkpt lat="42.94571" lon="0.85893">
        <ele>1013</ele>
        <time>2014-07-28T09:51:18Z</time>
      </trkpt>
      <trkpt lat="42.94576" lon="0.85905">
        <ele>1014</ele>
        <time>2014-07-28T09:51:29Z</time>
      </trkpt>
      <trkpt lat="42.94578" lon="0.85911">
        <ele>1014</ele>
        <time>2014-07-28T09:51:34Z</time>
      </trkpt>
      <trkpt lat="42.94582" lon="0.85923">
        <ele>1015</ele>
        <time>2014-07-28T09:51:44Z</time>
      </trkpt>
      <trkpt lat="42.94584" lon="0.85942">
        <ele>1019</ele>
        <time>2014-07-28T09:51:58Z</time>
      </trkpt>
      <trkpt lat="42.94588" lon="0.85953">
        <ele>1019</ele>
        <time>2014-07-28T09:52:06Z</time>
      </trkpt>
      <trkpt lat="42.9459" lon="0.85959">
        <ele>1020</ele>
        <time>2014-07-28T09:52:11Z</time>
      </trkpt>
      <trkpt lat="42.946" lon="0.85998">
        <ele>1024</ele>
        <time>2014-07-28T09:52:45Z</time>
      </trkpt>
      <trkpt lat="42.94602" lon="0.86004">
        <ele>1025</ele>
        <time>2014-07-28T09:52:50Z</time>
      </trkpt>
      <trkpt lat="42.94607" lon="0.86013">
        <ele>1027</ele>
        <time>2014-07-28T09:53:06Z</time>
      </trkpt>
      <trkpt lat="42.94607" lon="0.86018">
        <ele>1025</ele>
        <time>2014-07-28T09:53:32Z</time>
      </trkpt>
      <trkpt lat="42.94611" lon="0.86036">
        <ele>1020</ele>
        <time>2014-07-28T09:53:48Z</time>
      </trkpt>
      <trkpt lat="42.9461" lon="0.86035">
        <ele>1022</ele>
        <time>2014-07-28T09:54:40Z</time>
      </trkpt>
      <trkpt lat="42.94607" lon="0.86032">
        <ele>1020</ele>
        <time>2014-07-28T09:55:24Z</time>
      </trkpt>
      <trkpt lat="42.94606" lon="0.86025">
        <ele>1020</ele>
        <time>2014-07-28T09:55:29Z</time>
      </trkpt>
      <trkpt lat="42.94604" lon="0.86018">
        <ele>1021</ele>
        <time>2014-07-28T09:55:34Z</time>
      </trkpt>
      <trkpt lat="42.94604" lon="0.86015">
        <ele>1025</ele>
        <time>2014-07-28T09:55:53Z</time>
      </trkpt>
      <trkpt lat="42.94607" lon="0.86012">
        <ele>1029</ele>
        <time>2014-07-28T09:56:36Z</time>
      </trkpt>
      <trkpt lat="42.94608" lon="0.86006">
        <ele>1029</ele>
        <time>2014-07-28T09:56:57Z</time>
      </trkpt>
      <trkpt lat="42.94606" lon="0.85973">
        <ele>1022</ele>
        <time>2014-07-28T09:57:31Z</time>
      </trkpt>
      <trkpt lat="42.94606" lon="0.85966">
        <ele>1021</ele>
        <time>2014-07-28T09:57:36Z</time>
      </trkpt>
      <trkpt lat="42.94605" lon="0.85959">
        <ele>1021</ele>
        <time>2014-07-28T09:57:41Z</time>
      </trkpt>
      <trkpt lat="42.94607" lon="0.85946">
        <ele>1018</ele>
        <time>2014-07-28T09:57:52Z</time>
      </trkpt>
      <trkpt lat="42.94604" lon="0.85932">
        <ele>1020</ele>
        <time>2014-07-28T09:58:05Z</time>
      </trkpt>
      <trkpt lat="42.94603" lon="0.85925">
        <ele>1021</ele>
        <time>2014-07-28T09:58:10Z</time>
      </trkpt>
      <trkpt lat="42.94607" lon="0.85913">
        <ele>1022</ele>
        <time>2014-07-28T09:58:22Z</time>
      </trkpt>
      <trkpt lat="42.9461" lon="0.85892">
        <ele>1018</ele>
        <time>2014-07-28T09:58:36Z</time>
      </trkpt>
      <trkpt lat="42.94611" lon="0.85886">
        <ele>1018</ele>
        <time>2014-07-28T09:58:41Z</time>
      </trkpt>
      <trkpt lat="42.94612" lon="0.85879">
        <ele>1016</ele>
        <time>2014-07-28T09:58:46Z</time>
      </trkpt>
      <trkpt lat="42.94612" lon="0.85865">
        <ele>1018</ele>
        <time>2014-07-28T09:58:55Z</time>
      </trkpt>
      <trkpt lat="42.94614" lon="0.85859">
        <ele>1017</ele>
        <time>2014-07-28T09:59:01Z</time>
      </trkpt>
      <trkpt lat="42.94616" lon="0.85852">
        <ele>1017</ele>
        <time>2014-07-28T09:59:07Z</time>
      </trkpt>
      <trkpt lat="42.94621" lon="0.85817">
        <ele>1028</ele>
        <time>2014-07-28T09:59:40Z</time>
      </trkpt>
      <trkpt lat="42.94625" lon="0.85766">
        <ele>1041</ele>
        <time>2014-07-28T10:00:15Z</time>
      </trkpt>
      <trkpt lat="42.94627" lon="0.85746">
        <ele>1044</ele>
        <time>2014-07-28T10:00:29Z</time>
      </trkpt>
      <trkpt lat="42.94629" lon="0.8574">
        <ele>1042</ele>
        <time>2014-07-28T10:00:34Z</time>
      </trkpt>
      <trkpt lat="42.94629" lon="0.85734">
        <ele>1041</ele>
        <time>2014-07-28T10:00:39Z</time>
      </trkpt>
      <trkpt lat="42.94626" lon="0.8572">
        <ele>1040</ele>
        <time>2014-07-28T10:00:48Z</time>
      </trkpt>
      <trkpt lat="42.94627" lon="0.85707">
        <ele>1042</ele>
        <time>2014-07-28T10:00:57Z</time>
      </trkpt>
      <trkpt lat="42.94629" lon="0.857">
        <ele>1040</ele>
        <time>2014-07-28T10:01:04Z</time>
      </trkpt>
      <trkpt lat="42.94628" lon="0.85694">
        <ele>1041</ele>
        <time>2014-07-28T10:01:09Z</time>
      </trkpt>
      <trkpt lat="42.9463" lon="0.85687">
        <ele>1042</ele>
        <time>2014-07-28T10:01:14Z</time>
      </trkpt>
      <trkpt lat="42.94631" lon="0.85681">
        <ele>1042</ele>
        <time>2014-07-28T10:01:19Z</time>
      </trkpt>
      <trkpt lat="42.94632" lon="0.85666">
        <ele>1043</ele>
        <time>2014-07-28T10:01:30Z</time>
      </trkpt>
      <trkpt lat="42.9463" lon="0.85659">
        <ele>1042</ele>
        <time>2014-07-28T10:01:35Z</time>
      </trkpt>
      <trkpt lat="42.94628" lon="0.85653">
        <ele>1043</ele>
        <time>2014-07-28T10:01:40Z</time>
      </trkpt>
      <trkpt lat="42.94622" lon="0.85642">
        <ele>1045</ele>
        <time>2014-07-28T10:01:51Z</time>
      </trkpt>
      <trkpt lat="42.94618" lon="0.8563">
        <ele>1044</ele>
        <time>2014-07-28T10:02:01Z</time>
      </trkpt>
      <trkpt lat="42.94616" lon="0.85624">
        <ele>1044</ele>
        <time>2014-07-28T10:02:06Z</time>
      </trkpt>
      <trkpt lat="42.9461" lon="0.85605">
        <ele>1040</ele>
        <time>2014-07-28T10:02:21Z</time>
      </trkpt>
      <trkpt lat="42.94608" lon="0.85599">
        <ele>1040</ele>
        <time>2014-07-28T10:02:27Z</time>
      </trkpt>
      <trkpt lat="42.94608" lon="0.85592">
        <ele>1037</ele>
        <time>2014-07-28T10:02:32Z</time>
      </trkpt>
      <trkpt lat="42.94609" lon="0.85578">
        <ele>1028</ele>
        <time>2014-07-28T10:02:42Z</time>
      </trkpt>
      <trkpt lat="42.94603" lon="0.85552">
        <ele>1023</ele>
        <time>2014-07-28T10:03:06Z</time>
      </trkpt>
      <trkpt lat="42.94603" lon="0.85538">
        <ele>1023</ele>
        <time>2014-07-28T10:03:17Z</time>
      </trkpt>
      <trkpt lat="42.94603" lon="0.85517">
        <ele>1022</ele>
        <time>2014-07-28T10:03:33Z</time>
      </trkpt>
      <trkpt lat="42.94603" lon="0.8551">
        <ele>1022</ele>
        <time>2014-07-28T10:03:38Z</time>
      </trkpt>
      <trkpt lat="42.94602" lon="0.85503">
        <ele>1022</ele>
        <time>2014-07-28T10:03:42Z</time>
      </trkpt>
      <trkpt lat="42.94596" lon="0.85492">
        <ele>1025</ele>
        <time>2014-07-28T10:03:53Z</time>
      </trkpt>
      <trkpt lat="42.94559" lon="0.85473">
        <ele>1058</ele>
        <time>2014-07-28T10:04:27Z</time>
      </trkpt>
      <trkpt lat="42.94554" lon="0.8547">
        <ele>1059</ele>
        <time>2014-07-28T10:04:32Z</time>
      </trkpt>
      <trkpt lat="42.94549" lon="0.85467">
        <ele>1059</ele>
        <time>2014-07-28T10:04:37Z</time>
      </trkpt>
      <trkpt lat="42.94545" lon="0.85464">
        <ele>1058</ele>
        <time>2014-07-28T10:04:42Z</time>
      </trkpt>
      <trkpt lat="42.94541" lon="0.8546">
        <ele>1059</ele>
        <time>2014-07-28T10:04:47Z</time>
      </trkpt>
      <trkpt lat="42.94536" lon="0.85457">
        <ele>1061</ele>
        <time>2014-07-28T10:04:53Z</time>
      </trkpt>
      <trkpt lat="42.94531" lon="0.85453">
        <ele>1061</ele>
        <time>2014-07-28T10:04:59Z</time>
      </trkpt>
      <trkpt lat="42.94527" lon="0.8545">
        <ele>1062</ele>
        <time>2014-07-28T10:05:04Z</time>
      </trkpt>
      <trkpt lat="42.94523" lon="0.85448">
        <ele>1062</ele>
        <time>2014-07-28T10:05:09Z</time>
      </trkpt>
      <trkpt lat="42.94519" lon="0.85445">
        <ele>1061</ele>
        <time>2014-07-28T10:05:14Z</time>
      </trkpt>
      <trkpt lat="42.94514" lon="0.85442">
        <ele>1062</ele>
        <time>2014-07-28T10:05:19Z</time>
      </trkpt>
      <trkpt lat="42.94506" lon="0.85437">
        <ele>1063</ele>
        <time>2014-07-28T10:05:34Z</time>
      </trkpt>
      <trkpt lat="42.94502" lon="0.85426">
        <ele>1063</ele>
        <time>2014-07-28T10:05:45Z</time>
      </trkpt>
      <trkpt lat="42.94485" lon="0.85394">
        <ele>1072</ele>
        <time>2014-07-28T10:06:16Z</time>
      </trkpt>
      <trkpt lat="42.94484" lon="0.85381">
        <ele>1075</ele>
        <time>2014-07-28T10:06:28Z</time>
      </trkpt>
      <trkpt lat="42.94482" lon="0.85386">
        <ele>1077</ele>
        <time>2014-07-28T10:08:27Z</time>
      </trkpt>
      <trkpt lat="42.94475" lon="0.85396">
        <ele>1074</ele>
        <time>2014-07-28T10:08:36Z</time>
      </trkpt>
      <trkpt lat="42.94468" lon="0.85404">
        <ele>1073</ele>
        <time>2014-07-28T10:08:47Z</time>
      </trkpt>
      <trkpt lat="42.94468" lon="0.85401">
        <ele>1072</ele>
        <time>2014-07-28T10:09:11Z</time>
      </trkpt>
      <trkpt lat="42.94477" lon="0.85405">
        <ele>1078</ele>
        <time>2014-07-28T10:09:49Z</time>
      </trkpt>
      <trkpt lat="42.94487" lon="0.85401">
        <ele>1078</ele>
        <time>2014-07-28T10:09:52Z</time>
      </trkpt>
      <trkpt lat="42.94483" lon="0.85406">
        <ele>1091</ele>
        <time>2014-07-28T10:11:37Z</time>
      </trkpt>
      <trkpt lat="42.94478" lon="0.85407">
        <ele>1091</ele>
        <time>2014-07-28T10:11:38Z</time>
      </trkpt>
      <trkpt lat="42.94471" lon="0.85405">
        <ele>1082</ele>
        <time>2014-07-28T10:29:55Z</time>
      </trkpt>
      <trkpt lat="42.94475" lon="0.85402">
        <ele>1081</ele>
        <time>2014-07-28T10:32:03Z</time>
      </trkpt>
      <trkpt lat="42.94475" lon="0.85397">
        <ele>1080</ele>
        <time>2014-07-28T10:32:26Z</time>
      </trkpt>
      <trkpt lat="42.94473" lon="0.85393">
        <ele>1077</ele>
        <time>2014-07-28T10:32:51Z</time>
      </trkpt>
      <trkpt lat="42.94478" lon="0.85408">
        <ele>1074</ele>
        <time>2014-07-28T10:33:50Z</time>
      </trkpt>
      <trkpt lat="42.94484" lon="0.85407">
        <ele>1081</ele>
        <time>2014-07-28T10:34:42Z</time>
      </trkpt>
      <trkpt lat="42.94486" lon="0.854">
        <ele>1080</ele>
        <time>2014-07-28T10:34:46Z</time>
      </trkpt>
      <trkpt lat="42.94484" lon="0.85393">
        <ele>1076</ele>
        <time>2014-07-28T10:34:48Z</time>
      </trkpt>
      <trkpt lat="42.94473" lon="0.85367">
        <ele>1071</ele>
        <time>2014-07-28T10:35:06Z</time>
      </trkpt>
      <trkpt lat="42.94446" lon="0.85323">
        <ele>1069</ele>
        <time>2014-07-28T10:35:39Z</time>
      </trkpt>
      <trkpt lat="42.94442" lon="0.85317">
        <ele>1068</ele>
        <time>2014-07-28T10:35:43Z</time>
      </trkpt>
      <trkpt lat="42.94429" lon="0.85299">
        <ele>1065</ele>
        <time>2014-07-28T10:35:59Z</time>
      </trkpt>
      <trkpt lat="42.94426" lon="0.85294">
        <ele>1065</ele>
        <time>2014-07-28T10:36:03Z</time>
      </trkpt>
      <trkpt lat="42.9442" lon="0.85283">
        <ele>1065</ele>
        <time>2014-07-28T10:36:11Z</time>
      </trkpt>
      <trkpt lat="42.94404" lon="0.85258">
        <ele>1059</ele>
        <time>2014-07-28T10:36:32Z</time>
      </trkpt>
      <trkpt lat="42.94401" lon="0.85251">
        <ele>1059</ele>
        <time>2014-07-28T10:36:36Z</time>
      </trkpt>
      <trkpt lat="42.94395" lon="0.85241">
        <ele>1060</ele>
        <time>2014-07-28T10:36:44Z</time>
      </trkpt>
      <trkpt lat="42.9436" lon="0.85216">
        <ele>1053</ele>
        <time>2014-07-28T10:37:17Z</time>
      </trkpt>
      <trkpt lat="42.94355" lon="0.85214">
        <ele>1053</ele>
        <time>2014-07-28T10:37:21Z</time>
      </trkpt>
      <trkpt lat="42.94343" lon="0.85203">
        <ele>1053</ele>
        <time>2014-07-28T10:37:33Z</time>
      </trkpt>
      <trkpt lat="42.94317" lon="0.8516">
        <ele>1044</ele>
        <time>2014-07-28T10:38:04Z</time>
      </trkpt>
      <trkpt lat="42.94309" lon="0.85142">
        <ele>1042</ele>
        <time>2014-07-28T10:38:16Z</time>
      </trkpt>
      <trkpt lat="42.94306" lon="0.85137">
        <ele>1043</ele>
        <time>2014-07-28T10:38:20Z</time>
      </trkpt>
      <trkpt lat="42.94301" lon="0.85125">
        <ele>1043</ele>
        <time>2014-07-28T10:38:28Z</time>
      </trkpt>
      <trkpt lat="42.94298" lon="0.85112">
        <ele>1044</ele>
        <time>2014-07-28T10:38:36Z</time>
      </trkpt>
      <trkpt lat="42.94296" lon="0.85106">
        <ele>1044</ele>
        <time>2014-07-28T10:38:40Z</time>
      </trkpt>
      <trkpt lat="42.94292" lon="0.85102">
        <ele>1042</ele>
        <time>2014-07-28T10:38:44Z</time>
      </trkpt>
      <trkpt lat="42.9429" lon="0.85095">
        <ele>1042</ele>
        <time>2014-07-28T10:38:48Z</time>
      </trkpt>
      <trkpt lat="42.94287" lon="0.8509">
        <ele>1041</ele>
        <time>2014-07-28T10:38:52Z</time>
      </trkpt>
      <trkpt lat="42.94282" lon="0.85085">
        <ele>1040</ele>
        <time>2014-07-28T10:38:56Z</time>
      </trkpt>
      <trkpt lat="42.94278" lon="0.85081">
        <ele>1041</ele>
        <time>2014-07-28T10:39:00Z</time>
      </trkpt>
      <trkpt lat="42.94271" lon="0.85062">
        <ele>1040</ele>
        <time>2014-07-28T10:39:12Z</time>
      </trkpt>
      <trkpt lat="42.94262" lon="0.85037">
        <ele>1036</ele>
        <time>2014-07-28T10:39:28Z</time>
      </trkpt>
      <trkpt lat="42.94261" lon="0.8503">
        <ele>1037</ele>
        <time>2014-07-28T10:39:32Z</time>
      </trkpt>
      <trkpt lat="42.94259" lon="0.8501">
        <ele>1035</ele>
        <time>2014-07-28T10:39:44Z</time>
      </trkpt>
      <trkpt lat="42.94259" lon="0.85003">
        <ele>1036</ele>
        <time>2014-07-28T10:39:49Z</time>
      </trkpt>
      <trkpt lat="42.94262" lon="0.84997">
        <ele>1038</ele>
        <time>2014-07-28T10:39:54Z</time>
      </trkpt>
      <trkpt lat="42.94271" lon="0.84993">
        <ele>1039</ele>
        <time>2014-07-28T10:40:03Z</time>
      </trkpt>
      <trkpt lat="42.94275" lon="0.84993">
        <ele>1040</ele>
        <time>2014-07-28T10:40:07Z</time>
      </trkpt>
      <trkpt lat="42.9428" lon="0.84994">
        <ele>1040</ele>
        <time>2014-07-28T10:40:11Z</time>
      </trkpt>
      <trkpt lat="42.94285" lon="0.84997">
        <ele>1041</ele>
        <time>2014-07-28T10:40:15Z</time>
      </trkpt>
      <trkpt lat="42.9429" lon="0.84998">
        <ele>1041</ele>
        <time>2014-07-28T10:40:19Z</time>
      </trkpt>
      <trkpt lat="42.94332" lon="0.85">
        <ele>1033</ele>
        <time>2014-07-28T10:40:51Z</time>
      </trkpt>
      <trkpt lat="42.94347" lon="0.85002">
        <ele>1030</ele>
        <time>2014-07-28T10:41:03Z</time>
      </trkpt>
      <trkpt lat="42.94352" lon="0.85003">
        <ele>1029</ele>
        <time>2014-07-28T10:41:07Z</time>
      </trkpt>
      <trkpt lat="42.94378" lon="0.85007">
        <ele>1026</ele>
        <time>2014-07-28T10:41:27Z</time>
      </trkpt>
      <trkpt lat="42.94383" lon="0.85008">
        <ele>1026</ele>
        <time>2014-07-28T10:41:32Z</time>
      </trkpt>
      <trkpt lat="42.94399" lon="0.85002">
        <ele>1025</ele>
        <time>2014-07-28T10:41:45Z</time>
      </trkpt>
      <trkpt lat="42.94428" lon="0.84986">
        <ele>1020</ele>
        <time>2014-07-28T10:42:08Z</time>
      </trkpt>
      <trkpt lat="42.94433" lon="0.8498">
        <ele>1020</ele>
        <time>2014-07-28T10:42:13Z</time>
      </trkpt>
      <trkpt lat="42.94435" lon="0.84975">
        <ele>1020</ele>
        <time>2014-07-28T10:42:17Z</time>
      </trkpt>
      <trkpt lat="42.94437" lon="0.84968">
        <ele>1020</ele>
        <time>2014-07-28T10:42:21Z</time>
      </trkpt>
      <trkpt lat="42.94439" lon="0.84962">
        <ele>1020</ele>
        <time>2014-07-28T10:42:25Z</time>
      </trkpt>
      <trkpt lat="42.94445" lon="0.84941">
        <ele>1016</ele>
        <time>2014-07-28T10:42:37Z</time>
      </trkpt>
      <trkpt lat="42.94445" lon="0.84934">
        <ele>1016</ele>
        <time>2014-07-28T10:42:41Z</time>
      </trkpt>
      <trkpt lat="42.94446" lon="0.84927">
        <ele>1016</ele>
        <time>2014-07-28T10:42:45Z</time>
      </trkpt>
      <trkpt lat="42.94446" lon="0.84919">
        <ele>1016</ele>
        <time>2014-07-28T10:42:50Z</time>
      </trkpt>
      <trkpt lat="42.94447" lon="0.84913">
        <ele>1015</ele>
        <time>2014-07-28T10:42:54Z</time>
      </trkpt>
      <trkpt lat="42.94447" lon="0.84906">
        <ele>1015</ele>
        <time>2014-07-28T10:42:58Z</time>
      </trkpt>
      <trkpt lat="42.94449" lon="0.84893">
        <ele>1013</ele>
        <time>2014-07-28T10:43:06Z</time>
      </trkpt>
      <trkpt lat="42.94448" lon="0.84886">
        <ele>1013</ele>
        <time>2014-07-28T10:43:10Z</time>
      </trkpt>
      <trkpt lat="42.94449" lon="0.84879">
        <ele>1013</ele>
        <time>2014-07-28T10:43:14Z</time>
      </trkpt>
      <trkpt lat="42.94445" lon="0.84823">
        <ele>1005</ele>
        <time>2014-07-28T10:43:46Z</time>
      </trkpt>
      <trkpt lat="42.94445" lon="0.84816">
        <ele>1004</ele>
        <time>2014-07-28T10:43:50Z</time>
      </trkpt>
      <trkpt lat="42.94446" lon="0.8481">
        <ele>1004</ele>
        <time>2014-07-28T10:43:54Z</time>
      </trkpt>
      <trkpt lat="42.94445" lon="0.84802">
        <ele>1004</ele>
        <time>2014-07-28T10:43:58Z</time>
      </trkpt>
      <trkpt lat="42.94448" lon="0.84781">
        <ele>1003</ele>
        <time>2014-07-28T10:44:10Z</time>
      </trkpt>
      <trkpt lat="42.9445" lon="0.84774">
        <ele>1003</ele>
        <time>2014-07-28T10:44:14Z</time>
      </trkpt>
      <trkpt lat="42.94451" lon="0.84768">
        <ele>1003</ele>
        <time>2014-07-28T10:44:18Z</time>
      </trkpt>
      <trkpt lat="42.94449" lon="0.84742">
        <ele>1008</ele>
        <time>2014-07-28T10:44:35Z</time>
      </trkpt>
      <trkpt lat="42.94448" lon="0.84735">
        <ele>1007</ele>
        <time>2014-07-28T10:44:39Z</time>
      </trkpt>
      <trkpt lat="42.94446" lon="0.84729">
        <ele>1006</ele>
        <time>2014-07-28T10:44:43Z</time>
      </trkpt>
      <trkpt lat="42.94447" lon="0.84694">
        <ele>999</ele>
        <time>2014-07-28T10:45:01Z</time>
      </trkpt>
      <trkpt lat="42.94446" lon="0.84686">
        <ele>1000</ele>
        <time>2014-07-28T10:45:05Z</time>
      </trkpt>
      <trkpt lat="42.94447" lon="0.84679">
        <ele>1000</ele>
        <time>2014-07-28T10:45:09Z</time>
      </trkpt>
      <trkpt lat="42.94446" lon="0.84666">
        <ele>999</ele>
        <time>2014-07-28T10:45:17Z</time>
      </trkpt>
      <trkpt lat="42.94458" lon="0.84611">
        <ele>993</ele>
        <time>2014-07-28T10:45:49Z</time>
      </trkpt>
      <trkpt lat="42.9446" lon="0.84605">
        <ele>993</ele>
        <time>2014-07-28T10:45:54Z</time>
      </trkpt>
      <trkpt lat="42.94463" lon="0.846">
        <ele>993</ele>
        <time>2014-07-28T10:45:59Z</time>
      </trkpt>
      <trkpt lat="42.94465" lon="0.84594">
        <ele>993</ele>
        <time>2014-07-28T10:46:03Z</time>
      </trkpt>
      <trkpt lat="42.94467" lon="0.84588">
        <ele>993</ele>
        <time>2014-07-28T10:46:07Z</time>
      </trkpt>
      <trkpt lat="42.94469" lon="0.84582">
        <ele>994</ele>
        <time>2014-07-28T10:46:12Z</time>
      </trkpt>
      <trkpt lat="42.94475" lon="0.8457">
        <ele>994</ele>
        <time>2014-07-28T10:46:21Z</time>
      </trkpt>
      <trkpt lat="42.94479" lon="0.84566">
        <ele>994</ele>
        <time>2014-07-28T10:46:25Z</time>
      </trkpt>
      <trkpt lat="42.9448" lon="0.84559">
        <ele>994</ele>
        <time>2014-07-28T10:46:29Z</time>
      </trkpt>
      <trkpt lat="42.94479" lon="0.84545">
        <ele>994</ele>
        <time>2014-07-28T10:46:37Z</time>
      </trkpt>
      <trkpt lat="42.94486" lon="0.84495">
        <ele>989</ele>
        <time>2014-07-28T10:47:08Z</time>
      </trkpt>
      <trkpt lat="42.94489" lon="0.84488">
        <ele>988</ele>
        <time>2014-07-28T10:47:12Z</time>
      </trkpt>
      <trkpt lat="42.94487" lon="0.84466">
        <ele>979</ele>
        <time>2014-07-28T10:47:24Z</time>
      </trkpt>
      <trkpt lat="42.94484" lon="0.8446">
        <ele>977</ele>
        <time>2014-07-28T10:47:28Z</time>
      </trkpt>
      <trkpt lat="42.94465" lon="0.84414">
        <ele>974</ele>
        <time>2014-07-28T10:47:58Z</time>
      </trkpt>
      <trkpt lat="42.94466" lon="0.84408">
        <ele>974</ele>
        <time>2014-07-28T10:48:02Z</time>
      </trkpt>
      <trkpt lat="42.94462" lon="0.84393">
        <ele>976</ele>
        <time>2014-07-28T10:48:15Z</time>
      </trkpt>
      <trkpt lat="42.94457" lon="0.84385">
        <ele>976</ele>
        <time>2014-07-28T10:48:20Z</time>
      </trkpt>
      <trkpt lat="42.94455" lon="0.84379">
        <ele>975</ele>
        <time>2014-07-28T10:48:24Z</time>
      </trkpt>
      <trkpt lat="42.94454" lon="0.84349">
        <ele>971</ele>
        <time>2014-07-28T10:48:41Z</time>
      </trkpt>
      <trkpt lat="42.94453" lon="0.84341">
        <ele>971</ele>
        <time>2014-07-28T10:48:45Z</time>
      </trkpt>
      <trkpt lat="42.94451" lon="0.84335">
        <ele>972</ele>
        <time>2014-07-28T10:48:49Z</time>
      </trkpt>
      <trkpt lat="42.94446" lon="0.84324">
        <ele>973</ele>
        <time>2014-07-28T10:48:57Z</time>
      </trkpt>
      <trkpt lat="42.94416" lon="0.84284">
        <ele>963</ele>
        <time>2014-07-28T10:49:30Z</time>
      </trkpt>
      <trkpt lat="42.94389" lon="0.84257">
        <ele>954</ele>
        <time>2014-07-28T10:50:01Z</time>
      </trkpt>
      <trkpt lat="42.9439" lon="0.8425">
        <ele>954</ele>
        <time>2014-07-28T10:50:06Z</time>
      </trkpt>
      <trkpt lat="42.94396" lon="0.84239">
        <ele>955</ele>
        <time>2014-07-28T10:50:15Z</time>
      </trkpt>
      <trkpt lat="42.94402" lon="0.84226">
        <ele>956</ele>
        <time>2014-07-28T10:50:24Z</time>
      </trkpt>
      <trkpt lat="42.94402" lon="0.84207">
        <ele>958</ele>
        <time>2014-07-28T10:50:37Z</time>
      </trkpt>
      <trkpt lat="42.94402" lon="0.84201">
        <ele>958</ele>
        <time>2014-07-28T10:50:41Z</time>
      </trkpt>
      <trkpt lat="42.94403" lon="0.84193">
        <ele>957</ele>
        <time>2014-07-28T10:50:45Z</time>
      </trkpt>
      <trkpt lat="42.94404" lon="0.84187">
        <ele>957</ele>
        <time>2014-07-28T10:50:49Z</time>
      </trkpt>
      <trkpt lat="42.94394" lon="0.84127">
        <ele>950</ele>
        <time>2014-07-28T10:51:21Z</time>
      </trkpt>
      <trkpt lat="42.94384" lon="0.84104">
        <ele>945</ele>
        <time>2014-07-28T10:51:38Z</time>
      </trkpt>
      <trkpt lat="42.94355" lon="0.8407">
        <ele>935</ele>
        <time>2014-07-28T10:52:09Z</time>
      </trkpt>
      <trkpt lat="42.94346" lon="0.84054">
        <ele>930</ele>
        <time>2014-07-28T10:52:20Z</time>
      </trkpt>
      <trkpt lat="42.9434" lon="0.84043">
        <ele>930</ele>
        <time>2014-07-28T10:52:28Z</time>
      </trkpt>
      <trkpt lat="42.9433" lon="0.84025">
        <ele>927</ele>
        <time>2014-07-28T10:52:42Z</time>
      </trkpt>
      <trkpt lat="42.94328" lon="0.84017">
        <ele>927</ele>
        <time>2014-07-28T10:52:46Z</time>
      </trkpt>
      <trkpt lat="42.94315" lon="0.83975">
        <ele>935</ele>
        <time>2014-07-28T10:53:09Z</time>
      </trkpt>
      <trkpt lat="42.94311" lon="0.83971">
        <ele>935</ele>
        <time>2014-07-28T10:53:13Z</time>
      </trkpt>
      <trkpt lat="42.94275" lon="0.8394">
        <ele>919</ele>
        <time>2014-07-28T10:53:46Z</time>
      </trkpt>
      <trkpt lat="42.9427" lon="0.83936">
        <ele>918</ele>
        <time>2014-07-28T10:53:50Z</time>
      </trkpt>
      <trkpt lat="42.94252" lon="0.83919">
        <ele>914</ele>
        <time>2014-07-28T10:54:07Z</time>
      </trkpt>
      <trkpt lat="42.94251" lon="0.83913">
        <ele>913</ele>
        <time>2014-07-28T10:54:11Z</time>
      </trkpt>
      <trkpt lat="42.9425" lon="0.83905">
        <ele>914</ele>
        <time>2014-07-28T10:54:15Z</time>
      </trkpt>
      <trkpt lat="42.94251" lon="0.83899">
        <ele>915</ele>
        <time>2014-07-28T10:54:19Z</time>
      </trkpt>
      <trkpt lat="42.94259" lon="0.83889">
        <ele>917</ele>
        <time>2014-07-28T10:54:27Z</time>
      </trkpt>
      <trkpt lat="42.94284" lon="0.83875">
        <ele>920</ele>
        <time>2014-07-28T10:54:48Z</time>
      </trkpt>
      <trkpt lat="42.94289" lon="0.83873">
        <ele>920</ele>
        <time>2014-07-28T10:54:51Z</time>
      </trkpt>
      <trkpt lat="42.94294" lon="0.8387">
        <ele>919</ele>
        <time>2014-07-28T10:54:55Z</time>
      </trkpt>
      <trkpt lat="42.94323" lon="0.83854">
        <ele>913</ele>
        <time>2014-07-28T10:55:19Z</time>
      </trkpt>
      <trkpt lat="42.94328" lon="0.83851">
        <ele>913</ele>
        <time>2014-07-28T10:55:23Z</time>
      </trkpt>
      <trkpt lat="42.94332" lon="0.83846">
        <ele>913</ele>
        <time>2014-07-28T10:55:27Z</time>
      </trkpt>
      <trkpt lat="42.94336" lon="0.83825">
        <ele>914</ele>
        <time>2014-07-28T10:55:40Z</time>
      </trkpt>
      <trkpt lat="42.94329" lon="0.83797">
        <ele>909</ele>
        <time>2014-07-28T10:55:56Z</time>
      </trkpt>
      <trkpt lat="42.94327" lon="0.8379">
        <ele>909</ele>
        <time>2014-07-28T10:56:01Z</time>
      </trkpt>
      <trkpt lat="42.94327" lon="0.83784">
        <ele>910</ele>
        <time>2014-07-28T10:56:05Z</time>
      </trkpt>
      <trkpt lat="42.94325" lon="0.83778">
        <ele>910</ele>
        <time>2014-07-28T10:56:09Z</time>
      </trkpt>
      <trkpt lat="42.94318" lon="0.8376">
        <ele>906</ele>
        <time>2014-07-28T10:56:22Z</time>
      </trkpt>
      <trkpt lat="42.94305" lon="0.8373">
        <ele>904</ele>
        <time>2014-07-28T10:56:42Z</time>
      </trkpt>
      <trkpt lat="42.94299" lon="0.83719">
        <ele>902</ele>
        <time>2014-07-28T10:56:50Z</time>
      </trkpt>
      <trkpt lat="42.94296" lon="0.83713">
        <ele>902</ele>
        <time>2014-07-28T10:56:54Z</time>
      </trkpt>
      <trkpt lat="42.94291" lon="0.837">
        <ele>903</ele>
        <time>2014-07-28T10:57:02Z</time>
      </trkpt>
      <trkpt lat="42.94289" lon="0.83686">
        <ele>903</ele>
        <time>2014-07-28T10:57:10Z</time>
      </trkpt>
      <trkpt lat="42.94289" lon="0.83679">
        <ele>904</ele>
        <time>2014-07-28T10:57:15Z</time>
      </trkpt>
      <trkpt lat="42.94288" lon="0.83672">
        <ele>903</ele>
        <time>2014-07-28T10:57:19Z</time>
      </trkpt>
      <trkpt lat="42.94286" lon="0.83666">
        <ele>903</ele>
        <time>2014-07-28T10:57:23Z</time>
      </trkpt>
      <trkpt lat="42.94284" lon="0.8366">
        <ele>903</ele>
        <time>2014-07-28T10:57:27Z</time>
      </trkpt>
      <trkpt lat="42.94285" lon="0.83653">
        <ele>903</ele>
        <time>2014-07-28T10:57:31Z</time>
      </trkpt>
      <trkpt lat="42.94283" lon="0.83605">
        <ele>895</ele>
        <time>2014-07-28T10:58:01Z</time>
      </trkpt>
      <trkpt lat="42.94274" lon="0.83579">
        <ele>886</ele>
        <time>2014-07-28T10:58:17Z</time>
      </trkpt>
      <trkpt lat="42.9427" lon="0.83576">
        <ele>886</ele>
        <time>2014-07-28T10:58:21Z</time>
      </trkpt>
      <trkpt lat="42.94259" lon="0.83575">
        <ele>884</ele>
        <time>2014-07-28T10:58:31Z</time>
      </trkpt>
      <trkpt lat="42.9425" lon="0.83574">
        <ele>885</ele>
        <time>2014-07-28T10:58:39Z</time>
      </trkpt>
      <trkpt lat="42.94245" lon="0.83574">
        <ele>884</ele>
        <time>2014-07-28T10:58:43Z</time>
      </trkpt>
      <trkpt lat="42.9424" lon="0.83574">
        <ele>884</ele>
        <time>2014-07-28T10:58:47Z</time>
      </trkpt>
      <trkpt lat="42.94235" lon="0.83574">
        <ele>884</ele>
        <time>2014-07-28T10:58:51Z</time>
      </trkpt>
      <trkpt lat="42.94215" lon="0.8356">
        <ele>890</ele>
        <time>2014-07-28T10:59:07Z</time>
      </trkpt>
      <trkpt lat="42.9421" lon="0.83558">
        <ele>889</ele>
        <time>2014-07-28T10:59:11Z</time>
      </trkpt>
      <trkpt lat="42.94206" lon="0.83557">
        <ele>889</ele>
        <time>2014-07-28T10:59:15Z</time>
      </trkpt>
      <trkpt lat="42.94191" lon="0.83554">
        <ele>884</ele>
        <time>2014-07-28T10:59:25Z</time>
      </trkpt>
      <trkpt lat="42.94181" lon="0.8355">
        <ele>884</ele>
        <time>2014-07-28T10:59:32Z</time>
      </trkpt>
      <trkpt lat="42.94173" lon="0.83541">
        <ele>883</ele>
        <time>2014-07-28T10:59:40Z</time>
      </trkpt>
      <trkpt lat="42.94165" lon="0.83532">
        <ele>884</ele>
        <time>2014-07-28T10:59:47Z</time>
      </trkpt>
      <trkpt lat="42.94148" lon="0.83521">
        <ele>884</ele>
        <time>2014-07-28T11:00:02Z</time>
      </trkpt>
      <trkpt lat="42.94147" lon="0.83507">
        <ele>883</ele>
        <time>2014-07-28T11:00:08Z</time>
      </trkpt>
      <trkpt lat="42.94158" lon="0.83506">
        <ele>882</ele>
        <time>2014-07-28T11:00:18Z</time>
      </trkpt>
      <trkpt lat="42.94176" lon="0.835">
        <ele>875</ele>
        <time>2014-07-28T11:00:32Z</time>
      </trkpt>
      <trkpt lat="42.94213" lon="0.83507">
        <ele>865</ele>
        <time>2014-07-28T11:01:02Z</time>
      </trkpt>
      <trkpt lat="42.94222" lon="0.83505">
        <ele>863</ele>
        <time>2014-07-28T11:01:09Z</time>
      </trkpt>
      <trkpt lat="42.94232" lon="0.83504">
        <ele>865</ele>
        <time>2014-07-28T11:01:18Z</time>
      </trkpt>
      <trkpt lat="42.9424" lon="0.83511">
        <ele>870</ele>
        <time>2014-07-28T11:01:26Z</time>
      </trkpt>
      <trkpt lat="42.94249" lon="0.83508">
        <ele>871</ele>
        <time>2014-07-28T11:01:34Z</time>
      </trkpt>
      <trkpt lat="42.94256" lon="0.835">
        <ele>874</ele>
        <time>2014-07-28T11:01:40Z</time>
      </trkpt>
      <trkpt lat="42.94265" lon="0.83495">
        <ele>874</ele>
        <time>2014-07-28T11:01:48Z</time>
      </trkpt>
      <trkpt lat="42.94301" lon="0.83478">
        <ele>862</ele>
        <time>2014-07-28T11:02:21Z</time>
      </trkpt>
      <trkpt lat="42.94335" lon="0.83453">
        <ele>847</ele>
        <time>2014-07-28T11:02:53Z</time>
      </trkpt>
      <trkpt lat="42.94343" lon="0.83445">
        <ele>847</ele>
        <time>2014-07-28T11:03:00Z</time>
      </trkpt>
      <trkpt lat="42.9435" lon="0.83437">
        <ele>848</ele>
        <time>2014-07-28T11:03:08Z</time>
      </trkpt>
      <trkpt lat="42.94351" lon="0.83424">
        <ele>850</ele>
        <time>2014-07-28T11:03:20Z</time>
      </trkpt>
      <trkpt lat="42.94359" lon="0.834">
        <ele>845</ele>
        <time>2014-07-28T11:03:34Z</time>
      </trkpt>
      <trkpt lat="42.94362" lon="0.83388">
        <ele>845</ele>
        <time>2014-07-28T11:03:40Z</time>
      </trkpt>
      <trkpt lat="42.94367" lon="0.83375">
        <ele>845</ele>
        <time>2014-07-28T11:03:47Z</time>
      </trkpt>
      <trkpt lat="42.94388" lon="0.8333">
        <ele>837</ele>
        <time>2014-07-28T11:04:19Z</time>
      </trkpt>
      <trkpt lat="42.94393" lon="0.83318">
        <ele>837</ele>
        <time>2014-07-28T11:04:26Z</time>
      </trkpt>
      <trkpt lat="42.94397" lon="0.83306">
        <ele>836</ele>
        <time>2014-07-28T11:04:33Z</time>
      </trkpt>
      <trkpt lat="42.94403" lon="0.83295">
        <ele>836</ele>
        <time>2014-07-28T11:04:41Z</time>
      </trkpt>
      <trkpt lat="42.94409" lon="0.83285">
        <ele>835</ele>
        <time>2014-07-28T11:04:48Z</time>
      </trkpt>
      <trkpt lat="42.94436" lon="0.83235">
        <ele>826</ele>
        <time>2014-07-28T11:05:24Z</time>
      </trkpt>
      <trkpt lat="42.94475" lon="0.83195">
        <ele>815</ele>
        <time>2014-07-28T11:06:05Z</time>
      </trkpt>
      <trkpt lat="42.94481" lon="0.83185">
        <ele>815</ele>
        <time>2014-07-28T11:06:17Z</time>
      </trkpt>
      <trkpt lat="42.94486" lon="0.83174">
        <ele>814</ele>
        <time>2014-07-28T11:06:25Z</time>
      </trkpt>
      <trkpt lat="42.94513" lon="0.83135">
        <ele>815</ele>
        <time>2014-07-28T11:06:57Z</time>
      </trkpt>
      <trkpt lat="42.94525" lon="0.83113">
        <ele>812</ele>
        <time>2014-07-28T11:07:16Z</time>
      </trkpt>
      <trkpt lat="42.94528" lon="0.83102">
        <ele>814</ele>
        <time>2014-07-28T11:07:25Z</time>
      </trkpt>
      <trkpt lat="42.94533" lon="0.83061">
        <ele>807</ele>
        <time>2014-07-28T11:07:45Z</time>
      </trkpt>
      <trkpt lat="42.94537" lon="0.8305">
        <ele>807</ele>
        <time>2014-07-28T11:07:53Z</time>
      </trkpt>
      <trkpt lat="42.94555" lon="0.82987">
        <ele>800</ele>
        <time>2014-07-28T11:08:28Z</time>
      </trkpt>
      <trkpt lat="42.94562" lon="0.82963">
        <ele>797</ele>
        <time>2014-07-28T11:08:42Z</time>
      </trkpt>
      <trkpt lat="42.94569" lon="0.82938">
        <ele>798</ele>
        <time>2014-07-28T11:08:58Z</time>
      </trkpt>
      <trkpt lat="42.94566" lon="0.82888">
        <ele>804</ele>
        <time>2014-07-28T11:09:30Z</time>
      </trkpt>
      <trkpt lat="42.94567" lon="0.82874">
        <ele>803</ele>
        <time>2014-07-28T11:09:37Z</time>
      </trkpt>
      <trkpt lat="42.94588" lon="0.82813">
        <ele>794</ele>
        <time>2014-07-28T11:10:18Z</time>
      </trkpt>
      <trkpt lat="42.94588" lon="0.82801">
        <ele>794</ele>
        <time>2014-07-28T11:10:26Z</time>
      </trkpt>
      <trkpt lat="42.94598" lon="0.82763">
        <ele>798</ele>
        <time>2014-07-28T11:10:43Z</time>
      </trkpt>
      <trkpt lat="42.94599" lon="0.8275">
        <ele>798</ele>
        <time>2014-07-28T11:10:50Z</time>
      </trkpt>
      <trkpt lat="42.94602" lon="0.82738">
        <ele>800</ele>
        <time>2014-07-28T11:10:57Z</time>
      </trkpt>
      <trkpt lat="42.94609" lon="0.8273">
        <ele>799</ele>
        <time>2014-07-28T11:11:03Z</time>
      </trkpt>
      <trkpt lat="42.94641" lon="0.82679">
        <ele>791</ele>
        <time>2014-07-28T11:11:37Z</time>
      </trkpt>
      <trkpt lat="42.94653" lon="0.82643">
        <ele>789</ele>
        <time>2014-07-28T11:11:56Z</time>
      </trkpt>
      <trkpt lat="42.94676" lon="0.82602">
        <ele>770</ele>
        <time>2014-07-28T11:12:33Z</time>
      </trkpt>
      <trkpt lat="42.94697" lon="0.82544">
        <ele>757</ele>
        <time>2014-07-28T11:13:05Z</time>
      </trkpt>
      <trkpt lat="42.94703" lon="0.82532">
        <ele>757</ele>
        <time>2014-07-28T11:13:12Z</time>
      </trkpt>
      <trkpt lat="42.94709" lon="0.82523">
        <ele>758</ele>
        <time>2014-07-28T11:13:19Z</time>
      </trkpt>
      <trkpt lat="42.94717" lon="0.82514">
        <ele>757</ele>
        <time>2014-07-28T11:13:27Z</time>
      </trkpt>
      <trkpt lat="42.94731" lon="0.82496">
        <ele>755</ele>
        <time>2014-07-28T11:13:41Z</time>
      </trkpt>
      <trkpt lat="42.94737" lon="0.82486">
        <ele>755</ele>
        <time>2014-07-28T11:13:50Z</time>
      </trkpt>
      <trkpt lat="42.94773" lon="0.8244">
        <ele>753</ele>
        <time>2014-07-28T11:14:23Z</time>
      </trkpt>
      <trkpt lat="42.94797" lon="0.82421">
        <ele>750</ele>
        <time>2014-07-28T11:14:44Z</time>
      </trkpt>
      <trkpt lat="42.94801" lon="0.8241">
        <ele>748</ele>
        <time>2014-07-28T11:14:54Z</time>
      </trkpt>
      <trkpt lat="42.94805" lon="0.82397">
        <ele>748</ele>
        <time>2014-07-28T11:15:05Z</time>
      </trkpt>
      <trkpt lat="42.94827" lon="0.8234">
        <ele>742</ele>
        <time>2014-07-28T11:15:40Z</time>
      </trkpt>
      <trkpt lat="42.94863" lon="0.82298">
        <ele>735</ele>
        <time>2014-07-28T11:16:14Z</time>
      </trkpt>
      <trkpt lat="42.94869" lon="0.82288">
        <ele>734</ele>
        <time>2014-07-28T11:16:25Z</time>
      </trkpt>
      <trkpt lat="42.94863" lon="0.82277">
        <ele>732</ele>
        <time>2014-07-28T11:16:34Z</time>
      </trkpt>
      <trkpt lat="42.94859" lon="0.82265">
        <ele>734</ele>
        <time>2014-07-28T11:16:41Z</time>
      </trkpt>
      <trkpt lat="42.94861" lon="0.82239">
        <ele>737</ele>
        <time>2014-07-28T11:16:55Z</time>
      </trkpt>
      <trkpt lat="42.94858" lon="0.82213">
        <ele>733</ele>
        <time>2014-07-28T11:17:12Z</time>
      </trkpt>
      <trkpt lat="42.94857" lon="0.822">
        <ele>734</ele>
        <time>2014-07-28T11:17:21Z</time>
      </trkpt>
      <trkpt lat="42.94857" lon="0.82186">
        <ele>734</ele>
        <time>2014-07-28T11:17:28Z</time>
      </trkpt>
      <trkpt lat="42.94855" lon="0.82174">
        <ele>733</ele>
        <time>2014-07-28T11:17:36Z</time>
      </trkpt>
      <trkpt lat="42.94858" lon="0.8216">
        <ele>732</ele>
        <time>2014-07-28T11:17:41Z</time>
      </trkpt>
      <trkpt lat="42.94859" lon="0.82147">
        <ele>732</ele>
        <time>2014-07-28T11:17:46Z</time>
      </trkpt>
      <trkpt lat="42.94858" lon="0.8212">
        <ele>730</ele>
        <time>2014-07-28T11:18:01Z</time>
      </trkpt>
      <trkpt lat="42.94857" lon="0.82107">
        <ele>728</ele>
        <time>2014-07-28T11:18:09Z</time>
      </trkpt>
      <trkpt lat="42.94856" lon="0.82095">
        <ele>728</ele>
        <time>2014-07-28T11:18:17Z</time>
      </trkpt>
      <trkpt lat="42.94857" lon="0.82081">
        <ele>728</ele>
        <time>2014-07-28T11:18:25Z</time>
      </trkpt>
      <trkpt lat="42.94857" lon="0.82054">
        <ele>723</ele>
        <time>2014-07-28T11:18:41Z</time>
      </trkpt>
      <trkpt lat="42.94858" lon="0.81989">
        <ele>717</ele>
        <time>2014-07-28T11:19:15Z</time>
      </trkpt>
      <trkpt lat="42.9486" lon="0.81976">
        <ele>716</ele>
        <time>2014-07-28T11:19:22Z</time>
      </trkpt>
      <trkpt lat="42.9488" lon="0.81932">
        <ele>708</ele>
        <time>2014-07-28T11:19:48Z</time>
      </trkpt>
      <trkpt lat="42.94894" lon="0.81915">
        <ele>707</ele>
        <time>2014-07-28T11:20:00Z</time>
      </trkpt>
      <trkpt lat="42.94934" lon="0.81882">
        <ele>701</ele>
        <time>2014-07-28T11:20:34Z</time>
      </trkpt>
      <trkpt lat="42.94942" lon="0.81877">
        <ele>700</ele>
        <time>2014-07-28T11:20:41Z</time>
      </trkpt>
      <trkpt lat="42.94952" lon="0.81876">
        <ele>695</ele>
        <time>2014-07-28T11:20:49Z</time>
      </trkpt>
      <trkpt lat="42.94969" lon="0.81884">
        <ele>687</ele>
        <time>2014-07-28T11:21:08Z</time>
      </trkpt>
      <trkpt lat="42.94971" lon="0.81891">
        <ele>683</ele>
        <time>2014-07-28T11:21:22Z</time>
      </trkpt>
      <trkpt lat="42.94981" lon="0.81887">
        <ele>682</ele>
        <time>2014-07-28T11:22:07Z</time>
      </trkpt>
      <trkpt lat="42.9499" lon="0.81885">
        <ele>681</ele>
        <time>2014-07-28T11:22:16Z</time>
      </trkpt>
      <trkpt lat="42.94995" lon="0.81886">
        <ele>681</ele>
        <time>2014-07-28T11:22:31Z</time>
      </trkpt>
      <trkpt lat="42.95001" lon="0.81884">
        <ele>691</ele>
        <time>2014-07-28T11:30:08Z</time>
      </trkpt>
      <trkpt lat="42.95003" lon="0.81876">
        <ele>687</ele>
        <time>2014-07-28T11:31:30Z</time>
      </trkpt>
      <trkpt lat="42.95012" lon="0.81872">
        <ele>686</ele>
        <time>2014-07-28T11:31:43Z</time>
      </trkpt>
      <trkpt lat="42.95045" lon="0.81846">
        <ele>677</ele>
        <time>2014-07-28T11:32:15Z</time>
      </trkpt>
      <trkpt lat="42.95054" lon="0.81839">
        <ele>677</ele>
        <time>2014-07-28T11:32:22Z</time>
      </trkpt>
      <trkpt lat="42.95062" lon="0.81833">
        <ele>674</ele>
        <time>2014-07-28T11:32:30Z</time>
      </trkpt>
      <trkpt lat="42.95063" lon="0.81819">
        <ele>673</ele>
        <time>2014-07-28T11:32:39Z</time>
      </trkpt>
      <trkpt lat="42.95061" lon="0.81807">
        <ele>671</ele>
        <time>2014-07-28T11:32:47Z</time>
      </trkpt>
      <trkpt lat="42.95056" lon="0.81796">
        <ele>672</ele>
        <time>2014-07-28T11:32:56Z</time>
      </trkpt>
      <trkpt lat="42.95059" lon="0.81789">
        <ele>672</ele>
        <time>2014-07-28T11:33:13Z</time>
      </trkpt>
      <trkpt lat="42.95054" lon="0.81778">
        <ele>671</ele>
        <time>2014-07-28T11:33:28Z</time>
      </trkpt>
      <trkpt lat="42.95049" lon="0.81766">
        <ele>669</ele>
        <time>2014-07-28T11:33:36Z</time>
      </trkpt>
      <trkpt lat="42.9504" lon="0.81743">
        <ele>666</ele>
        <time>2014-07-28T11:33:54Z</time>
      </trkpt>
      <trkpt lat="42.95036" lon="0.81731">
        <ele>666</ele>
        <time>2014-07-28T11:34:03Z</time>
      </trkpt>
      <trkpt lat="42.95032" lon="0.81719">
        <ele>665</ele>
        <time>2014-07-28T11:34:10Z</time>
      </trkpt>
      <trkpt lat="42.95021" lon="0.81681">
        <ele>657</ele>
        <time>2014-07-28T11:34:34Z</time>
      </trkpt>
      <trkpt lat="42.95014" lon="0.81657">
        <ele>658</ele>
        <time>2014-07-28T11:34:51Z</time>
      </trkpt>
      <trkpt lat="42.95001" lon="0.81637">
        <ele>654</ele>
        <time>2014-07-28T11:35:05Z</time>
      </trkpt>
      <trkpt lat="42.94992" lon="0.81631">
        <ele>653</ele>
        <time>2014-07-28T11:35:13Z</time>
      </trkpt>
      <trkpt lat="42.94957" lon="0.81611">
        <ele>656</ele>
        <time>2014-07-28T11:35:45Z</time>
      </trkpt>
      <trkpt lat="42.94947" lon="0.81609">
        <ele>657</ele>
        <time>2014-07-28T11:35:53Z</time>
      </trkpt>
      <trkpt lat="42.94937" lon="0.81613">
        <ele>656</ele>
        <time>2014-07-28T11:36:00Z</time>
      </trkpt>
      <trkpt lat="42.94928" lon="0.81618">
        <ele>654</ele>
        <time>2014-07-28T11:36:08Z</time>
      </trkpt>
      <trkpt lat="42.94912" lon="0.81632">
        <ele>653</ele>
        <time>2014-07-28T11:36:24Z</time>
      </trkpt>
      <trkpt lat="42.94904" lon="0.81637">
        <ele>653</ele>
        <time>2014-07-28T11:36:32Z</time>
      </trkpt>
      <trkpt lat="42.94894" lon="0.81636">
        <ele>654</ele>
        <time>2014-07-28T11:36:40Z</time>
      </trkpt>
      <trkpt lat="42.9488" lon="0.8162">
        <ele>655</ele>
        <time>2014-07-28T11:36:57Z</time>
      </trkpt>
      <trkpt lat="42.94878" lon="0.81607">
        <ele>655</ele>
        <time>2014-07-28T11:37:11Z</time>
      </trkpt>
      <trkpt lat="42.94882" lon="0.81595">
        <ele>650</ele>
        <time>2014-07-28T11:37:23Z</time>
      </trkpt>
      <trkpt lat="42.94904" lon="0.8157">
        <ele>638</ele>
        <time>2014-07-28T11:37:52Z</time>
      </trkpt>
      <trkpt lat="42.9493" lon="0.81551">
        <ele>638</ele>
        <time>2014-07-28T11:38:21Z</time>
      </trkpt>
      <trkpt lat="42.94947" lon="0.81543">
        <ele>633</ele>
        <time>2014-07-28T11:38:35Z</time>
      </trkpt>
      <trkpt lat="42.94956" lon="0.81538">
        <ele>634</ele>
        <time>2014-07-28T11:38:42Z</time>
      </trkpt>
      <trkpt lat="42.94984" lon="0.81526">
        <ele>640</ele>
        <time>2014-07-28T11:39:05Z</time>
      </trkpt>
      <trkpt lat="42.95022" lon="0.81489">
        <ele>634</ele>
        <time>2014-07-28T11:39:39Z</time>
      </trkpt>
      <trkpt lat="42.95031" lon="0.81483">
        <ele>633</ele>
        <time>2014-07-28T11:39:47Z</time>
      </trkpt>
      <trkpt lat="42.95069" lon="0.81476">
        <ele>641</ele>
        <time>2014-07-28T11:40:16Z</time>
      </trkpt>
      <trkpt lat="42.95077" lon="0.81482">
        <ele>643</ele>
        <time>2014-07-28T11:40:24Z</time>
      </trkpt>
      <trkpt lat="42.95085" lon="0.8149">
        <ele>644</ele>
        <time>2014-07-28T11:40:31Z</time>
      </trkpt>
      <trkpt lat="42.95092" lon="0.81499">
        <ele>642</ele>
        <time>2014-07-28T11:40:39Z</time>
      </trkpt>
      <trkpt lat="42.95101" lon="0.81504">
        <ele>641</ele>
        <time>2014-07-28T11:40:46Z</time>
      </trkpt>
      <trkpt lat="42.9512" lon="0.81513">
        <ele>639</ele>
        <time>2014-07-28T11:41:02Z</time>
      </trkpt>
      <trkpt lat="42.95129" lon="0.81515">
        <ele>639</ele>
        <time>2014-07-28T11:41:08Z</time>
      </trkpt>
      <trkpt lat="42.95158" lon="0.8151">
        <ele>638</ele>
        <time>2014-07-28T11:41:29Z</time>
      </trkpt>
      <trkpt lat="42.95168" lon="0.81507">
        <ele>639</ele>
        <time>2014-07-28T11:41:36Z</time>
      </trkpt>
      <trkpt lat="42.95205" lon="0.81499">
        <ele>631</ele>
        <time>2014-07-28T11:42:06Z</time>
      </trkpt>
      <trkpt lat="42.95221" lon="0.81483">
        <ele>628</ele>
        <time>2014-07-28T11:42:21Z</time>
      </trkpt>
      <trkpt lat="42.95239" lon="0.81453">
        <ele>626</ele>
        <time>2014-07-28T11:42:43Z</time>
      </trkpt>
      <trkpt lat="42.95245" lon="0.81399">
        <ele>621</ele>
        <time>2014-07-28T11:43:15Z</time>
      </trkpt>
      <trkpt lat="42.95251" lon="0.81336">
        <ele>613</ele>
        <time>2014-07-28T11:43:51Z</time>
      </trkpt>
      <trkpt lat="42.95264" lon="0.81275">
        <ele>611</ele>
        <time>2014-07-28T11:44:27Z</time>
      </trkpt>
      <trkpt lat="42.95269" lon="0.81264">
        <ele>610</ele>
        <time>2014-07-28T11:44:34Z</time>
      </trkpt>
      <trkpt lat="42.95283" lon="0.81245">
        <ele>609</ele>
        <time>2014-07-28T11:44:48Z</time>
      </trkpt>
      <trkpt lat="42.95296" lon="0.81225">
        <ele>608</ele>
        <time>2014-07-28T11:45:03Z</time>
      </trkpt>
      <trkpt lat="42.95303" lon="0.81216">
        <ele>608</ele>
        <time>2014-07-28T11:45:12Z</time>
      </trkpt>
      <trkpt lat="42.95328" lon="0.81197">
        <ele>607</ele>
        <time>2014-07-28T11:45:32Z</time>
      </trkpt>
      <trkpt lat="42.95356" lon="0.81188">
        <ele>610</ele>
        <time>2014-07-28T11:45:55Z</time>
      </trkpt>
      <trkpt lat="42.95375" lon="0.81184">
        <ele>616</ele>
        <time>2014-07-28T11:46:13Z</time>
      </trkpt>
      <trkpt lat="42.95379" lon="0.81172">
        <ele>615</ele>
        <time>2014-07-28T11:46:44Z</time>
      </trkpt>
      <trkpt lat="42.9539" lon="0.8115">
        <ele>609</ele>
        <time>2014-07-28T11:46:58Z</time>
      </trkpt>
      <trkpt lat="42.95391" lon="0.81137">
        <ele>607</ele>
        <time>2014-07-28T11:47:06Z</time>
      </trkpt>
      <trkpt lat="42.95383" lon="0.81112">
        <ele>604</ele>
        <time>2014-07-28T11:47:21Z</time>
      </trkpt>
      <trkpt lat="42.95376" lon="0.81088">
        <ele>604</ele>
        <time>2014-07-28T11:47:37Z</time>
      </trkpt>
      <trkpt lat="42.95373" lon="0.81076">
        <ele>604</ele>
        <time>2014-07-28T11:47:45Z</time>
      </trkpt>
      <trkpt lat="42.95367" lon="0.81052">
        <ele>604</ele>
        <time>2014-07-28T11:47:59Z</time>
      </trkpt>
      <trkpt lat="42.95369" lon="0.81026">
        <ele>604</ele>
        <time>2014-07-28T11:48:14Z</time>
      </trkpt>
      <trkpt lat="42.95368" lon="0.81012">
        <ele>601</ele>
        <time>2014-07-28T11:48:21Z</time>
      </trkpt>
      <trkpt lat="42.9538" lon="0.80949">
        <ele>595</ele>
        <time>2014-07-28T11:48:55Z</time>
      </trkpt>
      <trkpt lat="42.9538" lon="0.80936">
        <ele>594</ele>
        <time>2014-07-28T11:49:02Z</time>
      </trkpt>
      <trkpt lat="42.95385" lon="0.80925">
        <ele>594</ele>
        <time>2014-07-28T11:49:09Z</time>
      </trkpt>
      <trkpt lat="42.95398" lon="0.80878">
        <ele>594</ele>
        <time>2014-07-28T11:49:37Z</time>
      </trkpt>
      <trkpt lat="42.95402" lon="0.80839">
        <ele>591</ele>
        <time>2014-07-28T11:49:58Z</time>
      </trkpt>
      <trkpt lat="42.95397" lon="0.80788">
        <ele>602</ele>
        <time>2014-07-28T11:50:32Z</time>
      </trkpt>
      <trkpt lat="42.95394" lon="0.80776">
        <ele>602</ele>
        <time>2014-07-28T11:50:38Z</time>
      </trkpt>
      <trkpt lat="42.95378" lon="0.80716">
        <ele>612</ele>
        <time>2014-07-28T11:51:14Z</time>
      </trkpt>
      <trkpt lat="42.95377" lon="0.80704">
        <ele>611</ele>
        <time>2014-07-28T11:51:21Z</time>
      </trkpt>
      <trkpt lat="42.95374" lon="0.8069">
        <ele>608</ele>
        <time>2014-07-28T11:51:30Z</time>
      </trkpt>
      <trkpt lat="42.95376" lon="0.80678">
        <ele>606</ele>
        <time>2014-07-28T11:51:37Z</time>
      </trkpt>
      <trkpt lat="42.95382" lon="0.80667">
        <ele>603</ele>
        <time>2014-07-28T11:51:45Z</time>
      </trkpt>
      <trkpt lat="42.95389" lon="0.80658">
        <ele>603</ele>
        <time>2014-07-28T11:51:52Z</time>
      </trkpt>
      <trkpt lat="42.95393" lon="0.80646">
        <ele>603</ele>
        <time>2014-07-28T11:52:01Z</time>
      </trkpt>
      <trkpt lat="42.95409" lon="0.80599">
        <ele>599</ele>
        <time>2014-07-28T11:52:35Z</time>
      </trkpt>
      <trkpt lat="42.95416" lon="0.8059">
        <ele>601</ele>
        <time>2014-07-28T11:52:44Z</time>
      </trkpt>
      <trkpt lat="42.95423" lon="0.80581">
        <ele>601</ele>
        <time>2014-07-28T11:52:53Z</time>
      </trkpt>
      <trkpt lat="42.95425" lon="0.80569">
        <ele>600</ele>
        <time>2014-07-28T11:53:01Z</time>
      </trkpt>
      <trkpt lat="42.95428" lon="0.80557">
        <ele>599</ele>
        <time>2014-07-28T11:53:09Z</time>
      </trkpt>
      <trkpt lat="42.95428" lon="0.80544">
        <ele>601</ele>
        <time>2014-07-28T11:53:20Z</time>
      </trkpt>
      <trkpt lat="42.95433" lon="0.80533">
        <ele>601</ele>
        <time>2014-07-28T11:53:28Z</time>
      </trkpt>
      <trkpt lat="42.95435" lon="0.80519">
        <ele>603</ele>
        <time>2014-07-28T11:53:37Z</time>
      </trkpt>
      <trkpt lat="42.95446" lon="0.80485">
        <ele>605</ele>
        <time>2014-07-28T11:54:07Z</time>
      </trkpt>
      <trkpt lat="42.95445" lon="0.80472">
        <ele>606</ele>
        <time>2014-07-28T11:54:16Z</time>
      </trkpt>
      <trkpt lat="42.9544" lon="0.8046">
        <ele>607</ele>
        <time>2014-07-28T11:54:24Z</time>
      </trkpt>
      <trkpt lat="42.9542" lon="0.80417">
        <ele>613</ele>
        <time>2014-07-28T11:54:59Z</time>
      </trkpt>
      <trkpt lat="42.9541" lon="0.80381">
        <ele>620</ele>
        <time>2014-07-28T11:55:26Z</time>
      </trkpt>
      <trkpt lat="42.95404" lon="0.8037">
        <ele>619</ele>
        <time>2014-07-28T11:55:33Z</time>
      </trkpt>
      <trkpt lat="42.95403" lon="0.80357">
        <ele>618</ele>
        <time>2014-07-28T11:55:41Z</time>
      </trkpt>
      <trkpt lat="42.95412" lon="0.80355">
        <ele>616</ele>
        <time>2014-07-28T11:55:53Z</time>
      </trkpt>
      <trkpt lat="42.9542" lon="0.80362">
        <ele>617</ele>
        <time>2014-07-28T11:56:02Z</time>
      </trkpt>
      <trkpt lat="42.95454" lon="0.80382">
        <ele>625</ele>
        <time>2014-07-28T11:56:32Z</time>
      </trkpt>
      <trkpt lat="42.95479" lon="0.80401">
        <ele>634</ele>
        <time>2014-07-28T11:56:53Z</time>
      </trkpt>
      <trkpt lat="42.95488" lon="0.80403">
        <ele>635</ele>
        <time>2014-07-28T11:57:00Z</time>
      </trkpt>
      <trkpt lat="42.95505" lon="0.8039">
        <ele>629</ele>
        <time>2014-07-28T11:57:14Z</time>
      </trkpt>
      <trkpt lat="42.95528" lon="0.80351">
        <ele>615</ele>
        <time>2014-07-28T11:57:45Z</time>
      </trkpt>
      <trkpt lat="42.95554" lon="0.80332">
        <ele>612</ele>
        <time>2014-07-28T11:58:05Z</time>
      </trkpt>
      <trkpt lat="42.95562" lon="0.80325">
        <ele>612</ele>
        <time>2014-07-28T11:58:11Z</time>
      </trkpt>
      <trkpt lat="42.9557" lon="0.80317">
        <ele>613</ele>
        <time>2014-07-28T11:58:19Z</time>
      </trkpt>
      <trkpt lat="42.95593" lon="0.80293">
        <ele>609</ele>
        <time>2014-07-28T11:58:44Z</time>
      </trkpt>
      <trkpt lat="42.95603" lon="0.80293">
        <ele>608</ele>
        <time>2014-07-28T11:58:53Z</time>
      </trkpt>
      <trkpt lat="42.95613" lon="0.80293">
        <ele>608</ele>
        <time>2014-07-28T11:58:59Z</time>
      </trkpt>
      <trkpt lat="42.95658" lon="0.80306">
        <ele>613</ele>
        <time>2014-07-28T11:59:34Z</time>
      </trkpt>
      <trkpt lat="42.95687" lon="0.80307">
        <ele>618</ele>
        <time>2014-07-28T11:59:57Z</time>
      </trkpt>
      <trkpt lat="42.95697" lon="0.803">
        <ele>618</ele>
        <time>2014-07-28T12:00:03Z</time>
      </trkpt>
      <trkpt lat="42.95705" lon="0.80293">
        <ele>619</ele>
        <time>2014-07-28T12:00:10Z</time>
      </trkpt>
      <trkpt lat="42.9572" lon="0.80276">
        <ele>621</ele>
        <time>2014-07-28T12:00:24Z</time>
      </trkpt>
      <trkpt lat="42.95727" lon="0.80268">
        <ele>621</ele>
        <time>2014-07-28T12:00:31Z</time>
      </trkpt>
      <trkpt lat="42.95759" lon="0.8024">
        <ele>618</ele>
        <time>2014-07-28T12:00:59Z</time>
      </trkpt>
      <trkpt lat="42.9577" lon="0.8024">
        <ele>618</ele>
        <time>2014-07-28T12:01:06Z</time>
      </trkpt>
      <trkpt lat="42.95786" lon="0.80226">
        <ele>617</ele>
        <time>2014-07-28T12:01:19Z</time>
      </trkpt>
      <trkpt lat="42.95805" lon="0.8022">
        <ele>617</ele>
        <time>2014-07-28T12:01:34Z</time>
      </trkpt>
      <trkpt lat="42.95812" lon="0.80212">
        <ele>616</ele>
        <time>2014-07-28T12:01:41Z</time>
      </trkpt>
      <trkpt lat="42.95817" lon="0.80201">
        <ele>613</ele>
        <time>2014-07-28T12:01:49Z</time>
      </trkpt>
      <trkpt lat="42.95815" lon="0.80189">
        <ele>612</ele>
        <time>2014-07-28T12:01:55Z</time>
      </trkpt>
      <trkpt lat="42.95822" lon="0.8018">
        <ele>606</ele>
        <time>2014-07-28T12:02:02Z</time>
      </trkpt>
      <trkpt lat="42.95852" lon="0.80128">
        <ele>595</ele>
        <time>2014-07-28T12:02:36Z</time>
      </trkpt>
      <trkpt lat="42.95888" lon="0.80079">
        <ele>591</ele>
        <time>2014-07-28T12:03:10Z</time>
      </trkpt>
      <trkpt lat="42.95893" lon="0.80069">
        <ele>589</ele>
        <time>2014-07-28T12:03:16Z</time>
      </trkpt>
      <trkpt lat="42.95902" lon="0.8006">
        <ele>588</ele>
        <time>2014-07-28T12:03:22Z</time>
      </trkpt>
      <trkpt lat="42.95911" lon="0.80037">
        <ele>588</ele>
        <time>2014-07-28T12:03:37Z</time>
      </trkpt>
      <trkpt lat="42.95914" lon="0.80024">
        <ele>587</ele>
        <time>2014-07-28T12:03:44Z</time>
      </trkpt>
      <trkpt lat="42.95915" lon="0.80012">
        <ele>587</ele>
        <time>2014-07-28T12:03:51Z</time>
      </trkpt>
      <trkpt lat="42.95928" lon="0.79977">
        <ele>589</ele>
        <time>2014-07-28T12:04:16Z</time>
      </trkpt>
      <trkpt lat="42.95951" lon="0.79937">
        <ele>586</ele>
        <time>2014-07-28T12:04:44Z</time>
      </trkpt>
      <trkpt lat="42.95972" lon="0.79892">
        <ele>587</ele>
        <time>2014-07-28T12:05:12Z</time>
      </trkpt>
      <trkpt lat="42.95974" lon="0.79866">
        <ele>585</ele>
        <time>2014-07-28T12:05:26Z</time>
      </trkpt>
      <trkpt lat="42.9597" lon="0.79854">
        <ele>585</ele>
        <time>2014-07-28T12:05:38Z</time>
      </trkpt>
      <trkpt lat="42.95953" lon="0.79807">
        <ele>593</ele>
        <time>2014-07-28T12:06:09Z</time>
      </trkpt>
      <trkpt lat="42.95949" lon="0.79793">
        <ele>595</ele>
        <time>2014-07-28T12:06:16Z</time>
      </trkpt>
      <trkpt lat="42.95936" lon="0.79759">
        <ele>596</ele>
        <time>2014-07-28T12:06:36Z</time>
      </trkpt>
      <trkpt lat="42.95932" lon="0.79734">
        <ele>596</ele>
        <time>2014-07-28T12:06:50Z</time>
      </trkpt>
      <trkpt lat="42.95933" lon="0.79696">
        <ele>592</ele>
        <time>2014-07-28T12:07:11Z</time>
      </trkpt>
      <trkpt lat="42.95939" lon="0.79686">
        <ele>590</ele>
        <time>2014-07-28T12:07:18Z</time>
      </trkpt>
      <trkpt lat="42.95947" lon="0.7969">
        <ele>589</ele>
        <time>2014-07-28T12:07:26Z</time>
      </trkpt>
      <trkpt lat="42.95951" lon="0.79704">
        <ele>589</ele>
        <time>2014-07-28T12:07:33Z</time>
      </trkpt>
      <trkpt lat="42.95963" lon="0.79736">
        <ele>578</ele>
        <time>2014-07-28T12:07:54Z</time>
      </trkpt>
      <trkpt lat="42.95982" lon="0.7974">
        <ele>576</ele>
        <time>2014-07-28T12:08:09Z</time>
      </trkpt>
      <trkpt lat="42.95991" lon="0.79739">
        <ele>576</ele>
        <time>2014-07-28T12:08:16Z</time>
      </trkpt>
      <trkpt lat="42.96001" lon="0.79738">
        <ele>577</ele>
        <time>2014-07-28T12:08:24Z</time>
      </trkpt>
      <trkpt lat="42.9601" lon="0.79738">
        <ele>577</ele>
        <time>2014-07-28T12:08:34Z</time>
      </trkpt>
      <trkpt lat="42.96028" lon="0.79739">
        <ele>574</ele>
        <time>2014-07-28T12:08:46Z</time>
      </trkpt>
      <trkpt lat="42.96067" lon="0.79742">
        <ele>572</ele>
        <time>2014-07-28T12:09:18Z</time>
      </trkpt>
      <trkpt lat="42.96087" lon="0.79738">
        <ele>570</ele>
        <time>2014-07-28T12:09:32Z</time>
      </trkpt>
      <trkpt lat="42.96125" lon="0.79725">
        <ele>571</ele>
        <time>2014-07-28T12:09:59Z</time>
      </trkpt>
      <trkpt lat="42.96155" lon="0.79692">
        <ele>568</ele>
        <time>2014-07-28T12:10:26Z</time>
      </trkpt>
      <trkpt lat="42.96163" lon="0.79684">
        <ele>569</ele>
        <time>2014-07-28T12:10:34Z</time>
      </trkpt>
      <trkpt lat="42.96185" lon="0.79659">
        <ele>571</ele>
        <time>2014-07-28T12:10:55Z</time>
      </trkpt>
      <trkpt lat="42.96233" lon="0.79653">
        <ele>578</ele>
        <time>2014-07-28T12:11:33Z</time>
      </trkpt>
      <trkpt lat="42.96241" lon="0.79643">
        <ele>580</ele>
        <time>2014-07-28T12:11:47Z</time>
      </trkpt>
      <trkpt lat="42.96251" lon="0.79641">
        <ele>582</ele>
        <time>2014-07-28T12:11:54Z</time>
      </trkpt>
      <trkpt lat="42.96259" lon="0.79635">
        <ele>581</ele>
        <time>2014-07-28T12:12:03Z</time>
      </trkpt>
      <trkpt lat="42.96267" lon="0.79625">
        <ele>581</ele>
        <time>2014-07-28T12:12:11Z</time>
      </trkpt>
      <trkpt lat="42.96269" lon="0.79613">
        <ele>580</ele>
        <time>2014-07-28T12:12:17Z</time>
      </trkpt>
      <trkpt lat="42.963" lon="0.79564">
        <ele>576</ele>
        <time>2014-07-28T12:12:52Z</time>
      </trkpt>
      <trkpt lat="42.96323" lon="0.79541">
        <ele>575</ele>
        <time>2014-07-28T12:13:13Z</time>
      </trkpt>
      <trkpt lat="42.96331" lon="0.79533">
        <ele>573</ele>
        <time>2014-07-28T12:13:20Z</time>
      </trkpt>
      <trkpt lat="42.96337" lon="0.79523">
        <ele>573</ele>
        <time>2014-07-28T12:13:27Z</time>
      </trkpt>
      <trkpt lat="42.96359" lon="0.79496">
        <ele>570</ele>
        <time>2014-07-28T12:13:50Z</time>
      </trkpt>
      <trkpt lat="42.96367" lon="0.79491">
        <ele>570</ele>
        <time>2014-07-28T12:13:57Z</time>
      </trkpt>
      <trkpt lat="42.96408" lon="0.79453">
        <ele>568</ele>
        <time>2014-07-28T12:14:33Z</time>
      </trkpt>
      <trkpt lat="42.96415" lon="0.79445">
        <ele>568</ele>
        <time>2014-07-28T12:14:40Z</time>
      </trkpt>
      <trkpt lat="42.96434" lon="0.7944">
        <ele>568</ele>
        <time>2014-07-28T12:14:55Z</time>
      </trkpt>
      <trkpt lat="42.96453" lon="0.7944">
        <ele>568</ele>
        <time>2014-07-28T12:15:11Z</time>
      </trkpt>
      <trkpt lat="42.96501" lon="0.79435">
        <ele>560</ele>
        <time>2014-07-28T12:15:46Z</time>
      </trkpt>
      <trkpt lat="42.96549" lon="0.79429">
        <ele>550</ele>
        <time>2014-07-28T12:16:20Z</time>
      </trkpt>
      <trkpt lat="42.96559" lon="0.79431">
        <ele>549</ele>
        <time>2014-07-28T12:16:27Z</time>
      </trkpt>
      <trkpt lat="42.96575" lon="0.79445">
        <ele>550</ele>
        <time>2014-07-28T12:16:44Z</time>
      </trkpt>
      <trkpt lat="42.96584" lon="0.79446">
        <ele>551</ele>
        <time>2014-07-28T12:16:52Z</time>
      </trkpt>
      <trkpt lat="42.96594" lon="0.79445">
        <ele>551</ele>
        <time>2014-07-28T12:16:59Z</time>
      </trkpt>
      <trkpt lat="42.96603" lon="0.79447">
        <ele>550</ele>
        <time>2014-07-28T12:17:06Z</time>
      </trkpt>
      <trkpt lat="42.96612" lon="0.79451">
        <ele>551</ele>
        <time>2014-07-28T12:17:14Z</time>
      </trkpt>
      <trkpt lat="42.96621" lon="0.79452">
        <ele>551</ele>
        <time>2014-07-28T12:17:21Z</time>
      </trkpt>
      <trkpt lat="42.96641" lon="0.79455">
        <ele>549</ele>
        <time>2014-07-28T12:17:34Z</time>
      </trkpt>
      <trkpt lat="42.96657" lon="0.79444">
        <ele>547</ele>
        <time>2014-07-28T12:17:47Z</time>
      </trkpt>
      <trkpt lat="42.96666" lon="0.79421">
        <ele>547</ele>
        <time>2014-07-28T12:18:01Z</time>
      </trkpt>
      <trkpt lat="42.96676" lon="0.79368">
        <ele>542</ele>
        <time>2014-07-28T12:18:29Z</time>
      </trkpt>
      <trkpt lat="42.96685" lon="0.79316">
        <ele>542</ele>
        <time>2014-07-28T12:18:57Z</time>
      </trkpt>
      <trkpt lat="42.96706" lon="0.79273">
        <ele>535</ele>
        <time>2014-07-28T12:19:27Z</time>
      </trkpt>
      <trkpt lat="42.9674" lon="0.7923">
        <ele>531</ele>
        <time>2014-07-28T12:20:02Z</time>
      </trkpt>
      <trkpt lat="42.96776" lon="0.79188">
        <ele>526</ele>
        <time>2014-07-28T12:20:38Z</time>
      </trkpt>
      <trkpt lat="42.96784" lon="0.79181">
        <ele>520</ele>
        <time>2014-07-28T12:21:15Z</time>
      </trkpt>
      <trkpt lat="42.9679" lon="0.79171">
        <ele>519</ele>
        <time>2014-07-28T12:21:24Z</time>
      </trkpt>
      <trkpt lat="42.96799" lon="0.79164">
        <ele>519</ele>
        <time>2014-07-28T12:21:32Z</time>
      </trkpt>
      <trkpt lat="42.96808" lon="0.7916">
        <ele>520</ele>
        <time>2014-07-28T12:21:40Z</time>
      </trkpt>
      <trkpt lat="42.96843" lon="0.79137">
        <ele>529</ele>
        <time>2014-07-28T12:22:12Z</time>
      </trkpt>
      <trkpt lat="42.96853" lon="0.79133">
        <ele>532</ele>
        <time>2014-07-28T12:22:19Z</time>
      </trkpt>
      <trkpt lat="42.96862" lon="0.79128">
        <ele>532</ele>
        <time>2014-07-28T12:22:26Z</time>
      </trkpt>
      <trkpt lat="42.96873" lon="0.79125">
        <ele>532</ele>
        <time>2014-07-28T12:22:33Z</time>
      </trkpt>
      <trkpt lat="42.96892" lon="0.79128">
        <ele>530</ele>
        <time>2014-07-28T12:22:47Z</time>
      </trkpt>
      <trkpt lat="42.96931" lon="0.79132">
        <ele>524</ele>
        <time>2014-07-28T12:23:15Z</time>
      </trkpt>
      <trkpt lat="42.9694" lon="0.79138">
        <ele>526</ele>
        <time>2014-07-28T12:23:23Z</time>
      </trkpt>
      <trkpt lat="42.9696" lon="0.79137">
        <ele>528</ele>
        <time>2014-07-28T12:23:38Z</time>
      </trkpt>
      <trkpt lat="42.96997" lon="0.7912">
        <ele>534</ele>
        <time>2014-07-28T12:24:08Z</time>
      </trkpt>
      <trkpt lat="42.97034" lon="0.79103">
        <ele>534</ele>
        <time>2014-07-28T12:24:36Z</time>
      </trkpt>
      <trkpt lat="42.97062" lon="0.79092">
        <ele>535</ele>
        <time>2014-07-28T12:24:57Z</time>
      </trkpt>
      <trkpt lat="42.97109" lon="0.7907">
        <ele>531</ele>
        <time>2014-07-28T12:25:32Z</time>
      </trkpt>
      <trkpt lat="42.97118" lon="0.79068">
        <ele>531</ele>
        <time>2014-07-28T12:25:39Z</time>
      </trkpt>
      <trkpt lat="42.97137" lon="0.79061">
        <ele>532</ele>
        <time>2014-07-28T12:25:54Z</time>
      </trkpt>
      <trkpt lat="42.97156" lon="0.79056">
        <ele>532</ele>
        <time>2014-07-28T12:26:08Z</time>
      </trkpt>
      <trkpt lat="42.97192" lon="0.79042">
        <ele>536</ele>
        <time>2014-07-28T12:26:38Z</time>
      </trkpt>
      <trkpt lat="42.9723" lon="0.79001">
        <ele>526</ele>
        <time>2014-07-28T12:27:08Z</time>
      </trkpt>
      <trkpt lat="42.97238" lon="0.78992">
        <ele>523</ele>
        <time>2014-07-28T12:27:15Z</time>
      </trkpt>
      <trkpt lat="42.9727" lon="0.78961">
        <ele>521</ele>
        <time>2014-07-28T12:27:43Z</time>
      </trkpt>
      <trkpt lat="42.97289" lon="0.78953">
        <ele>522</ele>
        <time>2014-07-28T12:27:58Z</time>
      </trkpt>
      <trkpt lat="42.97298" lon="0.78948">
        <ele>522</ele>
        <time>2014-07-28T12:28:05Z</time>
      </trkpt>
      <trkpt lat="42.97342" lon="0.78927">
        <ele>515</ele>
        <time>2014-07-28T12:28:39Z</time>
      </trkpt>
      <trkpt lat="42.97361" lon="0.78918">
        <ele>511</ele>
        <time>2014-07-28T12:28:53Z</time>
      </trkpt>
      <trkpt lat="42.97368" lon="0.78909">
        <ele>512</ele>
        <time>2014-07-28T12:29:00Z</time>
      </trkpt>
      <trkpt lat="42.97412" lon="0.78888">
        <ele>511</ele>
        <time>2014-07-28T12:29:34Z</time>
      </trkpt>
      <trkpt lat="42.97421" lon="0.78883">
        <ele>511</ele>
        <time>2014-07-28T12:29:41Z</time>
      </trkpt>
      <trkpt lat="42.9743" lon="0.78878">
        <ele>511</ele>
        <time>2014-07-28T12:29:48Z</time>
      </trkpt>
      <trkpt lat="42.97439" lon="0.78871">
        <ele>511</ele>
        <time>2014-07-28T12:29:55Z</time>
      </trkpt>
      <trkpt lat="42.97476" lon="0.78855">
        <ele>511</ele>
        <time>2014-07-28T12:30:22Z</time>
      </trkpt>
      <trkpt lat="42.97494" lon="0.7886">
        <ele>510</ele>
        <time>2014-07-28T12:30:36Z</time>
      </trkpt>
      <trkpt lat="42.97504" lon="0.78863">
        <ele>511</ele>
        <time>2014-07-28T12:30:44Z</time>
      </trkpt>
      <trkpt lat="42.97513" lon="0.78868">
        <ele>514</ele>
        <time>2014-07-28T12:30:52Z</time>
      </trkpt>
      <trkpt lat="42.97529" lon="0.78883">
        <ele>516</ele>
        <time>2014-07-28T12:31:08Z</time>
      </trkpt>
      <trkpt lat="42.97576" lon="0.78907">
        <ele>513</ele>
        <time>2014-07-28T12:31:44Z</time>
      </trkpt>
      <trkpt lat="42.97585" lon="0.7891">
        <ele>515</ele>
        <time>2014-07-28T12:31:52Z</time>
      </trkpt>
      <trkpt lat="42.97603" lon="0.7892">
        <ele>512</ele>
        <time>2014-07-28T12:32:05Z</time>
      </trkpt>
      <trkpt lat="42.97612" lon="0.78922">
        <ele>512</ele>
        <time>2014-07-28T12:32:12Z</time>
      </trkpt>
      <trkpt lat="42.97622" lon="0.78921">
        <ele>513</ele>
        <time>2014-07-28T12:32:20Z</time>
      </trkpt>
      <trkpt lat="42.9766" lon="0.78922">
        <ele>522</ele>
        <time>2014-07-28T12:32:52Z</time>
      </trkpt>
      <trkpt lat="42.97685" lon="0.78907">
        <ele>529</ele>
        <time>2014-07-28T12:33:15Z</time>
      </trkpt>
      <trkpt lat="42.97694" lon="0.78901">
        <ele>529</ele>
        <time>2014-07-28T12:33:23Z</time>
      </trkpt>
      <trkpt lat="42.97733" lon="0.78895">
        <ele>532</ele>
        <time>2014-07-28T12:33:53Z</time>
      </trkpt>
      <trkpt lat="42.97742" lon="0.78892">
        <ele>532</ele>
        <time>2014-07-28T12:33:59Z</time>
      </trkpt>
      <trkpt lat="42.97788" lon="0.78872">
        <ele>512</ele>
        <time>2014-07-28T12:34:31Z</time>
      </trkpt>
      <trkpt lat="42.97797" lon="0.78866">
        <ele>514</ele>
        <time>2014-07-28T12:34:39Z</time>
      </trkpt>
      <trkpt lat="42.97814" lon="0.78854">
        <ele>514</ele>
        <time>2014-07-28T12:34:54Z</time>
      </trkpt>
      <trkpt lat="42.97823" lon="0.78848">
        <ele>515</ele>
        <time>2014-07-28T12:35:02Z</time>
      </trkpt>
      <trkpt lat="42.97851" lon="0.78845">
        <ele>523</ele>
        <time>2014-07-28T12:35:28Z</time>
      </trkpt>
      <trkpt lat="42.9786" lon="0.78843">
        <ele>523</ele>
        <time>2014-07-28T12:35:35Z</time>
      </trkpt>
      <trkpt lat="42.97909" lon="0.78845">
        <ele>506</ele>
        <time>2014-07-28T12:36:12Z</time>
      </trkpt>
      <trkpt lat="42.97928" lon="0.78849">
        <ele>507</ele>
        <time>2014-07-28T12:36:28Z</time>
      </trkpt>
      <trkpt lat="42.97966" lon="0.78853">
        <ele>515</ele>
        <time>2014-07-28T12:37:02Z</time>
      </trkpt>
      <trkpt lat="42.97976" lon="0.78855">
        <ele>517</ele>
        <time>2014-07-28T12:37:11Z</time>
      </trkpt>
      <trkpt lat="42.97985" lon="0.78853">
        <ele>518</ele>
        <time>2014-07-28T12:37:19Z</time>
      </trkpt>
      <trkpt lat="42.97995" lon="0.78853">
        <ele>517</ele>
        <time>2014-07-28T12:37:27Z</time>
      </trkpt>
      <trkpt lat="42.98004" lon="0.78855">
        <ele>518</ele>
        <time>2014-07-28T12:37:36Z</time>
      </trkpt>
      <trkpt lat="42.98013" lon="0.78857">
        <ele>521</ele>
        <time>2014-07-28T12:37:45Z</time>
      </trkpt>
      <trkpt lat="42.98042" lon="0.78858">
        <ele>525</ele>
        <time>2014-07-28T12:38:16Z</time>
      </trkpt>
      <trkpt lat="42.98053" lon="0.78851">
        <ele>523</ele>
        <time>2014-07-28T12:39:11Z</time>
      </trkpt>
      <trkpt lat="42.98061" lon="0.78843">
        <ele>521</ele>
        <time>2014-07-28T12:39:22Z</time>
      </trkpt>
      <trkpt lat="42.9807" lon="0.78838">
        <ele>522</ele>
        <time>2014-07-28T12:39:32Z</time>
      </trkpt>
      <trkpt lat="42.98079" lon="0.78836">
        <ele>525</ele>
        <time>2014-07-28T12:39:41Z</time>
      </trkpt>
      <trkpt lat="42.98098" lon="0.78827">
        <ele>525</ele>
        <time>2014-07-28T12:39:56Z</time>
      </trkpt>
      <trkpt lat="42.98135" lon="0.78817">
        <ele>530</ele>
        <time>2014-07-28T12:40:29Z</time>
      </trkpt>
      <trkpt lat="42.98162" lon="0.78813">
        <ele>532</ele>
        <time>2014-07-28T12:40:53Z</time>
      </trkpt>
      <trkpt lat="42.98171" lon="0.78806">
        <ele>530</ele>
        <time>2014-07-28T12:41:01Z</time>
      </trkpt>
      <trkpt lat="42.98195" lon="0.78788">
        <ele>529</ele>
        <time>2014-07-28T12:41:26Z</time>
      </trkpt>
      <trkpt lat="42.98205" lon="0.78791">
        <ele>527</ele>
        <time>2014-07-28T12:41:35Z</time>
      </trkpt>
      <trkpt lat="42.98202" lon="0.78789">
        <ele>530</ele>
        <time>2014-07-28T12:49:20Z</time>
      </trkpt>
      <trkpt lat="42.982" lon="0.78788">
        <ele>530</ele>
        <time>2014-07-28T12:49:26Z</time>
      </trkpt>
      <trkpt lat="42.98195" lon="0.78789">
        <ele>530</ele>
        <time>2014-07-28T12:49:32Z</time>
      </trkpt>
      <trkpt lat="42.9818" lon="0.78784">
        <ele>533</ele>
        <time>2014-07-28T12:49:47Z</time>
      </trkpt>
      <trkpt lat="42.9817" lon="0.78781">
        <ele>533</ele>
        <time>2014-07-28T12:49:56Z</time>
      </trkpt>
      <trkpt lat="42.98157" lon="0.78774">
        <ele>533</ele>
        <time>2014-07-28T12:50:08Z</time>
      </trkpt>
      <trkpt lat="42.98152" lon="0.78771">
        <ele>533</ele>
        <time>2014-07-28T12:50:12Z</time>
      </trkpt>
      <trkpt lat="42.98143" lon="0.78767">
        <ele>533</ele>
        <time>2014-07-28T12:50:20Z</time>
      </trkpt>
      <trkpt lat="42.98106" lon="0.78751">
        <ele>536</ele>
        <time>2014-07-28T12:50:53Z</time>
      </trkpt>
      <trkpt lat="42.9807" lon="0.78731">
        <ele>538</ele>
        <time>2014-07-28T12:51:25Z</time>
      </trkpt>
      <trkpt lat="42.98052" lon="0.78724">
        <ele>538</ele>
        <time>2014-07-28T12:51:40Z</time>
      </trkpt>
      <trkpt lat="42.98023" lon="0.78714">
        <ele>542</ele>
        <time>2014-07-28T12:52:05Z</time>
      </trkpt>
      <trkpt lat="42.98005" lon="0.78704">
        <ele>542</ele>
        <time>2014-07-28T12:52:20Z</time>
      </trkpt>
      <trkpt lat="42.97995" lon="0.78699">
        <ele>542</ele>
        <time>2014-07-28T12:52:28Z</time>
      </trkpt>
      <trkpt lat="42.97986" lon="0.78694">
        <ele>544</ele>
        <time>2014-07-28T12:52:36Z</time>
      </trkpt>
      <trkpt lat="42.97978" lon="0.78688">
        <ele>544</ele>
        <time>2014-07-28T12:52:44Z</time>
      </trkpt>
      <trkpt lat="42.97962" lon="0.78674">
        <ele>542</ele>
        <time>2014-07-28T12:53:01Z</time>
      </trkpt>
      <trkpt lat="42.97938" lon="0.78649">
        <ele>543</ele>
        <time>2014-07-28T12:53:25Z</time>
      </trkpt>
      <trkpt lat="42.97932" lon="0.78639">
        <ele>543</ele>
        <time>2014-07-28T12:53:32Z</time>
      </trkpt>
      <trkpt lat="42.97915" lon="0.78591">
        <ele>546</ele>
        <time>2014-07-28T12:54:04Z</time>
      </trkpt>
      <trkpt lat="42.97906" lon="0.78554">
        <ele>548</ele>
        <time>2014-07-28T12:54:28Z</time>
      </trkpt>
      <trkpt lat="42.97904" lon="0.7854">
        <ele>548</ele>
        <time>2014-07-28T12:54:36Z</time>
      </trkpt>
      <trkpt lat="42.97901" lon="0.78527">
        <ele>549</ele>
        <time>2014-07-28T12:54:45Z</time>
      </trkpt>
      <trkpt lat="42.979" lon="0.78515">
        <ele>551</ele>
        <time>2014-07-28T12:54:54Z</time>
      </trkpt>
      <trkpt lat="42.97898" lon="0.78501">
        <ele>551</ele>
        <time>2014-07-28T12:55:02Z</time>
      </trkpt>
      <trkpt lat="42.97899" lon="0.78489">
        <ele>553</ele>
        <time>2014-07-28T12:55:10Z</time>
      </trkpt>
      <trkpt lat="42.97902" lon="0.78477">
        <ele>552</ele>
        <time>2014-07-28T12:55:18Z</time>
      </trkpt>
      <trkpt lat="42.97912" lon="0.7844">
        <ele>545</ele>
        <time>2014-07-28T12:55:40Z</time>
      </trkpt>
      <trkpt lat="42.97918" lon="0.78416">
        <ele>543</ele>
        <time>2014-07-28T12:55:55Z</time>
      </trkpt>
      <trkpt lat="42.97921" lon="0.78404">
        <ele>544</ele>
        <time>2014-07-28T12:56:03Z</time>
      </trkpt>
      <trkpt lat="42.97926" lon="0.78352">
        <ele>553</ele>
        <time>2014-07-28T12:56:38Z</time>
      </trkpt>
      <trkpt lat="42.97922" lon="0.78301">
        <ele>567</ele>
        <time>2014-07-28T12:57:07Z</time>
      </trkpt>
      <trkpt lat="42.9792" lon="0.78287">
        <ele>567</ele>
        <time>2014-07-28T12:57:14Z</time>
      </trkpt>
      <trkpt lat="42.97918" lon="0.78223">
        <ele>554</ele>
        <time>2014-07-28T12:57:46Z</time>
      </trkpt>
      <trkpt lat="42.97915" lon="0.78211">
        <ele>551</ele>
        <time>2014-07-28T12:57:53Z</time>
      </trkpt>
      <trkpt lat="42.9791" lon="0.7816">
        <ele>551</ele>
        <time>2014-07-28T12:58:23Z</time>
      </trkpt>
      <trkpt lat="42.97909" lon="0.78147">
        <ele>550</ele>
        <time>2014-07-28T12:58:31Z</time>
      </trkpt>
      <trkpt lat="42.97907" lon="0.78134">
        <ele>549</ele>
        <time>2014-07-28T12:58:40Z</time>
      </trkpt>
      <trkpt lat="42.97909" lon="0.78094">
        <ele>552</ele>
        <time>2014-07-28T12:59:06Z</time>
      </trkpt>
      <trkpt lat="42.9791" lon="0.78082">
        <ele>552</ele>
        <time>2014-07-28T12:59:13Z</time>
      </trkpt>
      <trkpt lat="42.9791" lon="0.78068">
        <ele>552</ele>
        <time>2014-07-28T12:59:20Z</time>
      </trkpt>
      <trkpt lat="42.97908" lon="0.78042">
        <ele>557</ele>
        <time>2014-07-28T12:59:38Z</time>
      </trkpt>
      <trkpt lat="42.97909" lon="0.78029">
        <ele>557</ele>
        <time>2014-07-28T12:59:45Z</time>
      </trkpt>
      <trkpt lat="42.97909" lon="0.77988">
        <ele>560</ele>
        <time>2014-07-28T13:00:10Z</time>
      </trkpt>
      <trkpt lat="42.97903" lon="0.77924">
        <ele>561</ele>
        <time>2014-07-28T13:00:46Z</time>
      </trkpt>
      <trkpt lat="42.97898" lon="0.77899">
        <ele>562</ele>
        <time>2014-07-28T13:00:59Z</time>
      </trkpt>
      <trkpt lat="42.97895" lon="0.77887">
        <ele>564</ele>
        <time>2014-07-28T13:01:06Z</time>
      </trkpt>
      <trkpt lat="42.97884" lon="0.7785">
        <ele>566</ele>
        <time>2014-07-28T13:01:30Z</time>
      </trkpt>
      <trkpt lat="42.97876" lon="0.77827">
        <ele>566</ele>
        <time>2014-07-28T13:01:45Z</time>
      </trkpt>
      <trkpt lat="42.97869" lon="0.77803">
        <ele>568</ele>
        <time>2014-07-28T13:02:00Z</time>
      </trkpt>
      <trkpt lat="42.97865" lon="0.77792">
        <ele>568</ele>
        <time>2014-07-28T13:02:08Z</time>
      </trkpt>
      <trkpt lat="42.97863" lon="0.77779">
        <ele>569</ele>
        <time>2014-07-28T13:02:16Z</time>
      </trkpt>
      <trkpt lat="42.97861" lon="0.77763">
        <ele>572</ele>
        <time>2014-07-28T13:02:27Z</time>
      </trkpt>
      <trkpt lat="42.9786" lon="0.77742">
        <ele>574</ele>
        <time>2014-07-28T13:02:41Z</time>
      </trkpt>
      <trkpt lat="42.9786" lon="0.77721">
        <ele>580</ele>
        <time>2014-07-28T13:02:55Z</time>
      </trkpt>
      <trkpt lat="42.97858" lon="0.77672">
        <ele>582</ele>
        <time>2014-07-28T13:03:22Z</time>
      </trkpt>
      <trkpt lat="42.97847" lon="0.77651">
        <ele>583</ele>
        <time>2014-07-28T13:03:35Z</time>
      </trkpt>
      <trkpt lat="42.97845" lon="0.77645">
        <ele>583</ele>
        <time>2014-07-28T13:03:39Z</time>
      </trkpt>
      <trkpt lat="42.97843" lon="0.77638">
        <ele>583</ele>
        <time>2014-07-28T13:03:43Z</time>
      </trkpt>
      <trkpt lat="42.9784" lon="0.77625">
        <ele>582</ele>
        <time>2014-07-28T13:03:51Z</time>
      </trkpt>
      <trkpt lat="42.97832" lon="0.77615">
        <ele>581</ele>
        <time>2014-07-28T13:04:00Z</time>
      </trkpt>
      <trkpt lat="42.97831" lon="0.77608">
        <ele>581</ele>
        <time>2014-07-28T13:04:04Z</time>
      </trkpt>
      <trkpt lat="42.97828" lon="0.77603">
        <ele>582</ele>
        <time>2014-07-28T13:04:09Z</time>
      </trkpt>
      <trkpt lat="42.97828" lon="0.77597">
        <ele>583</ele>
        <time>2014-07-28T13:04:13Z</time>
      </trkpt>
      <trkpt lat="42.97829" lon="0.77591">
        <ele>582</ele>
        <time>2014-07-28T13:04:16Z</time>
      </trkpt>
      <trkpt lat="42.97833" lon="0.77579">
        <ele>582</ele>
        <time>2014-07-28T13:04:23Z</time>
      </trkpt>
      <trkpt lat="42.97835" lon="0.77572">
        <ele>583</ele>
        <time>2014-07-28T13:04:27Z</time>
      </trkpt>
      <trkpt lat="42.97839" lon="0.77551">
        <ele>587</ele>
        <time>2014-07-28T13:04:40Z</time>
      </trkpt>
      <trkpt lat="42.97843" lon="0.77546">
        <ele>589</ele>
        <time>2014-07-28T13:04:45Z</time>
      </trkpt>
      <trkpt lat="42.97844" lon="0.7754">
        <ele>593</ele>
        <time>2014-07-28T13:04:50Z</time>
      </trkpt>
      <trkpt lat="42.97843" lon="0.77532">
        <ele>594</ele>
        <time>2014-07-28T13:04:54Z</time>
      </trkpt>
      <trkpt lat="42.9784" lon="0.7752">
        <ele>592</ele>
        <time>2014-07-28T13:05:00Z</time>
      </trkpt>
      <trkpt lat="42.97843" lon="0.77495">
        <ele>590</ele>
        <time>2014-07-28T13:05:12Z</time>
      </trkpt>
      <trkpt lat="42.97844" lon="0.77489">
        <ele>590</ele>
        <time>2014-07-28T13:05:15Z</time>
      </trkpt>
      <trkpt lat="42.97838" lon="0.77468">
        <ele>589</ele>
        <time>2014-07-28T13:05:27Z</time>
      </trkpt>
      <trkpt lat="42.97835" lon="0.77463">
        <ele>589</ele>
        <time>2014-07-28T13:05:30Z</time>
      </trkpt>
      <trkpt lat="42.97835" lon="0.77457">
        <ele>589</ele>
        <time>2014-07-28T13:05:33Z</time>
      </trkpt>
      <trkpt lat="42.97834" lon="0.7745">
        <ele>590</ele>
        <time>2014-07-28T13:05:37Z</time>
      </trkpt>
      <trkpt lat="42.97832" lon="0.77444">
        <ele>590</ele>
        <time>2014-07-28T13:05:41Z</time>
      </trkpt>
      <trkpt lat="42.9783" lon="0.77438">
        <ele>589</ele>
        <time>2014-07-28T13:05:45Z</time>
      </trkpt>
      <trkpt lat="42.97831" lon="0.7743">
        <ele>589</ele>
        <time>2014-07-28T13:05:49Z</time>
      </trkpt>
      <trkpt lat="42.97829" lon="0.77424">
        <ele>590</ele>
        <time>2014-07-28T13:05:53Z</time>
      </trkpt>
      <trkpt lat="42.97829" lon="0.77418">
        <ele>590</ele>
        <time>2014-07-28T13:05:57Z</time>
      </trkpt>
      <trkpt lat="42.97836" lon="0.77383">
        <ele>595</ele>
        <time>2014-07-28T13:06:20Z</time>
      </trkpt>
      <trkpt lat="42.9785" lon="0.77361">
        <ele>598</ele>
        <time>2014-07-28T13:06:39Z</time>
      </trkpt>
      <trkpt lat="42.97852" lon="0.77354">
        <ele>598</ele>
        <time>2014-07-28T13:06:43Z</time>
      </trkpt>
      <trkpt lat="42.97857" lon="0.77343">
        <ele>598</ele>
        <time>2014-07-28T13:06:52Z</time>
      </trkpt>
      <trkpt lat="42.97859" lon="0.77337">
        <ele>597</ele>
        <time>2014-07-28T13:06:56Z</time>
      </trkpt>
      <trkpt lat="42.97861" lon="0.77321">
        <ele>595</ele>
        <time>2014-07-28T13:07:04Z</time>
      </trkpt>
      <trkpt lat="42.97861" lon="0.77314">
        <ele>595</ele>
        <time>2014-07-28T13:07:08Z</time>
      </trkpt>
      <trkpt lat="42.97861" lon="0.77307">
        <ele>595</ele>
        <time>2014-07-28T13:07:12Z</time>
      </trkpt>
      <trkpt lat="42.97861" lon="0.773">
        <ele>595</ele>
        <time>2014-07-28T13:07:16Z</time>
      </trkpt>
      <trkpt lat="42.97859" lon="0.77293">
        <ele>594</ele>
        <time>2014-07-28T13:07:20Z</time>
      </trkpt>
      <trkpt lat="42.97858" lon="0.77285">
        <ele>594</ele>
        <time>2014-07-28T13:07:25Z</time>
      </trkpt>
      <trkpt lat="42.97856" lon="0.77278">
        <ele>595</ele>
        <time>2014-07-28T13:07:30Z</time>
      </trkpt>
      <trkpt lat="42.97854" lon="0.77272">
        <ele>595</ele>
        <time>2014-07-28T13:07:34Z</time>
      </trkpt>
      <trkpt lat="42.9785" lon="0.77268">
        <ele>594</ele>
        <time>2014-07-28T13:07:37Z</time>
      </trkpt>
      <trkpt lat="42.97848" lon="0.77262">
        <ele>592</ele>
        <time>2014-07-28T13:07:41Z</time>
      </trkpt>
      <trkpt lat="42.97848" lon="0.77255">
        <ele>592</ele>
        <time>2014-07-28T13:07:45Z</time>
      </trkpt>
      <trkpt lat="42.97847" lon="0.77247">
        <ele>592</ele>
        <time>2014-07-28T13:07:49Z</time>
      </trkpt>
      <trkpt lat="42.97846" lon="0.77241">
        <ele>593</ele>
        <time>2014-07-28T13:07:53Z</time>
      </trkpt>
      <trkpt lat="42.97842" lon="0.77228">
        <ele>593</ele>
        <time>2014-07-28T13:08:03Z</time>
      </trkpt>
      <trkpt lat="42.97839" lon="0.77201">
        <ele>599</ele>
        <time>2014-07-28T13:08:19Z</time>
      </trkpt>
      <trkpt lat="42.97838" lon="0.77194">
        <ele>599</ele>
        <time>2014-07-28T13:08:23Z</time>
      </trkpt>
      <trkpt lat="42.97836" lon="0.77187">
        <ele>599</ele>
        <time>2014-07-28T13:08:27Z</time>
      </trkpt>
      <trkpt lat="42.97833" lon="0.77159">
        <ele>602</ele>
        <time>2014-07-28T13:08:43Z</time>
      </trkpt>
      <trkpt lat="42.97832" lon="0.77153">
        <ele>602</ele>
        <time>2014-07-28T13:08:47Z</time>
      </trkpt>
      <trkpt lat="42.97831" lon="0.77146">
        <ele>603</ele>
        <time>2014-07-28T13:08:51Z</time>
      </trkpt>
      <trkpt lat="42.97828" lon="0.77134">
        <ele>603</ele>
        <time>2014-07-28T13:08:59Z</time>
      </trkpt>
      <trkpt lat="42.97827" lon="0.77127">
        <ele>603</ele>
        <time>2014-07-28T13:09:03Z</time>
      </trkpt>
      <trkpt lat="42.97824" lon="0.77122">
        <ele>603</ele>
        <time>2014-07-28T13:09:06Z</time>
      </trkpt>
      <trkpt lat="42.9782" lon="0.77108">
        <ele>603</ele>
        <time>2014-07-28T13:09:14Z</time>
      </trkpt>
      <trkpt lat="42.97819" lon="0.77101">
        <ele>603</ele>
        <time>2014-07-28T13:09:18Z</time>
      </trkpt>
      <trkpt lat="42.97817" lon="0.77094">
        <ele>603</ele>
        <time>2014-07-28T13:09:22Z</time>
      </trkpt>
      <trkpt lat="42.97816" lon="0.77088">
        <ele>604</ele>
        <time>2014-07-28T13:09:26Z</time>
      </trkpt>
      <trkpt lat="42.97816" lon="0.77081">
        <ele>604</ele>
        <time>2014-07-28T13:09:30Z</time>
      </trkpt>
      <trkpt lat="42.97814" lon="0.77062">
        <ele>607</ele>
        <time>2014-07-28T13:09:43Z</time>
      </trkpt>
      <trkpt lat="42.97812" lon="0.77047">
        <ele>606</ele>
        <time>2014-07-28T13:09:51Z</time>
      </trkpt>
      <trkpt lat="42.97812" lon="0.7704">
        <ele>606</ele>
        <time>2014-07-28T13:09:56Z</time>
      </trkpt>
      <trkpt lat="42.97811" lon="0.77033">
        <ele>605</ele>
        <time>2014-07-28T13:10:00Z</time>
      </trkpt>
      <trkpt lat="42.97812" lon="0.77026">
        <ele>605</ele>
        <time>2014-07-28T13:10:04Z</time>
      </trkpt>
      <trkpt lat="42.97811" lon="0.77013">
        <ele>604</ele>
        <time>2014-07-28T13:10:11Z</time>
      </trkpt>
      <trkpt lat="42.97812" lon="0.77005">
        <ele>604</ele>
        <time>2014-07-28T13:10:15Z</time>
      </trkpt>
      <trkpt lat="42.97813" lon="0.76996">
        <ele>604</ele>
        <time>2014-07-28T13:10:19Z</time>
      </trkpt>
      <trkpt lat="42.97813" lon="0.76989">
        <ele>603</ele>
        <time>2014-07-28T13:10:23Z</time>
      </trkpt>
      <trkpt lat="42.97808" lon="0.76969">
        <ele>601</ele>
        <time>2014-07-28T13:10:34Z</time>
      </trkpt>
      <trkpt lat="42.97808" lon="0.76962">
        <ele>601</ele>
        <time>2014-07-28T13:10:38Z</time>
      </trkpt>
      <trkpt lat="42.9781" lon="0.76949">
        <ele>600</ele>
        <time>2014-07-28T13:10:45Z</time>
      </trkpt>
      <trkpt lat="42.97809" lon="0.76942">
        <ele>599</ele>
        <time>2014-07-28T13:10:49Z</time>
      </trkpt>
      <trkpt lat="42.97808" lon="0.76936">
        <ele>600</ele>
        <time>2014-07-28T13:10:53Z</time>
      </trkpt>
      <trkpt lat="42.97809" lon="0.76929">
        <ele>601</ele>
        <time>2014-07-28T13:10:57Z</time>
      </trkpt>
      <trkpt lat="42.97811" lon="0.76898">
        <ele>604</ele>
        <time>2014-07-28T13:11:13Z</time>
      </trkpt>
      <trkpt lat="42.97811" lon="0.76891">
        <ele>604</ele>
        <time>2014-07-28T13:11:17Z</time>
      </trkpt>
      <trkpt lat="42.97812" lon="0.76885">
        <ele>603</ele>
        <time>2014-07-28T13:11:20Z</time>
      </trkpt>
      <trkpt lat="42.97815" lon="0.76869">
        <ele>603</ele>
        <time>2014-07-28T13:11:29Z</time>
      </trkpt>
      <trkpt lat="42.97823" lon="0.76819">
        <ele>598</ele>
        <time>2014-07-28T13:11:57Z</time>
      </trkpt>
      <trkpt lat="42.97827" lon="0.76776">
        <ele>598</ele>
        <time>2014-07-28T13:12:20Z</time>
      </trkpt>
      <trkpt lat="42.97827" lon="0.76763">
        <ele>598</ele>
        <time>2014-07-28T13:12:27Z</time>
      </trkpt>
      <trkpt lat="42.9783" lon="0.76737">
        <ele>594</ele>
        <time>2014-07-28T13:12:41Z</time>
      </trkpt>
      <trkpt lat="42.97831" lon="0.76724">
        <ele>593</ele>
        <time>2014-07-28T13:12:48Z</time>
      </trkpt>
      <trkpt lat="42.97834" lon="0.76685">
        <ele>595</ele>
        <time>2014-07-28T13:13:09Z</time>
      </trkpt>
      <trkpt lat="42.97837" lon="0.76666">
        <ele>595</ele>
        <time>2014-07-28T13:13:20Z</time>
      </trkpt>
      <trkpt lat="42.97839" lon="0.76652">
        <ele>595</ele>
        <time>2014-07-28T13:13:28Z</time>
      </trkpt>
      <trkpt lat="42.97839" lon="0.76644">
        <ele>595</ele>
        <time>2014-07-28T13:13:32Z</time>
      </trkpt>
      <trkpt lat="42.97839" lon="0.76636">
        <ele>595</ele>
        <time>2014-07-28T13:13:36Z</time>
      </trkpt>
      <trkpt lat="42.97841" lon="0.76613">
        <ele>594</ele>
        <time>2014-07-28T13:13:48Z</time>
      </trkpt>
      <trkpt lat="42.97843" lon="0.76584">
        <ele>595</ele>
        <time>2014-07-28T13:14:04Z</time>
      </trkpt>
      <trkpt lat="42.97844" lon="0.76561">
        <ele>594</ele>
        <time>2014-07-28T13:14:16Z</time>
      </trkpt>
      <trkpt lat="42.97845" lon="0.76553">
        <ele>594</ele>
        <time>2014-07-28T13:14:20Z</time>
      </trkpt>
      <trkpt lat="42.97846" lon="0.76546">
        <ele>595</ele>
        <time>2014-07-28T13:14:24Z</time>
      </trkpt>
      <trkpt lat="42.97847" lon="0.76539">
        <ele>596</ele>
        <time>2014-07-28T13:14:28Z</time>
      </trkpt>
      <trkpt lat="42.97847" lon="0.7653">
        <ele>596</ele>
        <time>2014-07-28T13:14:32Z</time>
      </trkpt>
      <trkpt lat="42.97847" lon="0.76523">
        <ele>596</ele>
        <time>2014-07-28T13:14:36Z</time>
      </trkpt>
      <trkpt lat="42.97851" lon="0.76469">
        <ele>585</ele>
        <time>2014-07-28T13:15:08Z</time>
      </trkpt>
      <trkpt lat="42.97853" lon="0.76447">
        <ele>583</ele>
        <time>2014-07-28T13:15:20Z</time>
      </trkpt>
      <trkpt lat="42.97854" lon="0.76432">
        <ele>584</ele>
        <time>2014-07-28T13:15:28Z</time>
      </trkpt>
      <trkpt lat="42.97855" lon="0.76417">
        <ele>583</ele>
        <time>2014-07-28T13:15:36Z</time>
      </trkpt>
      <trkpt lat="42.9786" lon="0.76359">
        <ele>589</ele>
        <time>2014-07-28T13:16:08Z</time>
      </trkpt>
      <trkpt lat="42.9786" lon="0.76344">
        <ele>591</ele>
        <time>2014-07-28T13:16:16Z</time>
      </trkpt>
      <trkpt lat="42.97863" lon="0.7633">
        <ele>591</ele>
        <time>2014-07-28T13:16:24Z</time>
      </trkpt>
      <trkpt lat="42.97863" lon="0.76322">
        <ele>591</ele>
        <time>2014-07-28T13:16:28Z</time>
      </trkpt>
      <trkpt lat="42.97859" lon="0.76316">
        <ele>593</ele>
        <time>2014-07-28T13:16:31Z</time>
      </trkpt>
      <trkpt lat="42.97851" lon="0.76307">
        <ele>595</ele>
        <time>2014-07-28T13:16:35Z</time>
      </trkpt>
      <trkpt lat="42.9786" lon="0.76293">
        <ele>597</ele>
        <time>2014-07-28T13:16:42Z</time>
      </trkpt>
      <trkpt lat="42.97867" lon="0.76285">
        <ele>598</ele>
        <time>2014-07-28T13:16:47Z</time>
      </trkpt>
      <trkpt lat="42.9787" lon="0.76271">
        <ele>599</ele>
        <time>2014-07-28T13:16:54Z</time>
      </trkpt>
      <trkpt lat="42.97866" lon="0.76227">
        <ele>603</ele>
        <time>2014-07-28T13:17:18Z</time>
      </trkpt>
      <trkpt lat="42.97867" lon="0.76219">
        <ele>603</ele>
        <time>2014-07-28T13:17:22Z</time>
      </trkpt>
      <trkpt lat="42.97858" lon="0.76163">
        <ele>592</ele>
        <time>2014-07-28T13:17:55Z</time>
      </trkpt>
      <trkpt lat="42.97857" lon="0.76156">
        <ele>591</ele>
        <time>2014-07-28T13:17:59Z</time>
      </trkpt>
      <trkpt lat="42.97856" lon="0.76148">
        <ele>591</ele>
        <time>2014-07-28T13:18:03Z</time>
      </trkpt>
      <trkpt lat="42.97854" lon="0.76134">
        <ele>591</ele>
        <time>2014-07-28T13:18:11Z</time>
      </trkpt>
      <trkpt lat="42.9785" lon="0.76121">
        <ele>589</ele>
        <time>2014-07-28T13:18:20Z</time>
      </trkpt>
      <trkpt lat="42.97848" lon="0.76113">
        <ele>591</ele>
        <time>2014-07-28T13:18:24Z</time>
      </trkpt>
      <trkpt lat="42.97847" lon="0.76106">
        <ele>591</ele>
        <time>2014-07-28T13:18:28Z</time>
      </trkpt>
      <trkpt lat="42.97846" lon="0.76099">
        <ele>591</ele>
        <time>2014-07-28T13:18:32Z</time>
      </trkpt>
      <trkpt lat="42.9784" lon="0.7606">
        <ele>588</ele>
        <time>2014-07-28T13:18:56Z</time>
      </trkpt>
      <trkpt lat="42.97839" lon="0.76048">
        <ele>588</ele>
        <time>2014-07-28T13:19:03Z</time>
      </trkpt>
      <trkpt lat="42.97832" lon="0.76044">
        <ele>588</ele>
        <time>2014-07-28T13:19:12Z</time>
      </trkpt>
      <trkpt lat="42.97835" lon="0.76039">
        <ele>587</ele>
        <time>2014-07-28T13:19:19Z</time>
      </trkpt>
      <trkpt lat="42.97836" lon="0.76033">
        <ele>586</ele>
        <time>2014-07-28T13:19:23Z</time>
      </trkpt>
      <trkpt lat="42.97835" lon="0.76027">
        <ele>584</ele>
        <time>2014-07-28T13:19:27Z</time>
      </trkpt>
      <trkpt lat="42.97833" lon="0.7602">
        <ele>584</ele>
        <time>2014-07-28T13:19:31Z</time>
      </trkpt>
      <trkpt lat="42.97831" lon="0.76014">
        <ele>583</ele>
        <time>2014-07-28T13:19:35Z</time>
      </trkpt>
      <trkpt lat="42.97832" lon="0.76007">
        <ele>582</ele>
        <time>2014-07-28T13:19:39Z</time>
      </trkpt>
      <trkpt lat="42.97834" lon="0.76">
        <ele>584</ele>
        <time>2014-07-28T13:19:43Z</time>
      </trkpt>
      <trkpt lat="42.97835" lon="0.75993">
        <ele>584</ele>
        <time>2014-07-28T13:19:47Z</time>
      </trkpt>
      <trkpt lat="42.97835" lon="0.75986">
        <ele>585</ele>
        <time>2014-07-28T13:19:51Z</time>
      </trkpt>
      <trkpt lat="42.97831" lon="0.75965">
        <ele>586</ele>
        <time>2014-07-28T13:20:03Z</time>
      </trkpt>
      <trkpt lat="42.97829" lon="0.75951">
        <ele>585</ele>
        <time>2014-07-28T13:20:11Z</time>
      </trkpt>
      <trkpt lat="42.97827" lon="0.75938">
        <ele>586</ele>
        <time>2014-07-28T13:20:19Z</time>
      </trkpt>
      <trkpt lat="42.97826" lon="0.75932">
        <ele>586</ele>
        <time>2014-07-28T13:20:23Z</time>
      </trkpt>
      <trkpt lat="42.97818" lon="0.75906">
        <ele>581</ele>
        <time>2014-07-28T13:20:41Z</time>
      </trkpt>
      <trkpt lat="42.97814" lon="0.75893">
        <ele>584</ele>
        <time>2014-07-28T13:20:51Z</time>
      </trkpt>
      <trkpt lat="42.97813" lon="0.75894">
        <ele>584</ele>
        <time>2014-07-28T13:20:57Z</time>
      </trkpt>
    </trkseg>
  </trk>
</gpx>